Provisional Data: Susquehanna River at Kirkwood, NY


Please select a monitoring station.
Please select start date.
Please select start date.

Toggle Unit: C/F Toggle Unit: C/F
Sample Time Temperature (C) Temperature (F) Specific Conductivity (mS/cm) pH   Turbidity (NTU+) DO (mg/L)
10/17/2022 12:00:00 AM 12.59 54.662 0.46 6.85 59.85 8.84
10/17/2022 12:15:00 AM 12.47 54.446 0.461 6.86 47.39 8.85
10/17/2022 12:30:00 AM 12.41 54.338 0.462 6.87 46.45 9.01
10/17/2022 12:45:00 AM 12.42 54.356 0.462 6.87 48.36 8.82
10/17/2022 1:00:00 AM 12.39 54.302 0.461 6.87 57.21 8.91
10/17/2022 1:15:00 AM 12.31 54.158 0.462 6.88 40.79 9.03
10/17/2022 1:30:00 AM 12.12 53.816 0.463 6.86 65.76 9.05
10/17/2022 1:45:00 AM 12.13 53.834 0.463 6.86 38.7 8.89
10/17/2022 2:00:00 AM 12.17 53.906 0.462 6.86 59.69 8.84
10/17/2022 2:15:00 AM 12.04 53.672 0.463 6.88 122.71 8.98
10/17/2022 2:30:00 AM 11.97 53.546 0.464 6.89 118.42 9.14
10/17/2022 2:45:00 AM 11.91 53.438 0.464 6.9 42.27 9.21
10/17/2022 3:00:00 AM 11.91 53.438 0.463 6.89 51.28 9.09
10/17/2022 3:15:00 AM 11.86 53.348 0.463 6.89 76.17 9.11
10/17/2022 3:30:00 AM 11.75 53.15 0.464 6.88 162.38 9.15
10/17/2022 3:45:00 AM 11.78 53.204 0.463 6.88 47.18 9.12
10/17/2022 4:00:00 AM 11.71 53.078 0.463 6.88 49.96 9.22
10/17/2022 4:15:00 AM 11.75 53.15 0.462 6.86 29.89 9.08
10/17/2022 4:30:00 AM 11.92 53.456 0.46 6.86 48.29 8.86
10/17/2022 4:45:00 AM 11.69 53.042 0.463 6.88 117.75 9.14
10/17/2022 5:00:00 AM 11.7 53.06 0.463 6.86 71.07 9.04
10/17/2022 5:15:00 AM 11.69 53.042 0.463 6.85 70.76 8.82
10/17/2022 5:30:00 AM 11.72 53.096 0.463 6.85 52.25 8.64
10/17/2022 5:45:00 AM 11.65 52.97 0.464 6.85 77.06 8.7
10/17/2022 6:00:00 AM 11.55 52.79 0.465 6.85 63.43 8.82
10/17/2022 6:15:00 AM 11.55 52.79 0.465 6.84 93.12 8.63
10/17/2022 6:30:00 AM 11.59 52.862 0.465 6.83 51.37 8.52
10/17/2022 6:45:00 AM 11.55 52.79 0.465 6.84 69.38 8.52
10/17/2022 7:00:00 AM 11.57 52.826 0.465 6.83 61.14 8.47
10/17/2022 7:15:00 AM 11.6 52.88 0.464 6.84 93.87 8.46
10/17/2022 7:30:00 AM 11.45 52.61 0.465 6.85 42.13 8.85
10/17/2022 7:45:00 AM 11.5 52.7 0.466 6.84 64.46 8.77
10/17/2022 8:00:00 AM 11.48 52.664 0.467 6.85 37.54 8.84
10/17/2022 8:15:00 AM 11.5 52.7 0.467 6.85 41.91 8.81
10/17/2022 8:30:00 AM 11.6 52.88 0.467 6.85 49.08 8.69
10/17/2022 8:45:00 AM 11.6 52.88 0.468 6.86 161.65 8.84
10/17/2022 9:00:00 AM 11.61 52.898 0.469 6.87 50.36 9
10/17/2022 9:15:00 AM 11.67 53.006 0.471 6.87 36.45 9.16
10/17/2022 9:30:00 AM 11.73 53.114 0.472 6.87 43.6 9.16
10/17/2022 9:45:00 AM 11.78 53.204 0.473 6.88 62.91 9.28
10/17/2022 10:00:00 AM 11.82 53.276 0.474 6.89 112.39 9.3
10/17/2022 10:15:00 AM 11.88 53.384 0.474 6.89 66.01 9.24
10/17/2022 10:30:00 AM 11.92 53.456 0.475 6.9 103.71 9.18
10/17/2022 10:45:00 AM 11.96 53.528 0.476 6.92 109.78 9.37
10/17/2022 11:00:00 AM 12 53.6 0.477 6.92 45.76 9.38
10/17/2022 11:15:00 AM 12.04 53.672 0.478 6.92 110.85 9.31
10/17/2022 11:30:00 AM 12.1 53.78 0.478 6.93 15.74 9.28
10/17/2022 11:45:00 AM 12.17 53.906 0.479 6.93 39.73 9.42
10/17/2022 12:00:00 PM 12.23 54.014 0.479 6.94 38.09 9.42
10/17/2022 12:15:00 PM 12.33 54.194 0.479 6.96 43.24 9.58
10/17/2022 12:30:00 PM 12.41 54.338 0.479 6.97 81.15 9.73
10/17/2022 12:45:00 PM 12.46 54.428 0.48 6.96 40.52 9.69
10/17/2022 1:00:00 PM 12.53 54.554 0.48 6.98 29.64 9.67
10/17/2022 1:15:00 PM 12.62 54.716 0.48 6.96 139.5 9.63
10/17/2022 1:30:00 PM 12.68 54.824 0.481 6.98 48.02 9.63
10/17/2022 1:45:00 PM 12.8 55.04 0.481 6.96 51.28 9.83
10/17/2022 2:00:00 PM 12.95 55.31 0.482 6.98 19.9 9.91
10/17/2022 2:15:00 PM 13.01 55.418 0.482 6.97 64.25 9.83
10/17/2022 2:30:00 PM 13.09 55.562 0.483 6.97 70.06 9.72
10/17/2022 2:45:00 PM 13.14 55.652 0.484 6.99 61.09 9.69
10/17/2022 3:00:00 PM 13.17 55.706 0.485 6.98 99.87 9.43
10/17/2022 3:15:00 PM 13.2 55.76 0.486 6.98 46.2 9.21
10/17/2022 3:30:00 PM 13.22 55.796 0.487 6.98 50.89 9.07
10/17/2022 3:45:00 PM 13.3 55.94 0.487 7 39.61 9.34
10/17/2022 4:00:00 PM 13.35 56.03 0.488 7.01 33.27 9.53
10/17/2022 4:15:00 PM 13.44 56.192 0.486 7.05 68.67 9.9
10/17/2022 4:30:00 PM 13.45 56.21 0.483 7.04 69.32 9.91
10/17/2022 4:45:00 PM 13.44 56.192 0.483 7.02 94.48 9.41
10/17/2022 5:00:00 PM 13.41 56.138 0.484 7 56.5 9.1
10/17/2022 5:15:00 PM 13.41 56.138 0.486 6.99 49.95 8.88
10/17/2022 5:30:00 PM 13.46 56.228 0.486 7 139.43 8.99
10/17/2022 5:45:00 PM 13.42 56.156 0.485 6.98 49.07 8.94
10/17/2022 6:00:00 PM 13.4 56.12 0.486 6.97 90.8 8.55
10/17/2022 6:15:00 PM 13.38 56.084 0.487 6.96 81.73 8.27
10/17/2022 6:30:00 PM 13.37 56.066 0.488 6.88 85.77 7.8
10/17/2022 6:45:00 PM 13.36 56.048 0.487 6.86 142.85 7.61
10/17/2022 7:00:00 PM 13.36 56.048 0.485 6.79 411.16 6.73
10/17/2022 7:15:00 PM 13.31 55.958 0.483 6.8 88.49 7.35
10/17/2022 7:30:00 PM 13.24 55.832 0.477 6.79 146.72 7.16
10/17/2022 7:45:00 PM 13.21 55.778 0.474 6.75 138.8 6.14
10/17/2022 8:00:00 PM 13.14 55.652 0.469 6.66 670.63 6.02
10/17/2022 8:15:00 PM 13.08 55.544 0.468 6.69 216.22 5.7
10/17/2022 8:30:00 PM 13.02 55.436 0.467 6.63 679.38 6.44
10/17/2022 8:45:00 PM 12.91 55.238 0.469 6.72 194.47 6.78
10/17/2022 9:00:00 PM 12.88 55.184 0.471 6.71 131.09 6.87
10/17/2022 9:15:00 PM 12.85 55.13 0.472 6.71 157.53 6.93
10/17/2022 9:30:00 PM 12.78 55.004 0.473 6.68 646.34 6.41
10/17/2022 9:45:00 PM 12.74 54.932 0.474 6.7 141.87 6.93
10/17/2022 10:00:00 PM 12.68 54.824 0.477 6.69 485.61 6.83
10/17/2022 10:15:00 PM 12.68 54.824 0.478 6.69 142.32 6.97
10/17/2022 10:30:00 PM 12.68 54.824 0.479 6.71 127.68 6.76
10/17/2022 10:45:00 PM 12.51 54.518 0.481 6.72 117.34 7.55
10/17/2022 11:00:00 PM 12.48 54.464 0.482 6.7 400.01 7.33
10/17/2022 11:15:00 PM 12.52 54.536 0.482 6.74 115.91 7.48
10/17/2022 11:30:00 PM 12.3 54.14 0.483 6.72 578.96 7.68
10/17/2022 11:45:00 PM 12.28 54.104 0.483 6.72 201.01 7.9
10/18/2022 12:00:00 AM 12.27 54.086 0.483 6.71 336.63 8.02
10/18/2022 12:15:00 AM 12.3 54.14 0.483 6.75 97.98 8.2
10/18/2022 12:30:00 AM 12.16 53.888 0.483 6.73 501.32 8.21
10/18/2022 12:45:00 AM 12.01 53.618 0.485 6.74 123.84 8.32
10/18/2022 1:00:00 AM 12.03 53.654 0.486 6.74 94.32 8.49
10/18/2022 1:15:00 AM 11.94 53.492 0.487 6.75 381.58 8.41
10/18/2022 1:30:00 AM 11.91 53.438 0.486 6.79 81.72 8.5
10/18/2022 1:45:00 AM 11.72 53.096 0.488 6.78 320.73 8.7
10/18/2022 2:00:00 AM 11.76 53.168 0.486 6.75 93.02 8.56
10/18/2022 2:15:00 AM 11.61 52.898 0.488 6.72 589.3 8.43
10/18/2022 2:30:00 AM 11.63 52.934 0.488 6.73 121.01 8.59
10/18/2022 2:45:00 AM 11.49 52.682 0.489 6.73 542.92 8.5
10/18/2022 3:00:00 AM 11.51 52.718 0.488 6.75 137.8 8.68
10/18/2022 3:15:00 AM 11.39 52.502 0.491 6.73 357.21 8.55
10/18/2022 3:30:00 AM 11.42 52.556 0.491 6.76 88.29 8.62
10/18/2022 3:45:00 AM 11.32 52.376 0.492 6.77 92.48 8.83
10/18/2022 4:00:00 AM 11.12 52.016 0.493 6.78 88.88 8.94
10/18/2022 4:15:00 AM 11.06 51.908 0.493 6.78 87.55 8.89
10/18/2022 4:30:00 AM 11.09 51.962 0.493 6.78 85.72 8.84
10/18/2022 4:45:00 AM 10.93 51.674 0.495 6.8 71.58 8.97
10/18/2022 5:00:00 AM 10.91 51.638 0.494 6.76 70.59 8.92
10/18/2022 5:15:00 AM 10.88 51.584 0.495 6.78 62.5 8.98
10/18/2022 5:30:00 AM 10.9 51.62 0.495 6.8 59.57 8.82
10/18/2022 5:45:00 AM 10.72 51.296 0.496 6.79 205.86 8.85
10/18/2022 6:00:00 AM 10.73 51.314 0.495 6.79 72.53 9
10/18/2022 6:15:00 AM 10.62 51.116 0.495 6.78 59.57 8.97
10/18/2022 6:30:00 AM 10.53 50.954 0.495 6.78 93.82 9.15
10/18/2022 6:45:00 AM 10.59 51.062 0.494 6.78 111.95 9.08
10/18/2022 7:00:00 AM 10.4 50.72 0.495 6.79 86.79 9.15
10/18/2022 7:15:00 AM 10.26 50.468 0.494 6.78 135.7 9.24
10/18/2022 7:30:00 AM 10.24 50.432 0.495 6.76 118.6 9.14
10/18/2022 7:45:00 AM 10.27 50.486 0.496 6.76 86.19 9.14
10/18/2022 8:00:00 AM 10.18 50.324 0.497 6.77 78.98 9.21
10/18/2022 8:15:00 AM 10.16 50.288 0.498 6.75 87.27 9.21
10/18/2022 8:30:00 AM 10.17 50.306 0.499 6.78 68.12 9.22
10/18/2022 8:45:00 AM 10.05 50.09 0.5 6.79 76.93 9.3
10/18/2022 9:00:00 AM 10.08 50.144 0.5 6.79 92.36 9.29
10/18/2022 9:15:00 AM 10.08 50.144 0.5 6.8 113.16 9.43
10/18/2022 9:30:00 AM 10.08 50.144 0.501 6.8 66.23 9.4
10/18/2022 9:45:00 AM 10.09 50.162 0.501 6.81 67.44 9.44
10/18/2022 10:00:00 AM 10.13 50.234 0.502 6.82 70.62 9.54
10/18/2022 10:15:00 AM 10.16 50.288 0.503 6.82 54.45 9.58
10/18/2022 10:30:00 AM 10.27 50.486 0.503 6.85 89.45 9.68
10/18/2022 10:45:00 AM 10.35 50.63 0.503 6.87 61.05 9.77
10/18/2022 11:00:00 AM 10.44 50.792 0.503 6.88 64.72 10.01
10/18/2022 11:15:00 AM 10.57 51.026 0.502 6.9 95.91 10.27
10/18/2022 11:30:00 AM 10.71 51.278 0.501 6.9 112.83 10.28
10/18/2022 11:45:00 AM 10.82 51.476 0.501 6.91 63.12 10.5
10/18/2022 12:00:00 PM 10.95 51.71 0.501 6.91 89.23 10.27
10/18/2022 12:15:00 PM 11.06 51.908 0.501 6.92 73.69 10.38
10/18/2022 12:30:00 PM 11.14 52.052 0.502 6.94 86.93 10.33
10/18/2022 12:45:00 PM 11.22 52.196 0.502 6.93 66.58 10.26
10/18/2022 1:00:00 PM 11.32 52.376 0.502 6.93 78.35 10.32
10/18/2022 1:15:00 PM 11.44 52.592 0.502 7 54.37 10.57
10/18/2022 1:30:00 PM 11.5 52.7 0.503 6.99 50.61 10.4
10/18/2022 1:45:00 PM 11.56 52.808 0.503 6.98 67.17 10.14
10/18/2022 2:00:00 PM 11.63 52.934 0.503 6.98 62.33 10.08
10/18/2022 2:15:00 PM 11.69 53.042 0.503 6.95 115.47 10.03
10/18/2022 2:30:00 PM 11.77 53.186 0.504 6.99 57.35 10.27
10/18/2022 2:45:00 PM 11.84 53.312 0.504 6.98 71.3 10.09
10/18/2022 3:00:00 PM 11.9 53.42 0.505 6.97 49.22 9.94
10/18/2022 3:15:00 PM 12.02 53.636 0.505 6.97 127.61 9.79
10/18/2022 3:30:00 PM 12.03 53.654 0.506 6.99 109.12 9.74
10/18/2022 3:45:00 PM 12.06 53.708 0.506 6.97 75.91 9.61
10/18/2022 4:00:00 PM 12.12 53.816 0.507 6.98 93.07 9.45
10/18/2022 4:15:00 PM 12.15 53.87 0.507 6.96 77.57 9.2
10/18/2022 4:30:00 PM 12.1 53.78 0.508 6.98 42.59 9.35
10/18/2022 4:45:00 PM 12.11 53.798 0.509 6.99 126.66 9.24
10/18/2022 5:00:00 PM 12.12 53.816 0.51 6.97 69.9 9.15
10/18/2022 5:15:00 PM 12.1 53.78 0.51 7 64.9 9.25
10/18/2022 5:30:00 PM 12.07 53.726 0.511 7.02 169.94 9.36
10/18/2022 5:45:00 PM 12.05 53.69 0.512 7.02 121.03 9.22
10/18/2022 6:00:00 PM 12.04 53.672 0.512 7.01 131.43 9.02
10/18/2022 6:15:00 PM 12 53.6 0.513 7.03 31.68 9.1
10/18/2022 6:30:00 PM 11.92 53.456 0.514 7.03 56.57 9.11
10/18/2022 6:45:00 PM 11.94 53.492 0.514 7.03 20.51 9.12
10/18/2022 7:00:00 PM 11.93 53.474 0.515 7.02 74.04 8.96
10/18/2022 7:15:00 PM 11.9 53.42 0.515 6.98 84.89 8.97
10/18/2022 7:30:00 PM 11.83 53.294 0.515 6.96 163.38 8.91
10/18/2022 7:45:00 PM 11.81 53.258 0.516 6.96 69.24 8.94
10/18/2022 8:00:00 PM 11.82 53.276 0.516 6.95 94.48 8.86
10/18/2022 8:15:00 PM 11.7 53.06 0.517 6.94 58.07 8.85
10/18/2022 8:30:00 PM 11.64 52.952 0.517 6.93 212.54 8.9
10/18/2022 8:45:00 PM 11.51 52.718 0.517 6.92 89.7 8.99
10/18/2022 9:00:00 PM 11.49 52.682 0.518 6.91 50.19 8.84
10/18/2022 9:15:00 PM 11.4 52.52 0.519 6.92 85.94 8.94
10/18/2022 9:30:00 PM 11.36 52.448 0.52 6.92 54.26 8.91
10/18/2022 9:45:00 PM 11.21 52.178 0.52 6.91 100.6 9.09
10/18/2022 10:00:00 PM 11.1 51.98 0.522 6.9 74.51 9.14
10/18/2022 10:15:00 PM 11.06 51.908 0.523 6.91 75.88 9.09
10/18/2022 10:30:00 PM 10.91 51.638 0.525 6.91 138 9.12
10/18/2022 10:45:00 PM 10.9 51.62 0.523 6.92 57.61 9.1
10/18/2022 11:00:00 PM 10.86 51.548 0.524 6.89 384.69 8.97
10/18/2022 11:15:00 PM 10.81 51.458 0.521 6.91 63.57 9.34
10/18/2022 11:30:00 PM 10.48 50.864 0.519 6.9 45.53 9.44
10/18/2022 11:45:00 PM 10.49 50.882 0.518 6.88 63.91 9.42
10/19/2022 12:00:00 AM 10.48 50.864 0.515 6.85 330.25 9.22
10/19/2022 12:15:00 AM 10.4 50.72 0.52 6.86 71.07 9.34
10/19/2022 12:30:00 AM 10.31 50.558 0.521 6.86 82.76 9.35
10/19/2022 12:45:00 AM 10.26 50.468 0.522 6.86 56.36 9.34
10/19/2022 1:00:00 AM 10.28 50.504 0.522 6.85 76.34 9.26
10/19/2022 1:15:00 AM 10.02 50.036 0.526 6.87 63.28 9.51
10/19/2022 1:30:00 AM 9.92 49.856 0.526 6.88 53.59 9.62
10/19/2022 1:45:00 AM 9.91 49.838 0.525 6.87 70.96 9.56
10/19/2022 2:00:00 AM 9.87 49.766 0.526 6.86 62.78 9.52
10/19/2022 2:15:00 AM 9.88 49.784 0.525 6.83 72.95 9.54
10/19/2022 2:30:00 AM 9.85 49.73 0.525 6.86 69.12 9.6
10/19/2022 2:45:00 AM 9.82 49.676 0.524 6.84 81.59 9.63
10/19/2022 3:00:00 AM 9.71 49.478 0.525 6.84 69.22 9.66
10/19/2022 3:15:00 AM 9.59 49.262 0.525 6.85 54.93 9.66
10/19/2022 3:30:00 AM 9.55 49.19 0.526 6.87 51.83 9.65
10/19/2022 3:45:00 AM 9.5 49.1 0.527 6.86 76.34 9.7
10/19/2022 4:00:00 AM 9.48 49.064 0.527 6.87 55 9.74
10/19/2022 4:15:00 AM 9.45 49.01 0.528 6.88 59.47 9.68
10/19/2022 4:30:00 AM 9.39 48.902 0.529 6.88 67.6 9.72
10/19/2022 4:45:00 AM 9.35 48.83 0.529 6.89 67.13 9.69
10/19/2022 5:00:00 AM 9.33 48.794 0.532 6.89 91.37 9.7
10/19/2022 5:15:00 AM 9.31 48.758 0.529 6.89 89.41 9.72
10/19/2022 5:30:00 AM 9.31 48.758 0.53 6.9 67.32 9.7
10/19/2022 5:45:00 AM 9.29 48.722 0.532 6.91 67.44 9.74
10/19/2022 6:00:00 AM 9.3 48.74 0.529 6.9 53.57 9.63
10/19/2022 6:15:00 AM 9.31 48.758 0.53 6.89 55.57 9.59
10/19/2022 6:30:00 AM 9.26 48.668 0.53 6.91 65.82 9.64
10/19/2022 6:45:00 AM 9.23 48.614 0.532 6.91 73.82 9.72
10/19/2022 7:00:00 AM 9.16 48.488 0.532 6.92 56.1 9.72
10/19/2022 7:15:00 AM 9.1 48.38 0.531 6.89 78.42 9.71
10/19/2022 7:30:00 AM 9.14 48.452 0.531 6.88 71.62 9.54
10/19/2022 7:45:00 AM 9.15 48.47 0.531 6.87 107.05 9.44
10/19/2022 8:00:00 AM 9.21 48.578 0.531 6.84 84.09 9.15
10/19/2022 8:15:00 AM 9.25 48.65 0.531 6.87 76.96 9.15
10/19/2022 8:30:00 AM 9.19 48.542 0.531 6.89 70.01 9.5
10/19/2022 8:45:00 AM 9.19 48.542 0.532 6.89 82 9.52
10/19/2022 9:00:00 AM 9.23 48.614 0.532 6.88 69.64 9.46
10/19/2022 9:15:00 AM 9.28 48.704 0.532 6.88 59.34 9.33
10/19/2022 9:30:00 AM 9.34 48.812 0.532 6.88 58.27 9.27
10/19/2022 9:45:00 AM 9.38 48.884 0.533 6.91 56.7 9.61
10/19/2022 10:00:00 AM 9.46 49.028 0.533 6.93 79.2 9.98
10/19/2022 10:15:00 AM 9.57 49.226 0.531 6.96 58.98 10.37
10/19/2022 10:30:00 AM 9.72 49.496 0.528 6.98 46.13 10.57
10/19/2022 10:45:00 AM 9.89 49.802 0.523 7.01 58.92 11.09
10/19/2022 11:00:00 AM 9.96 49.928 0.519 7.02 25.6 10.95
10/19/2022 11:15:00 AM 10 50 0.514 7.03 85.98 10.87
10/19/2022 11:30:00 AM 9.92 49.856 0.511 7.02 22.69 10.48
10/19/2022 11:45:00 AM 10 50 0.513 7.01 32.11 10.43
10/19/2022 12:00:00 PM 10.05 50.09 0.513 7.03 21.37 10.54
10/19/2022 12:15:00 PM 10.11 50.198 0.512 7.02 21.92 10.37
10/19/2022 12:30:00 PM 10.14 50.252 0.512 7.03 20.65 10.47
10/19/2022 12:45:00 PM 10.26 50.468 0.512 7.06 23.65 10.92
10/19/2022 1:00:00 PM 10.43 50.774 0.503 7.14 45.81 11.64
10/19/2022 1:15:00 PM 10.36 50.648 0.496 7.08 29.5 10.72
10/19/2022 1:30:00 PM 10.41 50.738 0.495 7.08 37.05 10.62
10/19/2022 1:45:00 PM 10.38 50.684 0.498 7.08 26.08 10.45
10/19/2022 2:00:00 PM 10.43 50.774 0.502 7.05 33.9 10.54
10/19/2022 2:15:00 PM 10.43 50.774 0.505 7.06 16.12 10.29
10/19/2022 2:30:00 PM 10.51 50.918 0.506 7.07 53.63 10.47
10/19/2022 2:45:00 PM 10.66 51.188 0.503 7.13 43.53 11.24
10/19/2022 3:00:00 PM 10.77 51.386 0.493 7.19 13.17 11.6
10/19/2022 3:15:00 PM 10.62 51.116 0.49 7.09 29.04 10.45
10/19/2022 3:30:00 PM 10.75 51.35 0.491 7.11 26.51 10.67
10/19/2022 3:45:00 PM 10.64 51.152 0.494 7.08 29.57 10.39
10/19/2022 4:00:00 PM 10.72 51.296 0.499 7.09 40.12 10.39
10/19/2022 4:15:00 PM 10.68 51.224 0.501 7.06 18.19 9.98
10/19/2022 4:30:00 PM 10.71 51.278 0.501 7.07 37.33 10.11
10/19/2022 4:45:00 PM 10.67 51.206 0.505 7.06 84.22 9.91
10/19/2022 5:00:00 PM 10.74 51.332 0.51 7.01 70.77 9.6
10/19/2022 5:15:00 PM 10.81 51.458 0.512 7.01 49.05 9.77
10/19/2022 5:30:00 PM 10.88 51.584 0.516 7.03 78.97 9.89
10/19/2022 5:45:00 PM 10.93 51.674 0.518 7.03 86.12 10.05
10/19/2022 6:00:00 PM 11.01 51.818 0.52 7.07 88.87 10.5
10/19/2022 6:15:00 PM 11.06 51.908 0.52 7.1 90.1 10.7
10/19/2022 6:30:00 PM 10.97 51.746 0.521 7.08 41.52 10.4
10/19/2022 6:45:00 PM 10.92 51.656 0.521 7.06 38.78 9.98
10/19/2022 7:00:00 PM 10.85 51.53 0.521 7.02 59.77 9.67
10/19/2022 7:15:00 PM 10.8 51.44 0.52 7.02 57.03 9.61
10/19/2022 7:30:00 PM 10.74 51.332 0.52 7.01 61.05 9.43
10/19/2022 7:45:00 PM 10.75 51.35 0.523 6.99 55.92 9.27
10/19/2022 8:00:00 PM 10.63 51.134 0.526 6.99 57.6 9.32
10/19/2022 8:15:00 PM 10.62 51.116 0.53 6.98 58.05 9.25
10/19/2022 8:30:00 PM 10.67 51.206 0.531 6.99 67.49 9.21
10/19/2022 8:45:00 PM 10.65 51.17 0.531 6.98 33.19 9.08
10/19/2022 9:00:00 PM 10.56 51.008 0.532 6.98 90.69 9.24
10/19/2022 9:15:00 PM 10.55 50.99 0.532 6.97 66.67 8.99
10/19/2022 9:30:00 PM 10.54 50.972 0.531 6.97 66.84 9.06
10/19/2022 9:45:00 PM 10.5 50.9 0.531 6.96 80.25 9.12
10/19/2022 10:00:00 PM 10.45 50.81 0.532 6.97 67.19 9.12
10/19/2022 10:15:00 PM 10.45 50.81 0.534 6.97 58 9.08
10/19/2022 10:30:00 PM 10.5 50.9 0.534 6.95 65.02 8.98
10/19/2022 10:45:00 PM 10.41 50.738 0.534 6.97 70.75 9.07
10/19/2022 11:00:00 PM 10.33 50.594 0.533 6.98 26.27 9.14
10/19/2022 11:15:00 PM 10.39 50.702 0.51 7.06 76.33 9.5
10/19/2022 11:30:00 PM 10.13 50.234 0.497 6.97 28.53 9.51
10/19/2022 11:45:00 PM 10.19 50.342 0.514 6.97 56 9.46
10/20/2022 12:00:00 AM 10.21 50.378 0.519 6.96 58.94 9.39
10/20/2022 12:15:00 AM 10.19 50.342 0.523 6.96 42.22 9.36
10/20/2022 12:30:00 AM 10.2 50.36 0.527 6.94 46.84 9.17
10/20/2022 12:45:00 AM 10.17 50.306 0.529 6.94 37.18 9.24
10/20/2022 1:00:00 AM 10.22 50.396 0.528 6.92 69.71 9.1
10/20/2022 1:15:00 AM 10.31 50.558 0.509 6.85 119.45 8.87
10/20/2022 1:30:00 AM 10.22 50.396 0.491 6.8 112.84 9.18
10/20/2022 1:45:00 AM 10.11 50.198 0.495 6.82 62.3 9.19
10/20/2022 2:00:00 AM 10.12 50.216 0.501 6.82 102.97 9.11
10/20/2022 2:15:00 AM 10.03 50.054 0.505 6.82 80.23 9.11
10/20/2022 2:30:00 AM 10.04 50.072 0.508 6.8 101.28 9.16
10/20/2022 2:45:00 AM 9.98 49.964 0.515 6.81 90.57 9.17
10/20/2022 3:00:00 AM 9.98 49.964 0.518 6.82 87.41 9.04
10/20/2022 3:15:00 AM 10.01 50.018 0.52 6.81 105.84 9.01
10/20/2022 3:30:00 AM 9.98 49.964 0.523 6.82 102.98 8.98
10/20/2022 3:45:00 AM 9.97 49.946 0.524 6.83 62.55 9.08
10/20/2022 4:00:00 AM 9.98 49.964 0.525 6.82 215.59 8.89
10/20/2022 4:15:00 AM 9.93 49.874 0.525 6.84 90.09 9.1
10/20/2022 4:30:00 AM 9.89 49.802 0.525 6.83 58.23 9.17
10/20/2022 4:45:00 AM 9.93 49.874 0.524 6.83 92.59 9.15
10/20/2022 5:00:00 AM 9.9 49.82 0.524 6.84 104.86 9.06
10/20/2022 5:15:00 AM 9.91 49.838 0.524 6.83 89.75 9.09
10/20/2022 5:30:00 AM 9.95 49.91 0.524 6.83 100.07 8.86
10/20/2022 5:45:00 AM 9.94 49.892 0.524 6.83 91.77 8.85
10/20/2022 6:00:00 AM 9.93 49.874 0.523 6.84 58.84 8.79
10/20/2022 6:15:00 AM 9.85 49.73 0.523 6.85 86.03 9
10/20/2022 6:30:00 AM 9.81 49.658 0.524 6.86 73.22 9.14
10/20/2022 6:45:00 AM 9.83 49.694 0.524 6.86 73.34 9.01
10/20/2022 7:00:00 AM 9.74 49.532 0.525 6.85 117.49 9.14
10/20/2022 7:15:00 AM 9.77 49.586 0.52 6.84 123.13 8.93
10/20/2022 7:30:00 AM 9.74 49.532 0.517 6.83 318.11 8.92
10/20/2022 7:45:00 AM 9.73 49.514 0.518 6.83 146.86 8.86
10/20/2022 8:00:00 AM 9.69 49.442 0.519 6.84 81.78 9.15
10/20/2022 8:15:00 AM 9.68 49.424 0.521 6.85 77.89 9.02
10/20/2022 8:30:00 AM 9.69 49.442 0.523 6.84 76.08 8.88
10/20/2022 8:45:00 AM 9.71 49.478 0.524 6.85 118.11 8.88
10/20/2022 9:00:00 AM 9.76 49.568 0.523 6.86 121.31 9.08
10/20/2022 9:15:00 AM 9.71 49.478 0.524 6.88 86.12 9.46
10/20/2022 9:30:00 AM 9.79 49.622 0.524 6.9 72.11 9.77
10/20/2022 9:45:00 AM 9.82 49.676 0.522 6.92 76.91 9.95
10/20/2022 10:00:00 AM 9.9 49.82 0.518 6.94 77.44 10.56
10/20/2022 10:15:00 AM 9.93 49.874 0.513 6.95 46.75 10.55
10/20/2022 10:30:00 AM 9.98 49.964 0.509 6.96 66 10.66
10/20/2022 10:45:00 AM 10.01 50.018 0.502 6.98 69.99 10.7
10/20/2022 11:00:00 AM 10.07 50.126 0.488 7.02 75.1 11.07
10/20/2022 11:15:00 AM 10.13 50.234 0.475 7.04 57.9 11.09
10/20/2022 11:30:00 AM 10.14 50.252 0.46 7.02 77.24 10.85
10/20/2022 11:45:00 AM 10.17 50.306 0.446 6.99 64.81 10.69
10/20/2022 12:00:00 PM 10.21 50.378 0.431 7.05 71.22 10.86
10/20/2022 12:15:00 PM 10.32 50.576 0.413 7.1 44.25 11.15
10/20/2022 12:30:00 PM 10.42 50.756 0.399 7.06 74.89 11.1
10/20/2022 12:45:00 PM 10.52 50.936 0.393 7.07 69.16 11.17
10/20/2022 1:00:00 PM 10.58 51.044 0.388 7.14 49.78 11.25
10/20/2022 1:15:00 PM 10.7 51.26 0.387 7.07 51.78 11.1
10/20/2022 1:30:00 PM 10.85 51.53 0.397 7.07 61.37 11.13
10/20/2022 1:45:00 PM 10.95 51.71 0.404 7.06 73.06 10.82
10/20/2022 2:00:00 PM 11.08 51.944 0.406 7.07 50.73 11.22
10/20/2022 2:15:00 PM 11.28 52.304 0.403 7.09 79.27 11.17
10/20/2022 2:30:00 PM 11.4 52.52 0.407 7.08 70.2 10.97
10/20/2022 2:45:00 PM 11.56 52.808 0.412 7.09 42.85 11
10/20/2022 3:00:00 PM 11.67 53.006 0.417 7.08 69.89 11.04
10/20/2022 3:15:00 PM 11.71 53.078 0.422 7.1 65.15 11.04
10/20/2022 3:30:00 PM 11.71 53.078 0.426 7.08 41.01 10.82
10/20/2022 3:45:00 PM 11.64 52.952 0.437 7.04 86.39 10.2
10/20/2022 4:00:00 PM 11.74 53.132 0.451 7.01 96.45 9.83
10/20/2022 4:15:00 PM 11.89 53.402 0.46 7.04 106.61 10.2
10/20/2022 4:30:00 PM 11.95 53.51 0.465 7.07 84.95 10.45
10/20/2022 4:45:00 PM 11.87 53.366 0.466 7.09 85.05 10.42
10/20/2022 5:00:00 PM 11.84 53.312 0.465 7.08 42.94 10.34
10/20/2022 5:15:00 PM 11.76 53.168 0.467 7.04 74.59 9.61
10/20/2022 5:30:00 PM 11.79 53.222 0.47 7.04 73.3 9.51
10/20/2022 5:45:00 PM 11.7 53.06 0.473 7.02 62.55 9.31
10/20/2022 6:00:00 PM 11.71 53.078 0.475 7 71.16 8.96
10/20/2022 6:15:00 PM 11.65 52.97 0.478 7.02 51.59 9.26
10/20/2022 6:30:00 PM 11.63 52.934 0.48 6.99 49.5 9.25
10/20/2022 6:45:00 PM 11.63 52.934 0.481 7 51.52 9.02
10/20/2022 7:00:00 PM 11.54 52.772 0.481 6.99 69.57 9.17
10/20/2022 7:15:00 PM 11.5 52.7 0.481 6.96 123.94 9
10/20/2022 7:30:00 PM 11.42 52.556 0.484 6.96 50.86 8.95
10/20/2022 7:45:00 PM 11.4 52.52 0.487 6.95 69.49 8.79
10/20/2022 8:00:00 PM 11.26 52.268 0.489 6.95 60.59 9.05
10/20/2022 8:15:00 PM 11.13 52.034 0.493 6.94 70.43 8.93
10/20/2022 8:30:00 PM 11.13 52.034 0.497 6.94 72.41 8.77
10/20/2022 8:45:00 PM 11.1 51.98 0.5 6.94 147.93 8.73
10/20/2022 9:00:00 PM 11.02 51.836 0.502 6.95 74.7 8.85
10/20/2022 9:15:00 PM 11.05 51.89 0.502 6.94 86.57 8.71
10/20/2022 9:30:00 PM 10.89 51.602 0.504 6.95 67.99 8.93
10/20/2022 9:45:00 PM 10.78 51.404 0.505 6.95 61.27 8.88
10/20/2022 10:00:00 PM 10.78 51.404 0.507 6.94 59.63 8.77
10/20/2022 10:15:00 PM 10.58 51.044 0.511 6.95 59.34 9.06
10/20/2022 10:30:00 PM 10.46 50.828 0.514 6.93 72.51 9.13
10/20/2022 10:45:00 PM 10.44 50.792 0.516 6.94 82.37 9.08
10/20/2022 11:00:00 PM 10.54 50.972 0.517 6.92 46.65 8.86
10/20/2022 11:15:00 PM 10.49 50.882 0.481 7.06 75.59 10.1
10/20/2022 11:30:00 PM 10.28 50.504 0.463 6.96 70.74 9.65
10/20/2022 11:45:00 PM 10.13 50.234 0.487 6.94 44.28 9.55
10/21/2022 12:00:00 AM 10.12 50.216 0.5 6.93 94.08 9.4
10/21/2022 12:15:00 AM 10.06 50.108 0.506 6.93 60.61 9.43
10/21/2022 12:30:00 AM 10.08 50.144 0.509 6.93 68.06 9.33
10/21/2022 12:45:00 AM 10.1 50.18 0.512 6.92 69.39 9.23
10/21/2022 1:00:00 AM 10.15 50.27 0.512 6.91 65.07 9
10/21/2022 1:15:00 AM 9.9 49.82 0.515 6.93 60.28 9.5
10/21/2022 1:30:00 AM 9.79 49.622 0.518 6.93 77.09 9.47
10/21/2022 1:45:00 AM 9.86 49.748 0.519 6.92 75.75 9.27
10/21/2022 2:00:00 AM 9.88 49.784 0.52 6.91 71.47 9.2
10/21/2022 2:15:00 AM 9.92 49.856 0.518 6.89 90.05 8.93
10/21/2022 2:30:00 AM 9.91 49.838 0.517 6.91 79.34 9.02
10/21/2022 2:45:00 AM 9.52 49.136 0.522 6.94 56.94 9.63
10/21/2022 3:00:00 AM 9.47 49.046 0.527 6.91 77.27 9.45
10/21/2022 3:15:00 AM 9.51 49.118 0.528 6.89 81.6 9.31
10/21/2022 3:30:00 AM 9.5 49.1 0.527 6.89 71.73 9.37
10/21/2022 3:45:00 AM 9.43 48.974 0.524 6.9 58 9.54
10/21/2022 4:00:00 AM 9.4 48.92 0.525 6.9 63.54 9.56
10/21/2022 4:15:00 AM 9.48 49.064 0.524 6.89 59.79 9.46
10/21/2022 4:30:00 AM 9.55 49.19 0.522 6.88 86.95 9.24
10/21/2022 4:45:00 AM 9.27 48.686 0.525 6.91 68.23 9.48
10/21/2022 5:00:00 AM 9.15 48.47 0.529 6.9 47.06 9.56
10/21/2022 5:15:00 AM 9.14 48.452 0.531 6.9 85.22 9.55
10/21/2022 5:30:00 AM 9.18 48.524 0.531 6.9 57.79 9.47
10/21/2022 5:45:00 AM 9.2 48.56 0.533 6.9 54.94 9.44
10/21/2022 6:00:00 AM 8.95 48.11 0.538 6.91 54.04 9.62
10/21/2022 6:15:00 AM 8.96 48.128 0.537 6.91 68.05 9.61
10/21/2022 6:30:00 AM 8.92 48.056 0.538 6.91 64.23 9.6
10/21/2022 6:45:00 AM 8.9 48.02 0.539 6.9 74.92 9.62
10/21/2022 7:00:00 AM 8.85 47.93 0.539 6.89 94.68 9.27
10/21/2022 7:15:00 AM 8.91 48.038 0.539 6.87 53.38 9.04
10/21/2022 7:30:00 AM 8.82 47.876 0.541 6.89 61.91 9.23
10/21/2022 7:45:00 AM 8.74 47.732 0.542 6.88 67.95 9.26
10/21/2022 8:00:00 AM 8.76 47.768 0.543 6.88 51.03 9.15
10/21/2022 8:15:00 AM 8.73 47.714 0.544 6.88 41.27 9.28
10/21/2022 8:30:00 AM 8.73 47.714 0.544 6.88 63.68 9.2
10/21/2022 8:45:00 AM 8.77 47.786 0.544 6.89 73.07 9.39
10/21/2022 9:00:00 AM 8.91 48.038 0.543 6.89 83.89 9.42
10/21/2022 9:15:00 AM 8.81 47.858 0.543 6.88 106.24 9.58
10/21/2022 9:30:00 AM 8.7 47.66 0.543 6.89 88.83 9.76
10/21/2022 9:45:00 AM 8.71 47.678 0.542 6.88 81.26 9.66
10/21/2022 10:00:00 AM 8.79 47.822 0.541 6.88 75.54 9.81
10/21/2022 10:15:00 AM 8.9 48.02 0.539 6.87 73.68 9.5
10/21/2022 10:30:00 AM 8.88 47.984 0.54 6.9 59.87 9.65
10/21/2022 10:45:00 AM 8.95 48.11 0.539 6.88 84.46 9.49
10/21/2022 11:00:00 AM 9.02 48.236 0.539 6.87 62.65 9.37
10/21/2022 11:15:00 AM 9.04 48.272 0.54 6.88 98.82 9.41
10/21/2022 11:30:00 AM 9.09 48.362 0.54 6.92 77.25 9.86
10/21/2022 11:45:00 AM 9.17 48.506 0.539 6.93 69.36 10.19
10/21/2022 12:00:00 PM 9.24 48.632 0.538 6.95 43.36 10.49
10/21/2022 12:15:00 PM 9.34 48.812 0.537 6.97 63.41 10.86
10/21/2022 12:30:00 PM 9.47 49.046 0.535 6.98 55.13 11.04
10/21/2022 12:45:00 PM 9.81 49.658 0.529 7.02 45.64 11.71
10/21/2022 1:00:00 PM 10.11 50.198 0.523 7.04 62.84 11.89
10/21/2022 1:15:00 PM 10.49 50.882 0.513 7.01 48.7 11.87
10/21/2022 1:30:00 PM 10.73 51.314 0.508 6.99 84.41 11.39
10/21/2022 1:45:00 PM 10.99 51.782 0.503 7.05 71.96 12.01
10/21/2022 2:00:00 PM 11.25 52.25 0.494 7.06 71.73 11.31
10/21/2022 2:15:00 PM 11.38 52.484 0.491 7.04 65.57 11.02
10/21/2022 2:30:00 PM 11.59 52.862 0.489 7.06 65.46 11.13
10/21/2022 2:45:00 PM 11.76 53.168 0.484 7.08 93.11 11.06
10/21/2022 3:00:00 PM 11.81 53.258 0.477 7.07 56.11 11.05
10/21/2022 3:15:00 PM 12.06 53.708 0.472 7.1 82.68 11.19
10/21/2022 3:30:00 PM 12.06 53.708 0.471 7.09 67.7 11.13
10/21/2022 3:45:00 PM 12.17 53.906 0.47 7.08 47.37 11.18
10/21/2022 4:00:00 PM 12.26 54.068 0.471 7.1 37.6 10.91
10/21/2022 4:15:00 PM 12.29 54.122 0.475 7.09 45.34 10.63
10/21/2022 4:30:00 PM 12.2 53.96 0.481 7.09 24.21 10.49
10/21/2022 4:45:00 PM 12.2 53.96 0.485 7.08 80.83 10.36
10/21/2022 5:00:00 PM 12.32 54.176 0.488 7.1 449.89 10.61
10/21/2022 5:15:00 PM 12.25 54.05 0.488 7.09 141.82 10.8
10/21/2022 5:30:00 PM 12.35 54.23 0.484 7.13 393.81 10.98
10/21/2022 5:45:00 PM 12.09 53.762 0.483 7.03 38.56 10.31
10/21/2022 6:00:00 PM 11.98 53.564 0.49 6.99 71.05 9.72
10/21/2022 6:15:00 PM 11.9 53.42 0.499 7 74.53 9.5
10/21/2022 6:30:00 PM 11.87 53.366 0.504 6.99 70.35 9.15
10/21/2022 6:45:00 PM 11.88 53.384 0.508 6.99 62.52 9.02
10/21/2022 7:00:00 PM 11.76 53.168 0.512 6.99 77.34 9.07
10/21/2022 7:15:00 PM 11.69 53.042 0.516 6.99 69.78 8.91
10/21/2022 7:30:00 PM 11.67 53.006 0.519 7 98.16 8.93
10/21/2022 7:45:00 PM 11.58 52.844 0.518 6.99 91.24 8.9
10/21/2022 8:00:00 PM 11.54 52.772 0.521 6.97 70.65 8.81
10/21/2022 8:15:00 PM 11.52 52.736 0.525 6.98 60.36 8.6
10/21/2022 8:30:00 PM 11.51 52.718 0.528 6.97 63.65 8.56
10/21/2022 8:45:00 PM 11.45 52.61 0.528 6.99 69.09 8.74
10/21/2022 9:00:00 PM 11.51 52.718 0.525 7.02 46.97 8.68
10/21/2022 9:15:00 PM 11.52 52.736 0.52 6.97 53.2 8.33
10/21/2022 9:30:00 PM 11.13 52.034 0.522 7 46.68 9.03
10/21/2022 9:45:00 PM 11.07 51.926 0.528 6.98 66.26 9.04
10/21/2022 10:00:00 PM 10.75 51.35 0.536 6.99 61.31 9.21
10/21/2022 10:15:00 PM 10.66 51.188 0.54 6.99 37.79 9.16
10/21/2022 10:30:00 PM 10.63 51.134 0.543 6.98 57.98 9.09
10/21/2022 10:45:00 PM 10.67 51.206 0.545 6.97 39.49 8.91
10/21/2022 11:00:00 PM 10.73 51.314 0.544 6.96 60.43 8.75
10/21/2022 11:15:00 PM 10.82 51.476 0.528 7.02 61.37 9.32
10/21/2022 11:30:00 PM 10.38 50.684 0.514 6.99 41.28 9.57
10/21/2022 11:45:00 PM 10.25 50.45 0.53 6.97 39.19 9.52
10/22/2022 12:00:00 AM 10.18 50.324 0.537 6.97 59.23 9.47
10/22/2022 12:15:00 AM 10.06 50.108 0.543 6.97 36.87 9.47
10/22/2022 12:30:00 AM 10.07 50.126 0.546 6.96 29.1 9.36
10/22/2022 12:45:00 AM 9.94 49.892 0.551 6.97 32.99 9.46
10/22/2022 1:00:00 AM 9.94 49.892 0.551 6.96 40.61 9.4
10/22/2022 1:15:00 AM 10.02 50.036 0.55 6.96 50.91 9.28
10/22/2022 1:30:00 AM 9.82 49.676 0.551 6.96 36.79 9.43
10/22/2022 1:45:00 AM 9.85 49.73 0.547 6.96 37.75 9.38
10/22/2022 2:00:00 AM 9.92 49.856 0.544 6.95 36.6 9.22
10/22/2022 2:15:00 AM 9.71 49.478 0.544 6.96 54.16 9.51
10/22/2022 2:30:00 AM 9.86 49.748 0.539 6.94 36.62 9.37
10/22/2022 2:45:00 AM 9.63 49.334 0.535 6.98 29.46 9.73
10/22/2022 3:00:00 AM 9.79 49.622 0.525 6.96 50.23 9.44
10/22/2022 3:15:00 AM 9.34 48.812 0.534 6.94 35.51 9.83
10/22/2022 3:30:00 AM 9.27 48.686 0.541 6.96 47.81 9.83
10/22/2022 3:45:00 AM 9.34 48.812 0.541 6.95 47.64 9.63
10/22/2022 4:00:00 AM 9.26 48.668 0.541 6.95 61.28 9.77
10/22/2022 4:15:00 AM 9.21 48.578 0.54 6.96 56.73 9.83
10/22/2022 4:30:00 AM 9.06 48.308 0.542 6.94 65.03 9.89
10/22/2022 4:45:00 AM 9.11 48.398 0.544 6.94 68.73 9.79
10/22/2022 5:00:00 AM 9.14 48.452 0.544 6.92 43.82 9.67
10/22/2022 5:15:00 AM 8.99 48.182 0.546 6.94 44.11 9.82
10/22/2022 5:30:00 AM 8.87 47.966 0.549 6.95 43.94 9.9
10/22/2022 5:45:00 AM 8.95 48.11 0.55 6.94 33.88 9.81
10/22/2022 6:00:00 AM 8.99 48.182 0.552 6.93 42.78 9.7
10/22/2022 6:15:00 AM 8.85 47.93 0.554 6.94 45.55 9.81
10/22/2022 6:30:00 AM 8.78 47.804 0.555 6.94 39.55 9.84
10/22/2022 6:45:00 AM 8.87 47.966 0.554 6.93 29.8 9.74
10/22/2022 7:00:00 AM 9.06 48.308 0.55 6.92 43.16 9.47
10/22/2022 7:15:00 AM 8.71 47.678 0.549 6.94 85.23 9.88
10/22/2022 7:30:00 AM 8.69 47.642 0.549 6.94 34.89 9.95
10/22/2022 7:45:00 AM 8.83 47.894 0.548 6.93 37.14 9.74
10/22/2022 8:00:00 AM 8.67 47.606 0.549 6.95 29.28 9.95
10/22/2022 8:15:00 AM 8.89 48.002 0.542 6.94 48.62 9.74
10/22/2022 8:30:00 AM 8.73 47.714 0.529 6.96 42.52 10.15
10/22/2022 8:45:00 AM 8.63 47.534 0.537 6.96 35.36 10.31
10/22/2022 9:00:00 AM 8.73 47.714 0.539 6.91 50.93 9.24
10/22/2022 9:15:00 AM 8.75 47.75 0.543 6.93 37.92 9.55
10/22/2022 9:30:00 AM 8.67 47.606 0.548 6.91 140.76 9.69
10/22/2022 9:45:00 AM 8.86 47.948 0.546 6.94 52.33 9.99
10/22/2022 10:00:00 AM 8.94 48.092 0.541 6.94 107.6 10.28
10/22/2022 10:15:00 AM 8.74 47.732 0.545 6.96 48.36 10.38
10/22/2022 10:30:00 AM 8.79 47.822 0.55 6.94 96.39 9.96
10/22/2022 10:45:00 AM 8.87 47.966 0.551 6.94 102.98 10.12
10/22/2022 11:00:00 AM 8.96 48.128 0.552 6.93 74.35 9.98
10/22/2022 11:15:00 AM 9.08 48.344 0.551 6.95 146.14 10.28
10/22/2022 11:30:00 AM 9.18 48.524 0.55 6.95 91.71 10.09
10/22/2022 11:45:00 AM 9.25 48.65 0.551 6.92 96.16 9.81
10/22/2022 12:00:00 PM 9.36 48.848 0.551 6.94 119.16 9.97
10/22/2022 12:15:00 PM 9.46 49.028 0.549 6.92 117.05 9.93
10/22/2022 12:30:00 PM 9.56 49.208 0.548 6.91 102.16 9.52
10/22/2022 12:45:00 PM 9.72 49.496 0.547 6.9 77.58 9.79
10/22/2022 1:00:00 PM 10.31 50.558 0.54 6.96 71.88 10.83
10/22/2022 1:15:00 PM 10.63 51.134 0.534 7.02 97.47 11.8
10/22/2022 1:30:00 PM 10.99 51.782 0.521 6.99 108.57 11.92
10/22/2022 1:45:00 PM 11.34 52.412 0.509 7 118.86 12.02
10/22/2022 2:00:00 PM 11.84 53.312 0.495 6.99 294.76 11.73
10/22/2022 2:15:00 PM 11.9 53.42 0.459 6.99 57.81 11.48
10/22/2022 2:30:00 PM 11.98 53.564 0.457 6.85 44.78 10.59
10/22/2022 2:45:00 PM 11.97 53.546 0.48 6.88 71.49 10.6
10/22/2022 3:00:00 PM 12.11 53.798 0.487 6.88 118.14 10.68
10/22/2022 3:15:00 PM 12.24 54.032 0.495 6.89 77.81 10.43
10/22/2022 3:30:00 PM 12.34 54.212 0.501 6.9 74.48 10.2
10/22/2022 3:45:00 PM 12.54 54.572 0.506 6.94 76.18 10.65
10/22/2022 4:00:00 PM 12.46 54.428 0.51 6.93 67.8 10.01
10/22/2022 4:15:00 PM 12.62 54.716 0.516 6.95 113.7 9.76
10/22/2022 4:30:00 PM 12.65 54.77 0.523 6.88 335.96 9.39
10/22/2022 4:45:00 PM 12.69 54.842 0.528 6.87 246.81 9.24
10/22/2022 5:00:00 PM 12.71 54.878 0.532 6.87 78.56 8.92
10/22/2022 5:15:00 PM 12.58 54.644 0.536 6.9 71.54 9
10/22/2022 5:30:00 PM 12.52 54.536 0.539 6.89 66.12 8.61
10/22/2022 5:45:00 PM 12.64 54.752 0.54 6.91 662.26 9.16
10/22/2022 6:00:00 PM 12.46 54.428 0.543 6.9 70.65 8.96
10/22/2022 6:15:00 PM 12.45 54.41 0.544 6.87 85.04 8.7
10/22/2022 6:30:00 PM 12.41 54.338 0.542 6.86 82.5 8.35
10/22/2022 6:45:00 PM 12.34 54.212 0.549 6.88 67.23 8.17
10/22/2022 7:00:00 PM 12.33 54.194 0.546 6.86 112.21 7.84
10/22/2022 7:15:00 PM 12.34 54.212 0.545 6.87 293.02 8.04
10/22/2022 7:30:00 PM 12.22 53.996 0.545 6.9 70.87 8.32
10/22/2022 7:45:00 PM 12.17 53.906 0.544 6.89 71.15 8.23
10/22/2022 8:00:00 PM 12.13 53.834 0.543 6.88 160.23 8
10/22/2022 8:15:00 PM 12.06 53.708 0.543 6.86 88.88 7.99
10/22/2022 8:30:00 PM 12.04 53.672 0.542 6.9 62.62 8.08
10/22/2022 8:45:00 PM 11.92 53.456 0.544 6.89 81.19 8.08
10/22/2022 9:00:00 PM 11.99 53.582 0.529 6.98 97.97 9.28
10/22/2022 9:15:00 PM 12.1 53.78 0.492 6.94 91.27 9.5
10/22/2022 9:30:00 PM 11.8 53.24 0.486 6.88 61.29 8.99
10/22/2022 9:45:00 PM 11.72 53.096 0.508 6.88 51.98 8.89
10/22/2022 10:00:00 PM 11.62 52.916 0.519 6.88 231.11 8.74
10/22/2022 10:15:00 PM 11.54 52.772 0.527 6.89 62.01 8.75
10/22/2022 10:30:00 PM 11.46 52.628 0.532 6.91 70.67 8.77
10/22/2022 10:45:00 PM 11.43 52.574 0.534 6.9 52.33 8.67
10/22/2022 11:00:00 PM 11.26 52.268 0.536 6.9 51.17 8.88
10/22/2022 11:15:00 PM 11.25 52.25 0.538 6.9 71.5 8.79
10/22/2022 11:30:00 PM 11.37 52.466 0.534 6.87 349.47 8.5
10/22/2022 11:45:00 PM 11.14 52.052 0.53 6.81 373.85 8.52
10/23/2022 12:00:00 AM 11.08 51.944 0.524 6.7 232.87 8.32
10/23/2022 12:15:00 AM 11.06 51.908 0.524 6.71 109.31 8.22
10/23/2022 12:30:00 AM 10.91 51.638 0.522 6.68 113.18 8.21
10/23/2022 12:45:00 AM 10.82 51.476 0.525 6.71 108.2 8.07
10/23/2022 1:00:00 AM 10.74 51.332 0.526 6.72 132.76 8.14
10/23/2022 1:15:00 AM 10.63 51.134 0.527 6.71 106.3 8.25
10/23/2022 1:30:00 AM 10.65 51.17 0.525 6.71 135.91 7.99
10/23/2022 1:45:00 AM 10.49 50.882 0.529 6.71 162.16 8.44
10/23/2022 2:00:00 AM 10.41 50.738 0.53 6.73 126.31 8.45
10/23/2022 2:15:00 AM 10.41 50.738 0.531 6.75 118.57 8.45
10/23/2022 2:30:00 AM 10.45 50.81 0.529 6.75 112.06 8.27
10/23/2022 2:45:00 AM 10.4 50.72 0.533 6.76 100.47 8.31
10/23/2022 3:00:00 AM 10.43 50.774 0.537 6.77 118.06 8.37
10/23/2022 3:15:00 AM 10.27 50.486 0.538 6.79 100.52 8.63
10/23/2022 3:30:00 AM 10.26 50.468 0.54 6.79 98.85 8.59
10/23/2022 3:45:00 AM 10.23 50.414 0.539 6.79 115.9 8.54
10/23/2022 4:00:00 AM 9.88 49.784 0.542 6.81 87.4 8.93
10/23/2022 4:15:00 AM 9.9 49.82 0.544 6.81 98.58 8.97
10/23/2022 4:30:00 AM 9.87 49.766 0.546 6.8 89.8 9.05
10/23/2022 4:45:00 AM 9.74 49.532 0.548 6.76 127.19 8.93
10/23/2022 5:00:00 AM 9.69 49.442 0.548 6.79 117.74 8.95
10/23/2022 5:15:00 AM 9.79 49.622 0.548 6.79 94.58 8.73
10/23/2022 5:30:00 AM 9.56 49.208 0.551 6.82 71.61 8.96
10/23/2022 5:45:00 AM 9.61 49.298 0.55 6.81 87.34 8.94
10/23/2022 6:00:00 AM 9.48 49.064 0.552 6.82 73.64 9.13
10/23/2022 6:15:00 AM 9.55 49.19 0.551 6.82 97.8 9.02
10/23/2022 6:30:00 AM 9.4 48.92 0.554 6.84 84.47 9.25
10/23/2022 6:45:00 AM 9.28 48.704 0.554 6.86 57.96 9.38
10/23/2022 7:00:00 AM 9.45 49.01 0.552 6.85 91.03 9.13
10/23/2022 7:15:00 AM 9.24 48.632 0.553 6.88 101.78 9.48
10/23/2022 7:30:00 AM 9.17 48.506 0.553 6.87 49.37 9.29
10/23/2022 7:45:00 AM 9.23 48.614 0.553 6.86 65.48 8.78
10/23/2022 8:00:00 AM 9.14 48.452 0.555 6.86 62.3 9.09
10/23/2022 8:15:00 AM 9.03 48.254 0.558 6.88 37.32 9.13
10/23/2022 8:30:00 AM 9.32 48.776 0.553 6.86 48.01 8.83
10/23/2022 8:45:00 AM 9.26 48.668 0.555 6.87 62.44 8.94
10/23/2022 9:00:00 AM 9.3 48.74 0.555 6.86 28.56 8.87
10/23/2022 9:15:00 AM 9.13 48.434 0.557 6.9 32.56 9.57
10/23/2022 9:30:00 AM 9.23 48.614 0.556 6.9 54.95 9.38
10/23/2022 9:45:00 AM 9.15 48.47 0.558 6.86 261.51 10
10/23/2022 10:00:00 AM 9.36 48.848 0.551 6.8 268.55 9.79
10/23/2022 10:15:00 AM 9.49 49.082 0.551 6.77 145.34 9.88
10/23/2022 10:30:00 AM 9.64 49.352 0.549 6.82 294.68 10.66
10/23/2022 10:45:00 AM 9.44 48.992 0.552 6.81 155 10.38
10/23/2022 11:00:00 AM 9.51 49.118 0.551 6.81 143 9.92
10/23/2022 11:15:00 AM 9.52 49.136 0.553 6.82 118.61 9.82
10/23/2022 11:30:00 AM 9.77 49.586 0.552 6.88 140.4 11.06
10/23/2022 11:45:00 AM 9.88 49.784 0.553 6.86 183.99 10.78
10/23/2022 12:00:00 PM 9.98 49.964 0.553 6.86 87.7 10.83
10/23/2022 12:15:00 PM 10.08 50.144 0.554 6.85 110.16 10.25
10/23/2022 12:30:00 PM 10.28 50.504 0.552 6.87 98.07 11.67
10/23/2022 12:45:00 PM 10.68 51.224 0.548 6.99 294.96 12.88
10/23/2022 1:00:00 PM 10.87 51.566 0.535 7.04 323.88 12.99
10/23/2022 1:15:00 PM 11.1 51.98 0.492 7.03 140.71 12.01
10/23/2022 1:30:00 PM 11.07 51.926 0.494 6.94 154.87 10.7
10/23/2022 1:45:00 PM 11.19 52.142 0.507 6.92 129.85 10.25
10/23/2022 2:00:00 PM 11.33 52.394 0.508 6.89 120.43 10.18
10/23/2022 2:15:00 PM 11.49 52.682 0.506 6.83 524.87 9.69
10/23/2022 2:30:00 PM 11.54 52.772 0.508 6.84 261.06 9.53
10/23/2022 2:45:00 PM 11.67 53.006 0.514 6.82 158.17 9.34
10/23/2022 3:00:00 PM 11.81 53.258 0.518 6.81 191.53 8.92
10/23/2022 3:15:00 PM 11.89 53.402 0.52 6.8 135.36 8.93
10/23/2022 3:30:00 PM 11.94 53.492 0.523 6.78 211.49 8.24
10/23/2022 3:45:00 PM 12.05 53.69 0.525 6.76 606.44 7.81
10/23/2022 4:00:00 PM 12.09 53.762 0.529 6.76 215.26 7.95
10/23/2022 4:15:00 PM 12.24 54.032 0.529 6.74 185.46 8.25
10/23/2022 4:30:00 PM 12.38 54.284 0.528 6.73 481.18 8.55
10/23/2022 4:45:00 PM 12.38 54.284 0.528 6.77 205.16 9.37
10/23/2022 5:00:00 PM 12.45 54.41 0.523 6.74 717.7 8.72
10/23/2022 5:15:00 PM 12.46 54.428 0.519 6.75 329.64 8.84
10/23/2022 5:30:00 PM 12.39 54.302 0.515 6.79 184.94 8.8
10/23/2022 5:45:00 PM 12.39 54.302 0.516 6.75 360.92 8.19
10/23/2022 6:00:00 PM 12.42 54.356 0.512 6.81 197.82 8.69
10/23/2022 6:15:00 PM 12.37 54.266 0.504 6.8 150.82 9.01
10/23/2022 6:30:00 PM 12.4 54.32 0.502 6.83 160.42 9.4
10/23/2022 6:45:00 PM 12.42 54.356 0.494 6.83 192.74 9.17
10/23/2022 7:00:00 PM 12.43 54.374 0.482 6.83 654.43 9.18
10/23/2022 7:15:00 PM 12.47 54.446 0.463 6.82 578.55 9.93
10/23/2022 7:30:00 PM 12.4 54.32 0.451 6.83 119.36 8.96
10/23/2022 7:45:00 PM 12.39 54.302 0.464 6.82 131.79 8.64
10/23/2022 8:00:00 PM 12.38 54.284 0.467 6.81 141.87 8.28
10/23/2022 8:15:00 PM 12.39 54.302 0.47 6.8 574.99 7.86
10/23/2022 8:30:00 PM 12.37 54.266 0.472 6.81 451.1 7.95
10/23/2022 8:45:00 PM 12.37 54.266 0.474 6.84 170.6 8.09
10/23/2022 9:00:00 PM 12.37 54.266 0.468 6.83 150.25 7.87
10/23/2022 9:15:00 PM 12.36 54.248 0.467 6.8 457.91 7.82
10/23/2022 9:30:00 PM 12.34 54.212 0.472 6.82 113.6 7.87
10/23/2022 9:45:00 PM 12.33 54.194 0.481 6.82 122.55 7.71
10/23/2022 10:00:00 PM 12.32 54.176 0.485 6.81 527.81 7.59
10/23/2022 10:15:00 PM 12.31 54.158 0.491 6.81 139.42 7.44
10/23/2022 10:30:00 PM 12.3 54.14 0.494 6.81 282.01 7.5
10/23/2022 10:45:00 PM 12.28 54.104 0.5 6.83 130.11 7.49
10/23/2022 11:00:00 PM 12.28 54.104 0.502 6.83 136.62 7.41
10/23/2022 11:15:00 PM 12.27 54.086 0.499 6.81 432.03 7.27
10/23/2022 11:30:00 PM 12.26 54.068 0.497 6.81 57.45 7.41
10/23/2022 11:45:00 PM 12.24 54.032 0.498 6.83 139.56 7.81
10/24/2022 12:00:00 AM 12.23 54.014 0.501 6.81 349.46 7.58
10/24/2022 12:15:00 AM 12.22 53.996 0.503 6.81 200.69 7.76
10/24/2022 12:30:00 AM 12.21 53.978 0.504 6.81 443.73 7.6
10/24/2022 12:45:00 AM 12.19 53.942 0.505 6.8 129.56 7.4
10/24/2022 1:00:00 AM 12.16 53.888 0.502 6.81 127.33 7.72
10/24/2022 1:15:00 AM 12.14 53.852 0.499 6.78 557.64 7.41
10/24/2022 1:30:00 AM 12.11 53.798 0.494 6.81 138.52 7.18
10/24/2022 1:45:00 AM 12.09 53.762 0.493 6.76 451.35 6.62
10/24/2022 2:00:00 AM 12.08 53.744 0.497 6.79 93.25 7.42
10/24/2022 2:15:00 AM 12.08 53.744 0.5 6.82 112.88 7.73
10/24/2022 2:30:00 AM 12.08 53.744 0.5 6.75 173.8 7
10/24/2022 2:45:00 AM 12.07 53.726 0.5 6.7 172.1 6.71
10/24/2022 3:00:00 AM 12.07 53.726 0.5 6.7 160.98 6.24
10/24/2022 3:15:00 AM 12.06 53.708 0.501 6.69 202.6 5.94
10/24/2022 3:30:00 AM 12.04 53.672 0.501 6.68 190.87 5.46
10/24/2022 3:45:00 AM 12.01 53.618 0.499 6.68 186.88 5.21
10/24/2022 4:00:00 AM 11.99 53.582 0.495 6.68 193.1 5.41
10/24/2022 4:15:00 AM 11.97 53.546 0.491 6.67 201.22 5.32
10/24/2022 4:30:00 AM 11.96 53.528 0.489 6.67 253.04 5.75
10/24/2022 4:45:00 AM 11.95 53.51 0.485 6.62 640.48 5.06
10/24/2022 5:00:00 AM 11.94 53.492 0.482 6.63 263.26 4.98
10/24/2022 5:15:00 AM 11.93 53.474 0.477 6.64 282.53 4.77
10/24/2022 5:30:00 AM 11.94 53.492 0.473 6.66 214.66 5.67
10/24/2022 5:45:00 AM 11.98 53.564 0.471 6.68 248.84 6.39
10/24/2022 6:00:00 AM 11.99 53.582 0.466 6.7 364.62 7.81
10/24/2022 6:15:00 AM 12.12 53.816 0.452 6.68 353.56 8.3
10/24/2022 6:30:00 AM 12.22 53.996 0.428 6.69 275.19 7.95
10/24/2022 6:45:00 AM 12.25 54.05 0.403 6.7 259.18 8.09
10/24/2022 7:00:00 AM 12.27 54.086 0.375 6.69 585.71 7.99
10/24/2022 7:15:00 AM 12.28 54.104 0.356 6.67 257.08 7.76
10/24/2022 7:30:00 AM 12.3 54.14 0.337 6.64 273.03 7.57
10/24/2022 7:45:00 AM 12.3 54.14 0.322 6.62 262.7 7.39
10/24/2022 8:00:00 AM 12.24 54.032 0.31 6.59 243.35 7.27
10/24/2022 8:15:00 AM 12.12 53.816 0.302 6.59 162.56 7.86
10/24/2022 8:30:00 AM 12 53.6 0.296 6.57 674.43 8
10/24/2022 8:45:00 AM 11.97 53.546 0.291 6.57 169.34 7.99
10/24/2022 9:00:00 AM 11.95 53.51 0.281 6.57 195.09 8.27
10/24/2022 9:15:00 AM 11.97 53.546 0.272 6.58 735.28 8.26
10/24/2022 9:30:00 AM 11.98 53.564 0.263 6.56 236.25 8.03
10/24/2022 9:45:00 AM 11.98 53.564 0.256 6.57 213.82 8.49
10/24/2022 10:00:00 AM 12.01 53.618 0.249 6.56 197.62 8.4
10/24/2022 10:15:00 AM 12.06 53.708 0.244 6.59 140.74 8.55
10/24/2022 10:30:00 AM 12.1 53.78 0.239 6.58 158.35 8.41
10/24/2022 10:45:00 AM 12.14 53.852 0.234 6.57 773.94 8.44
10/24/2022 11:00:00 AM 12.18 53.924 0.23 6.57 690.77 8.67
10/24/2022 11:15:00 AM 12.23 54.014 0.226 6.58 253.16 8.62
10/24/2022 11:30:00 AM 12.27 54.086 0.224 6.58 258.04 8.69
10/24/2022 11:45:00 AM 12.31 54.158 0.222 6.58 224.38 8.53
10/24/2022 12:00:00 PM 12.44 54.392 0.22 6.57 216.81 8.54
10/24/2022 12:15:00 PM 12.44 54.392 0.219 6.57 253.48 8.52
10/24/2022 12:30:00 PM 12.52 54.536 0.219 6.57 677.27 8.47
10/24/2022 12:45:00 PM 12.52 54.536 0.219 6.56 259.76 8.38
10/24/2022 1:00:00 PM 12.55 54.59 0.219 6.55 559.6 8.19
10/24/2022 1:15:00 PM 12.56 54.608 0.22 6.55 256.08 8.25
10/24/2022 1:30:00 PM 12.6 54.68 0.22 6.52 224.82 7.96
10/24/2022 1:45:00 PM 12.67 54.806 0.221 6.53 586.12 7.79
10/24/2022 2:00:00 PM 12.7 54.86 0.224 6.53 248.55 7.8
10/24/2022 2:15:00 PM 12.72 54.896 0.225 6.53 246.11 7.75
10/24/2022 2:30:00 PM 12.77 54.986 0.228 6.52 638.03 7.56
10/24/2022 2:45:00 PM 12.83 55.094 0.228 6.51 1205.55 7.52
10/24/2022 3:00:00 PM 12.83 55.094 0.229 6.5 226.6 7.09
10/24/2022 3:15:00 PM 12.88 55.184 0.231 6.5 635.91 7.08
10/24/2022 3:30:00 PM 12.92 55.256 0.231 6.5 247.87 7.12
10/24/2022 3:45:00 PM 13.02 55.436 0.232 6.5 705.94 7.51
10/24/2022 4:00:00 PM 13.03 55.454 0.233 6.49 250.94 7.35
10/24/2022 4:15:00 PM 13.08 55.544 0.235 6.49 896.48 7.57
10/24/2022 4:30:00 PM 13.08 55.544 0.236 6.51 356.07 7.72
10/24/2022 4:45:00 PM 13.09 55.562 0.236 6.55 226.81 8.43
10/24/2022 5:00:00 PM 13.1 55.58 0.235 6.54 148.1 8.84
10/24/2022 5:15:00 PM 13.1 55.58 0.232 6.57 166.38 8.77
10/24/2022 5:30:00 PM 13.14 55.652 0.23 6.56 159.9 8.71
10/24/2022 5:45:00 PM 13.21 55.778 0.23 6.53 734.96 8.48
10/24/2022 6:00:00 PM 13.21 55.778 0.23 6.49 210.56 8.05
10/24/2022 6:15:00 PM 13.26 55.868 0.23 6.51 680.78 8
10/24/2022 6:30:00 PM 13.27 55.886 0.232 6.5 258.83 7.93
10/24/2022 6:45:00 PM 13.35 56.03 0.233 6.51 728 8.04
10/24/2022 7:00:00 PM 13.34 56.012 0.234 6.5 760.61 8
10/24/2022 7:15:00 PM 13.35 56.03 0.235 6.52 835.55 8.48
10/24/2022 7:30:00 PM 13.34 56.012 0.235 6.51 280.21 8.5
10/24/2022 7:45:00 PM 13.33 55.994 0.235 6.51 181.85 8.38
10/24/2022 8:00:00 PM 13.32 55.976 0.235 6.51 172.38 8.34
10/24/2022 8:15:00 PM 13.32 55.976 0.235 6.5 194.81 8.09
10/24/2022 8:30:00 PM 13.32 55.976 0.235 6.5 194.66 8
10/24/2022 8:45:00 PM 13.32 55.976 0.235 6.49 582.59 7.74
10/24/2022 9:00:00 PM 13.32 55.976 0.235 6.49 1103.65 7.89
10/24/2022 9:15:00 PM 13.32 55.976 0.235 6.49 873.19 8.08
10/24/2022 9:30:00 PM 13.3 55.94 0.235 6.48 242.94 7.85
10/24/2022 9:45:00 PM 13.3 55.94 0.235 6.49 826.53 7.87
10/24/2022 10:00:00 PM 13.29 55.922 0.235 6.49 168.97 7.86
10/24/2022 10:15:00 PM 13.28 55.904 0.235 6.47 821.1 7.51
10/24/2022 10:30:00 PM 13.26 55.868 0.235 6.48 182.77 7.65
10/24/2022 10:45:00 PM 13.24 55.832 0.234 6.48 684.38 7.59
10/24/2022 11:00:00 PM 13.2 55.76 0.234 6.47 201.85 7.82
10/24/2022 11:15:00 PM 13.17 55.706 0.232 6.5 861.02 7.66
10/24/2022 11:30:00 PM 13.17 55.706 0.231 6.5 205 7.81
10/24/2022 11:45:00 PM 13.17 55.706 0.23 6.5 191.97 7.71
10/25/2022 12:00:00 AM 13.17 55.706 0.229 6.5 220.44 7.85
10/25/2022 12:15:00 AM 13.17 55.706 0.228 6.5 190.55 7.76
10/25/2022 12:30:00 AM 13.17 55.706 0.228 6.5 168.05 7.61
10/25/2022 12:45:00 AM 13.18 55.724 0.228 6.49 747.92 7.63
10/25/2022 1:00:00 AM 13.18 55.724 0.228 6.49 718.61 7.59
10/25/2022 1:15:00 AM 13.19 55.742 0.227 6.49 277.28 7.45
10/25/2022 1:30:00 AM 13.18 55.724 0.228 6.5 240.33 7.53
10/25/2022 1:45:00 AM 13.16 55.688 0.228 6.49 693.44 7.56
10/25/2022 2:00:00 AM 13.15 55.67 0.228 6.49 227.55 7.78
10/25/2022 2:15:00 AM 13.13 55.634 0.227 6.5 501.24 7.61
10/25/2022 2:30:00 AM 13.12 55.616 0.227 6.52 246.37 7.89
10/25/2022 2:45:00 AM 13.12 55.616 0.226 6.5 493.25 7.68
10/25/2022 3:00:00 AM 13.11 55.598 0.226 6.5 606.88 7.69
10/25/2022 3:15:00 AM 13.11 55.598 0.226 6.5 702.78 7.81
10/25/2022 3:30:00 AM 13.11 55.598 0.226 6.51 526.25 7.78
10/25/2022 3:45:00 AM 13.1 55.58 0.225 6.52 381.98 7.7
10/25/2022 4:00:00 AM 13.1 55.58 0.225 6.52 213.19 7.73
10/25/2022 4:15:00 AM 13.08 55.544 0.225 6.53 207.42 7.96
10/25/2022 4:30:00 AM 13.08 55.544 0.226 6.53 182.21 8.01
10/25/2022 4:45:00 AM 13.08 55.544 0.226 6.52 190.01 7.6
10/25/2022 5:00:00 AM 13.08 55.544 0.226 6.55 269.08 8.28
10/25/2022 5:15:00 AM 13.08 55.544 0.226 6.55 188.16 8.26
10/25/2022 5:30:00 AM 13.07 55.526 0.226 6.56 290.92 8.11
10/25/2022 5:45:00 AM 13.06 55.508 0.226 6.56 585.79 7.98
10/25/2022 6:00:00 AM 13.07 55.526 0.226 6.56 597.89 8.11
10/25/2022 6:15:00 AM 13.07 55.526 0.226 6.56 176.37 8.23
10/25/2022 6:30:00 AM 13.04 55.472 0.225 6.55 462.8 8.11
10/25/2022 6:45:00 AM 13.03 55.454 0.224 6.55 752.97 7.86
10/25/2022 7:00:00 AM 13.03 55.454 0.222 6.53 872.16 7.63
10/25/2022 7:15:00 AM 13.04 55.472 0.221 6.51 896.62 7.08
10/25/2022 7:30:00 AM 13.04 55.472 0.22 6.51 740.65 6.71
10/25/2022 7:45:00 AM 13.05 55.49 0.219 6.5 253.78 6.68
10/25/2022 8:00:00 AM 13.06 55.508 0.219 6.49 655.87 6.45
10/25/2022 8:15:00 AM 13.08 55.544 0.22 6.48 129.87 6.53
10/25/2022 8:30:00 AM 13.1 55.58 0.221 6.49 652.87 6.81
10/25/2022 8:45:00 AM 13.1 55.58 0.221 6.48 286.9 6.75
10/25/2022 9:00:00 AM 13.12 55.616 0.222 6.49 216.85 6.79
10/25/2022 9:15:00 AM 13.14 55.652 0.224 6.49 219.83 6.89
10/25/2022 9:30:00 AM 13.14 55.652 0.225 6.48 231.53 6.63
10/25/2022 9:45:00 AM 13.16 55.688 0.226 6.47 201.57 6.43
10/25/2022 10:00:00 AM 13.19 55.742 0.228 6.47 876.98 6.41
10/25/2022 10:15:00 AM 13.19 55.742 0.229 6.47 210.68 6.49
10/25/2022 10:30:00 AM 13.21 55.778 0.231 6.47 732.39 6.62
10/25/2022 10:45:00 AM 13.22 55.796 0.232 6.45 402.79 6.61
10/25/2022 11:00:00 AM 13.26 55.868 0.233 6.48 643.95 6.85
10/25/2022 11:15:00 AM 13.26 55.868 0.235 6.49 224.48 7.02
10/25/2022 11:30:00 AM 13.3 55.94 0.236 6.48 744.17 6.73
10/25/2022 11:45:00 AM 13.31 55.958 0.237 6.48 706.67 6.52
10/25/2022 12:00:00 PM 13.32 55.976 0.238 6.49 203.94 6.67
10/25/2022 12:15:00 PM 13.36 56.048 0.239 6.47 752.76 6.28
10/25/2022 12:30:00 PM 13.38 56.084 0.24 6.47 255.62 6.02
10/25/2022 12:45:00 PM 13.41 56.138 0.24 6.48 253.43 6.27
10/25/2022 1:00:00 PM 13.48 56.264 0.241 6.47 721.55 6.17
10/25/2022 1:15:00 PM 13.51 56.318 0.242 6.48 244.83 6.4
10/25/2022 1:30:00 PM 13.59 56.462 0.242 6.47 778.54 6.37
10/25/2022 1:45:00 PM 13.65 56.57 0.243 6.47 478.94 6.54
10/25/2022 2:00:00 PM 13.66 56.588 0.244 6.49 267.43 6.69
10/25/2022 2:15:00 PM 13.72 56.696 0.245 6.48 688.46 6.6
10/25/2022 2:30:00 PM 13.77 56.786 0.245 6.5 440.13 6.77
10/25/2022 2:45:00 PM 13.84 56.912 0.246 6.49 524.71 6.89
10/25/2022 3:00:00 PM 13.91 57.038 0.246 6.51 458.9 7.05
10/25/2022 3:15:00 PM 13.97 57.146 0.246 6.53 209.76 7.17
10/25/2022 3:30:00 PM 13.99 57.182 0.247 6.52 197.33 7.03
10/25/2022 3:45:00 PM 14.11 57.398 0.247 6.52 505.35 6.97
10/25/2022 4:00:00 PM 14.15 57.47 0.247 6.52 251.1 6.77
10/25/2022 4:15:00 PM 14.25 57.65 0.248 6.52 459 6.97
10/25/2022 4:30:00 PM 14.3 57.74 0.249 6.52 175.81 7.04
10/25/2022 4:45:00 PM 14.35 57.83 0.25 6.53 127.15 7.11
10/25/2022 5:00:00 PM 14.44 57.992 0.25 6.54 407.04 7.27
10/25/2022 5:15:00 PM 14.38 57.884 0.251 6.55 212.04 7.08
10/25/2022 5:30:00 PM 14.41 57.938 0.251 6.56 248.48 6.94
10/25/2022 5:45:00 PM 14.4 57.92 0.252 6.55 286.49 6.33
10/25/2022 6:00:00 PM 14.44 57.992 0.252 6.55 267.53 5.81
10/25/2022 6:15:00 PM 14.51 58.118 0.253 6.53 793.09 5.84
10/25/2022 6:30:00 PM 14.51 58.118 0.254 6.53 330.14 5.91
10/25/2022 6:45:00 PM 14.61 58.298 0.254 6.52 281.04 6.05
10/25/2022 7:00:00 PM 14.7 58.46 0.255 6.51 233.31 6.35
10/25/2022 7:15:00 PM 14.82 58.676 0.258 6.5 762.5 6.08
10/25/2022 7:30:00 PM 14.88 58.784 0.261 6.49 784.81 5.9
10/25/2022 7:45:00 PM 14.92 58.856 0.265 6.49 766.25 5.96
10/25/2022 8:00:00 PM 15 59 0.269 6.5 742.37 6.17
10/25/2022 8:15:00 PM 14.94 58.892 0.273 6.49 772.9 5.78
10/25/2022 8:30:00 PM 14.96 58.928 0.277 6.49 775.69 5.79
10/25/2022 8:45:00 PM 14.96 58.928 0.281 6.49 683.22 5.74
10/25/2022 9:00:00 PM 14.99 58.982 0.284 6.5 556.57 6.19
10/25/2022 9:15:00 PM 14.95 58.91 0.289 6.5 413.62 5.8
10/25/2022 9:30:00 PM 14.89 58.802 0.29 6.5 237.58 5.54
10/25/2022 9:45:00 PM 14.91 58.838 0.293 6.5 573.87 5.72
10/25/2022 10:00:00 PM 14.92 58.856 0.295 6.49 449.38 5.67
10/25/2022 10:15:00 PM 14.88 58.784 0.298 6.49 240.74 5.5
10/25/2022 10:30:00 PM 14.85 58.73 0.301 6.49 189.95 5.42
10/25/2022 10:45:00 PM 14.86 58.748 0.302 6.49 191.03 5.35
10/25/2022 11:00:00 PM 14.86 58.748 0.304 6.48 686.42 5.23
10/25/2022 11:15:00 PM 14.88 58.784 0.308 6.49 899.62 5.5
10/25/2022 11:30:00 PM 14.87 58.766 0.311 6.49 736.68 5.5
10/25/2022 11:45:00 PM 14.87 58.766 0.314 6.49 93.2 5.86
10/26/2022 12:00:00 AM 14.85 58.73 0.317 6.5 182.35 5.72
10/26/2022 12:15:00 AM 14.86 58.748 0.32 6.49 805.84 5.57
10/26/2022 12:30:00 AM 14.83 58.694 0.322 6.48 607.88 5.18
10/26/2022 12:45:00 AM 14.81 58.658 0.324 6.48 481 5.19
10/26/2022 1:00:00 AM 14.79 58.622 0.326 6.48 593.32 5.17
10/26/2022 1:15:00 AM 14.8 58.64 0.327 6.5 495.3 6.02
10/26/2022 1:30:00 AM 14.76 58.568 0.328 6.51 188.26 6.46
10/26/2022 1:45:00 AM 14.73 58.514 0.328 6.5 620.5 6.31
10/26/2022 2:00:00 AM 14.7 58.46 0.328 6.51 181.5 6.2
10/26/2022 2:15:00 AM 14.66 58.388 0.328 6.52 185.24 6.59
10/26/2022 2:30:00 AM 14.65 58.37 0.327 6.51 156.65 6.1
10/26/2022 2:45:00 AM 14.63 58.334 0.327 6.51 197.52 6.12
10/26/2022 3:00:00 AM 14.62 58.316 0.328 6.5 764.56 5.88
10/26/2022 3:15:00 AM 14.6 58.28 0.328 6.5 734.37 6.05
10/26/2022 3:30:00 AM 14.59 58.262 0.327 6.5 702.65 5.83
10/26/2022 3:45:00 AM 14.58 58.244 0.327 6.5 623.62 5.89
10/26/2022 4:00:00 AM 14.57 58.226 0.327 6.5 486.11 5.67
10/26/2022 4:15:00 AM 14.56 58.208 0.327 6.51 210.42 5.52
10/26/2022 4:30:00 AM 14.54 58.172 0.326 6.51 175.83 5.59
10/26/2022 4:45:00 AM 14.53 58.154 0.326 6.5 692.49 5.13
10/26/2022 5:00:00 AM 14.51 58.118 0.326 6.51 198.91 5.08
10/26/2022 5:15:00 AM 14.5 58.1 0.326 6.5 584.07 5.05
10/26/2022 5:30:00 AM 14.49 58.082 0.325 6.5 432.89 4.94
10/26/2022 5:45:00 AM 14.48 58.064 0.324 6.5 176.84 5.12
10/26/2022 6:00:00 AM 14.47 58.046 0.324 6.5 154.98 4.59
10/26/2022 6:15:00 AM 14.45 58.01 0.323 6.52 237.66 5.38
10/26/2022 6:30:00 AM 14.44 57.992 0.321 6.51 578.21 5.1
10/26/2022 6:45:00 AM 14.43 57.974 0.321 6.5 145.45 4.93
10/26/2022 7:00:00 AM 14.42 57.956 0.32 6.5 150.65 4.7
10/26/2022 7:15:00 AM 14.41 57.938 0.319 6.51 381.47 4.65
10/26/2022 7:30:00 AM 14.4 57.92 0.318 6.5 547.57 4.67
10/26/2022 7:45:00 AM 14.39 57.902 0.317 6.49 225.87 4.28
10/26/2022 8:00:00 AM 14.39 57.902 0.316 6.49 179.34 4.43
10/26/2022 8:15:00 AM 14.39 57.902 0.31 6.5 1005.33 4.54
10/26/2022 8:30:00 AM 14.39 57.902 0.308 6.48 914.16 4.22
10/26/2022 8:45:00 AM 14.39 57.902 0.305 6.49 204.22 4.29
10/26/2022 9:00:00 AM 14.4 57.92 0.302 6.49 883.66 4.71
10/26/2022 9:15:00 AM 14.41 57.938 0.299 6.49 911.78 5.09
10/26/2022 9:30:00 AM 14.42 57.956 0.295 6.49 848.84 5.19
10/26/2022 9:45:00 AM 14.44 57.992 0.292 6.49 1011.06 5.51
10/26/2022 10:00:00 AM 14.46 58.028 0.289 6.5 376.1 5.73
10/26/2022 10:15:00 AM 14.49 58.082 0.285 6.51 781.71 5.9
10/26/2022 10:30:00 AM 14.51 58.118 0.282 6.53 206.29 6.43
10/26/2022 10:45:00 AM 14.54 58.172 0.278 6.53 744.42 6.52
10/26/2022 11:00:00 AM 14.57 58.226 0.275 6.53 697.27 6.68
10/26/2022 11:15:00 AM 14.61 58.298 0.272 6.54 406.61 6.78
10/26/2022 11:30:00 AM 14.63 58.334 0.269 6.57 219.11 7.15
10/26/2022 11:45:00 AM 14.66 58.388 0.267 6.57 184.98 7.11
10/26/2022 12:00:00 PM 14.73 58.514 0.263 6.57 404.18 7.28
10/26/2022 12:15:00 PM 14.77 58.586 0.26 6.57 175.96 7.78
10/26/2022 12:30:00 PM 14.81 58.658 0.258 6.6 176.05 8.06
10/26/2022 12:45:00 PM 14.9 58.82 0.255 6.6 595.45 7.68
10/26/2022 1:00:00 PM 14.93 58.874 0.253 6.61 179.1 7.62
10/26/2022 1:15:00 PM 15.09 59.162 0.251 6.62 284.01 7.85
10/26/2022 1:30:00 PM 15.21 59.378 0.25 6.64 208.82 8.23
10/26/2022 1:45:00 PM 15.29 59.522 0.248 6.65 40.27 8.26
10/26/2022 2:00:00 PM 15.3 59.54 0.248 6.66 138.17 8.3
10/26/2022 2:15:00 PM 15.36 59.648 0.247 6.67 93.69 8.42
10/26/2022 2:30:00 PM 15.36 59.648 0.247 6.64 113.56 7.7
10/26/2022 2:45:00 PM 15.46 59.828 0.246 6.65 273.47 7.77
10/26/2022 3:00:00 PM 15.53 59.954 0.245 6.67 181.74 7.98
10/26/2022 3:15:00 PM 15.62 60.116 0.244 6.69 174.76 8.32
10/26/2022 3:30:00 PM 15.67 60.206 0.245 6.69 89.95 8.12
10/26/2022 3:45:00 PM 15.75 60.35 0.246 6.7 119.62 8.21
10/26/2022 4:00:00 PM 15.72 60.296 0.248 6.72 86.62 8.21
10/26/2022 4:15:00 PM 15.77 60.386 0.249 6.71 80.74 7.89
10/26/2022 4:30:00 PM 15.83 60.494 0.251 6.71 74.54 8.06
10/26/2022 4:45:00 PM 15.88 60.584 0.253 6.7 86.44 7.69
10/26/2022 5:00:00 PM 16 60.8 0.254 6.75 97.28 8.24
10/26/2022 5:15:00 PM 16.01 60.818 0.256 6.72 258.29 7.74
10/26/2022 5:30:00 PM 15.96 60.728 0.258 6.71 114.94 7.63
10/26/2022 5:45:00 PM 15.96 60.728 0.259 6.7 137.38 7.8
10/26/2022 6:00:00 PM 15.97 60.746 0.264 6.67 530.35 7.39
10/26/2022 6:15:00 PM 15.96 60.728 0.268 6.66 495.25 7.11
10/26/2022 6:30:00 PM 15.9 60.62 0.272 6.66 162.74 7.23
10/26/2022 6:45:00 PM 15.93 60.674 0.276 6.64 192.82 6.73
10/26/2022 7:00:00 PM 15.9 60.62 0.282 6.65 154.03 6.77
10/26/2022 7:15:00 PM 15.88 60.584 0.286 6.65 128.21 6.58
10/26/2022 7:30:00 PM 15.88 60.584 0.292 6.65 140.56 6.68
10/26/2022 7:45:00 PM 15.83 60.494 0.298 6.66 135.9 6.92
10/26/2022 8:00:00 PM 15.77 60.386 0.301 6.64 353.33 6.67
10/26/2022 8:15:00 PM 15.73 60.314 0.305 6.64 134.33 6.68
10/26/2022 8:30:00 PM 15.68 60.224 0.309 6.63 175.47 6.55
10/26/2022 8:45:00 PM 15.64 60.152 0.313 6.63 121.73 6.52
10/26/2022 9:00:00 PM 15.6 60.08 0.319 6.61 109.41 6.55
10/26/2022 9:15:00 PM 15.53 59.954 0.323 6.62 109.64 6.51
10/26/2022 9:30:00 PM 15.48 59.864 0.327 6.63 110.21 6.42
10/26/2022 9:45:00 PM 15.43 59.774 0.331 6.62 495.98 6.51
10/26/2022 10:00:00 PM 15.37 59.666 0.334 6.61 184.96 6.44
10/26/2022 10:15:00 PM 15.31 59.558 0.337 6.62 110.21 6.67
10/26/2022 10:30:00 PM 15.21 59.378 0.34 6.61 285.63 6.53
10/26/2022 10:45:00 PM 15.15 59.27 0.343 6.61 87.95 6.54
10/26/2022 11:00:00 PM 15.13 59.234 0.345 6.62 148.6 6.65
10/26/2022 11:15:00 PM 15.03 59.054 0.349 6.62 136.18 6.36
10/26/2022 11:30:00 PM 14.97 58.946 0.351 6.62 117.59 6.67
10/26/2022 11:45:00 PM 14.92 58.856 0.354 6.61 115.53 6.61
10/27/2022 12:00:00 AM 14.9 58.82 0.355 6.62 119.66 6.54
10/27/2022 12:15:00 AM 14.86 58.748 0.356 6.62 139.97 6.59
10/27/2022 12:30:00 AM 14.78 58.604 0.357 6.64 142.32 6.85
10/27/2022 12:45:00 AM 14.75 58.55 0.359 6.63 150.06 6.85
10/27/2022 1:00:00 AM 14.71 58.478 0.36 6.64 148.2 6.84
10/27/2022 1:15:00 AM 14.7 58.46 0.361 6.64 132.14 6.71
10/27/2022 1:30:00 AM 14.67 58.406 0.362 6.63 122.99 6.63
10/27/2022 1:45:00 AM 14.64 58.352 0.363 6.64 113.84 6.81
10/27/2022 2:00:00 AM 14.63 58.334 0.364 6.63 123.54 6.53
10/27/2022 2:15:00 AM 14.65 58.37 0.364 6.63 146.83 6.59
10/27/2022 2:30:00 AM 14.65 58.37 0.363 6.64 121.44 6.58
10/27/2022 2:45:00 AM 14.64 58.352 0.362 6.63 404.57 6.39
10/27/2022 3:00:00 AM 14.62 58.316 0.361 6.64 89.85 6.58
10/27/2022 3:15:00 AM 14.53 58.154 0.357 6.64 500.33 6.98
10/27/2022 3:30:00 AM 14.5 58.1 0.355 6.63 77.57 6.89
10/27/2022 3:45:00 AM 14.47 58.046 0.355 6.64 80.81 6.97
10/27/2022 4:00:00 AM 14.45 58.01 0.355 6.64 114.34 6.9
10/27/2022 4:15:00 AM 14.42 57.956 0.355 6.63 335.66 6.67
10/27/2022 4:30:00 AM 14.38 57.884 0.353 6.65 86.68 6.78
10/27/2022 4:45:00 AM 14.34 57.812 0.353 6.66 56.52 6.91
10/27/2022 5:00:00 AM 14.28 57.704 0.352 6.67 100.64 7.09
10/27/2022 5:15:00 AM 14.26 57.668 0.352 6.67 110.46 7.21
10/27/2022 5:30:00 AM 14.21 57.578 0.353 6.65 439.92 7.09
10/27/2022 5:45:00 AM 14.22 57.596 0.353 6.65 161.88 6.84
10/27/2022 6:00:00 AM 14.16 57.488 0.355 6.64 418.5 6.82
10/27/2022 6:15:00 AM 14.15 57.47 0.356 6.65 134.64 6.81
10/27/2022 6:30:00 AM 14.1 57.38 0.357 6.65 149.33 6.69
10/27/2022 6:45:00 AM 14.04 57.272 0.356 6.66 75.56 6.99
10/27/2022 7:00:00 AM 14 57.2 0.356 6.66 118.58 7.03
10/27/2022 7:15:00 AM 13.94 57.092 0.358 6.65 349.4 6.96
10/27/2022 7:30:00 AM 13.93 57.074 0.358 6.66 102.3 6.89
10/27/2022 7:45:00 AM 13.85 56.93 0.357 6.66 171.13 7.25
10/27/2022 8:00:00 AM 13.79 56.822 0.356 6.65 96.43 7.33
10/27/2022 8:15:00 AM 13.75 56.75 0.355 6.62 507.11 7.03
10/27/2022 8:30:00 AM 13.73 56.714 0.355 6.6 531.6 6.96
10/27/2022 8:45:00 AM 13.7 56.66 0.355 6.6 566.83 7.08
10/27/2022 9:00:00 AM 13.68 56.624 0.356 6.6 184.13 7.09
10/27/2022 9:15:00 AM 13.62 56.516 0.358 6.59 604.76 6.79
10/27/2022 9:30:00 AM 13.62 56.516 0.359 6.59 103.21 6.78
10/27/2022 9:45:00 AM 13.67 56.606 0.36 6.6 153.97 7.03
10/27/2022 10:00:00 AM 13.69 56.642 0.361 6.6 118.89 6.9
10/27/2022 10:15:00 AM 13.7 56.66 0.36 6.59 591.46 6.9
10/27/2022 10:30:00 AM 13.67 56.606 0.361 6.6 126.65 7.51
10/27/2022 10:45:00 AM 13.67 56.606 0.361 6.61 254.52 7.48
10/27/2022 11:00:00 AM 13.7 56.66 0.359 6.64 91.5 7.59
10/27/2022 11:15:00 AM 13.73 56.714 0.355 6.65 156.5 7.79
10/27/2022 11:30:00 AM 13.75 56.75 0.348 6.68 404.76 8.42
10/27/2022 11:45:00 AM 13.76 56.768 0.338 6.73 218.92 8.84
10/27/2022 12:00:00 PM 13.79 56.822 0.331 6.74 153.05 8.86
10/27/2022 12:15:00 PM 13.81 56.858 0.319 6.78 355.13 9.15
10/27/2022 12:30:00 PM 13.85 56.93 0.317 6.74 102.22 9.21
10/27/2022 12:45:00 PM 13.88 56.984 0.319 6.73 133.9 8.9
10/27/2022 1:00:00 PM 13.91 57.038 0.318 6.75 122.19 8.74
10/27/2022 1:15:00 PM 13.96 57.128 0.315 6.75 90.72 8.49
10/27/2022 1:30:00 PM 14.04 57.272 0.308 6.8 117.04 9.06
10/27/2022 1:45:00 PM 14.08 57.344 0.303 6.77 124.04 8.63
10/27/2022 2:00:00 PM 14.13 57.434 0.297 6.77 170.22 8.83
10/27/2022 2:15:00 PM 14.25 57.65 0.302 6.71 91.39 8.56
10/27/2022 2:30:00 PM 14.28 57.704 0.305 6.74 108.61 8.56
10/27/2022 2:45:00 PM 14.34 57.812 0.304 6.76 135.57 8.66
10/27/2022 3:00:00 PM 14.41 57.938 0.299 6.8 132.25 9.25
10/27/2022 3:15:00 PM 14.51 58.118 0.301 6.74 177.18 9.29
10/27/2022 3:30:00 PM 14.52 58.136 0.306 6.72 97.49 8.96
10/27/2022 3:45:00 PM 14.53 58.154 0.31 6.71 113.41 8.68
10/27/2022 4:00:00 PM 14.51 58.118 0.314 6.69 453.68 8.24
10/27/2022 4:15:00 PM 14.47 58.046 0.319 6.7 61.93 8.23
10/27/2022 4:30:00 PM 14.42 57.956 0.322 6.7 103.08 8.1
10/27/2022 4:45:00 PM 14.35 57.83 0.326 6.7 147.78 8.4
10/27/2022 5:00:00 PM 14.28 57.704 0.33 6.7 96.24 8.27
10/27/2022 5:15:00 PM 14.22 57.596 0.332 6.71 111.14 8.1
10/27/2022 5:30:00 PM 14.17 57.506 0.335 6.71 130.1 7.8
10/27/2022 5:45:00 PM 14.01 57.218 0.339 6.7 406.95 7.77
10/27/2022 6:00:00 PM 13.99 57.182 0.341 6.7 85.22 7.65
10/27/2022 6:15:00 PM 13.83 56.894 0.345 6.69 263.04 7.52
10/27/2022 6:30:00 PM 13.8 56.84 0.347 6.69 118.85 7.29
10/27/2022 6:45:00 PM 13.74 56.732 0.348 6.69 111.48 7.22
10/27/2022 7:00:00 PM 13.55 56.39 0.354 6.7 263.01 7.53
10/27/2022 7:15:00 PM 13.47 56.246 0.358 6.7 71.25 7.59
10/27/2022 7:30:00 PM 13.4 56.12 0.362 6.68 94.43 7.51
10/27/2022 7:45:00 PM 13.36 56.048 0.367 6.68 84.16 7.48
10/27/2022 8:00:00 PM 13.2 55.76 0.371 6.67 340.57 7.51
10/27/2022 8:15:00 PM 13.16 55.688 0.374 6.67 117.58 7.38
10/27/2022 8:30:00 PM 13.09 55.562 0.376 6.66 179.3 7.45
10/27/2022 8:45:00 PM 13.05 55.49 0.379 6.66 135.98 7.42
10/27/2022 9:00:00 PM 13.03 55.454 0.38 6.66 132.21 7.51
10/27/2022 9:15:00 PM 12.98 55.364 0.382 6.66 111.87 7.53
10/27/2022 9:30:00 PM 12.8 55.04 0.384 6.64 363.15 7.3
10/27/2022 9:45:00 PM 12.75 54.95 0.386 6.64 85.59 7.41
10/27/2022 10:00:00 PM 12.6 54.68 0.388 6.63 30.17 7.41
10/27/2022 10:15:00 PM 12.61 54.698 0.389 6.64 90.21 7.52
10/27/2022 10:30:00 PM 12.49 54.482 0.39 6.63 128.56 7.48
10/27/2022 10:45:00 PM 12.52 54.536 0.39 6.63 107.24 7.44
10/27/2022 11:00:00 PM 12.28 54.104 0.394 6.63 163.72 7.68
10/27/2022 11:15:00 PM 12.29 54.122 0.396 6.63 103.13 7.54
10/27/2022 11:30:00 PM 12.23 54.014 0.397 6.63 73.54 7.74
10/27/2022 11:45:00 PM 12.1 53.78 0.397 6.65 82.14 7.84
10/28/2022 12:00:00 AM 12.06 53.708 0.398 6.64 71.59 7.7
10/28/2022 12:15:00 AM 11.95 53.51 0.399 6.64 89.55 7.56
10/28/2022 12:30:00 AM 11.9 53.42 0.399 6.64 100.9 7.81
10/28/2022 12:45:00 AM 11.82 53.276 0.401 6.64 81.13 7.89
10/28/2022 1:00:00 AM 11.79 53.222 0.402 6.65 91.74 7.81
10/28/2022 1:15:00 AM 11.81 53.258 0.402 6.64 62.28 7.7
10/28/2022 1:30:00 AM 11.71 53.078 0.403 6.65 63.5 7.85
10/28/2022 1:45:00 AM 11.56 52.808 0.404 6.66 97.3 8
10/28/2022 2:00:00 AM 11.6 52.88 0.403 6.65 70.17 7.88
10/28/2022 2:15:00 AM 11.53 52.754 0.404 6.65 57.73 7.74
10/28/2022 2:30:00 AM 11.36 52.448 0.404 6.65 98.98 8.04
10/28/2022 2:45:00 AM 11.33 52.394 0.405 6.64 84.1 8.02
10/28/2022 3:00:00 AM 11.19 52.142 0.406 6.65 141.6 8.15
10/28/2022 3:15:00 AM 11.19 52.142 0.406 6.64 92.38 8.03
10/28/2022 3:30:00 AM 11.16 52.088 0.407 6.65 87.13 7.92
10/28/2022 3:45:00 AM 11.07 51.926 0.408 6.65 84.39 7.99
10/28/2022 4:00:00 AM 11.09 51.962 0.409 6.64 75.14 7.8
10/28/2022 4:15:00 AM 11.09 51.962 0.41 6.64 75.35 7.69
10/28/2022 4:30:00 AM 10.9 51.62 0.411 6.65 167.36 8.01
10/28/2022 4:45:00 AM 10.83 51.494 0.41 6.65 119.09 8.07
10/28/2022 5:00:00 AM 10.92 51.656 0.41 6.62 78.39 7.87
10/28/2022 5:15:00 AM 10.95 51.71 0.41 6.63 78.94 7.66
10/28/2022 5:30:00 AM 10.89 51.602 0.411 6.65 79.92 7.71
10/28/2022 5:45:00 AM 10.78 51.404 0.411 6.66 62.7 8.05
10/28/2022 6:00:00 AM 10.75 51.35 0.412 6.67 49.69 8.14
10/28/2022 6:15:00 AM 10.69 51.242 0.413 6.67 48 8.16
10/28/2022 6:30:00 AM 10.64 51.152 0.414 6.67 54.01 8.2
10/28/2022 6:45:00 AM 10.57 51.026 0.414 6.68 67.64 8.29
10/28/2022 7:00:00 AM 10.56 51.008 0.414 6.67 32.91 8.26
10/28/2022 7:15:00 AM 10.53 50.954 0.415 6.68 55.76 8.26
10/28/2022 7:30:00 AM 10.57 51.026 0.415 6.68 40.16 8.22
10/28/2022 7:45:00 AM 10.5 50.9 0.416 6.68 45.16 8.2
10/28/2022 8:00:00 AM 10.41 50.738 0.418 6.66 49.62 8.32
10/28/2022 8:15:00 AM 10.43 50.774 0.418 6.69 47.3 8.33
10/28/2022 8:30:00 AM 10.38 50.684 0.419 6.69 68.33 8.35
10/28/2022 8:45:00 AM 10.43 50.774 0.42 6.69 38.16 8.33
10/28/2022 9:00:00 AM 10.48 50.864 0.42 6.7 34.57 8.29
10/28/2022 9:15:00 AM 10.51 50.918 0.421 6.7 24.19 8.25
10/28/2022 9:30:00 AM 10.52 50.936 0.421 6.71 34.64 8.42
10/28/2022 9:45:00 AM 10.54 50.972 0.422 6.72 40.33 8.64
10/28/2022 10:00:00 AM 10.57 51.026 0.422 6.72 64.52 8.79
10/28/2022 10:15:00 AM 10.63 51.134 0.422 6.72 69.33 8.84
10/28/2022 10:30:00 AM 10.63 51.134 0.422 6.73 47.54 9.06
10/28/2022 10:45:00 AM 10.62 51.116 0.422 6.74 67.97 9.13
10/28/2022 11:00:00 AM 10.66 51.188 0.422 6.74 63.17 9.1
10/28/2022 11:15:00 AM 10.73 51.314 0.422 6.75 44.89 9.07
10/28/2022 11:30:00 AM 10.8 51.44 0.422 6.76 38 9.15
10/28/2022 11:45:00 AM 10.87 51.566 0.422 6.76 33.46 9.2
10/28/2022 12:00:00 PM 10.95 51.71 0.422 6.76 29.48 9.17
10/28/2022 12:15:00 PM 11.05 51.89 0.423 6.75 27.95 9.15
10/28/2022 12:30:00 PM 11.15 52.07 0.423 6.76 25.31 9.11
10/28/2022 12:45:00 PM 11.27 52.286 0.423 6.78 26.36 9.23
10/28/2022 1:00:00 PM 11.4 52.52 0.423 6.78 20.99 9.3
10/28/2022 1:15:00 PM 11.63 52.934 0.422 6.8 107.4 9.83
10/28/2022 1:30:00 PM 11.72 53.096 0.422 6.78 100.78 9.54
10/28/2022 1:45:00 PM 11.9 53.42 0.421 6.78 131.46 9.74
10/28/2022 2:00:00 PM 11.96 53.528 0.422 6.77 121.19 9.49
10/28/2022 2:15:00 PM 12.09 53.762 0.422 6.77 83.81 9.32
10/28/2022 2:30:00 PM 12.15 53.87 0.422 6.77 104.11 9.06
10/28/2022 2:45:00 PM 12.34 54.212 0.422 6.77 110.48 9.08
10/28/2022 3:00:00 PM 12.39 54.302 0.423 6.76 61.52 8.95
10/28/2022 3:15:00 PM 12.49 54.482 0.423 6.78 42.74 8.91
10/28/2022 3:30:00 PM 12.55 54.59 0.423 6.78 144.02 8.59
10/28/2022 3:45:00 PM 12.59 54.662 0.424 6.76 54.84 8.6
10/28/2022 4:00:00 PM 12.68 54.824 0.424 6.79 52.81 8.67
10/28/2022 4:15:00 PM 12.66 54.788 0.424 6.79 43.55 8.18
10/28/2022 4:30:00 PM 12.69 54.842 0.425 6.79 67.94 8.38
10/28/2022 4:45:00 PM 12.69 54.842 0.425 6.78 41.73 8.22
10/28/2022 5:00:00 PM 12.7 54.86 0.425 6.78 51.08 7.78
10/28/2022 5:15:00 PM 12.7 54.86 0.425 6.77 180.68 7.87
10/28/2022 5:30:00 PM 12.69 54.842 0.425 6.77 73.52 8.06
10/28/2022 5:45:00 PM 12.69 54.842 0.426 6.77 63.22 7.66
10/28/2022 6:00:00 PM 12.69 54.842 0.426 6.75 113.07 7.28
10/28/2022 6:15:00 PM 12.69 54.842 0.426 6.73 123.7 7.26
10/28/2022 6:30:00 PM 12.69 54.842 0.427 6.74 124.28 6.82
10/28/2022 6:45:00 PM 12.68 54.824 0.427 6.73 82.68 6.9
10/28/2022 7:00:00 PM 12.67 54.806 0.428 6.75 104.58 6.94
10/28/2022 7:15:00 PM 12.66 54.788 0.429 6.75 117.14 7.26
10/28/2022 7:30:00 PM 12.64 54.752 0.429 6.75 104.33 7.31
10/28/2022 7:45:00 PM 12.62 54.716 0.43 6.74 93.63 7.35
10/28/2022 8:00:00 PM 12.59 54.662 0.431 6.74 100.3 7.29
10/28/2022 8:15:00 PM 12.54 54.572 0.432 6.74 97.36 7.33
10/28/2022 8:30:00 PM 12.51 54.518 0.433 6.74 113.81 7.24
10/28/2022 8:45:00 PM 12.46 54.428 0.434 6.74 89.46 7.27
10/28/2022 9:00:00 PM 12.42 54.356 0.435 6.74 93.94 7.36
10/28/2022 9:15:00 PM 12.3 54.14 0.437 6.74 110.55 7.54
10/28/2022 9:30:00 PM 12.27 54.086 0.437 6.73 105.84 7.41
10/28/2022 9:45:00 PM 12.19 53.942 0.438 6.73 177.27 7.47
10/28/2022 10:00:00 PM 12.15 53.87 0.439 6.73 109.84 7.44
10/28/2022 10:15:00 PM 12.06 53.708 0.44 6.73 95.84 7.38
10/28/2022 10:30:00 PM 11.97 53.546 0.441 6.74 61.94 7.49
10/28/2022 10:45:00 PM 11.88 53.384 0.441 6.74 93.5 7.54
10/28/2022 11:00:00 PM 11.78 53.204 0.442 6.73 120.66 7.62
10/28/2022 11:15:00 PM 11.81 53.258 0.442 6.72 64.53 7.58
10/28/2022 11:30:00 PM 11.62 52.916 0.442 6.75 58.37 7.95
10/28/2022 11:45:00 PM 11.46 52.628 0.44 6.76 48.63 8.13
10/29/2022 12:00:00 AM 11.4 52.52 0.441 6.75 39.73 8.02
10/29/2022 12:15:00 AM 11.4 52.52 0.441 6.74 33.8 7.91
10/29/2022 12:30:00 AM 11.32 52.376 0.442 6.73 48.48 7.93
10/29/2022 12:45:00 AM 11.24 52.232 0.442 6.72 106.38 7.86
10/29/2022 1:00:00 AM 11.07 51.926 0.444 6.73 60.33 8.04
10/29/2022 1:15:00 AM 11 51.8 0.444 6.72 76.59 8.11
10/29/2022 1:30:00 AM 10.95 51.71 0.445 6.72 54.06 8.01
10/29/2022 1:45:00 AM 10.91 51.638 0.445 6.72 43.44 8.07
10/29/2022 2:00:00 AM 10.9 51.62 0.445 6.7 94.37 7.95
10/29/2022 2:15:00 AM 10.8 51.44 0.447 6.7 81.48 7.99
10/29/2022 2:30:00 AM 10.68 51.224 0.447 6.67 98.26 8.12
10/29/2022 2:45:00 AM 10.57 51.026 0.448 6.66 110.46 8.2
10/29/2022 3:00:00 AM 10.48 50.864 0.448 6.66 109.16 8.23
10/29/2022 3:15:00 AM 10.48 50.864 0.448 6.66 125.81 8.14
10/29/2022 3:30:00 AM 10.49 50.882 0.448 6.66 116.69 8.05
10/29/2022 3:45:00 AM 10.4 50.72 0.449 6.66 91.63 8.14
10/29/2022 4:00:00 AM 10.31 50.558 0.45 6.67 96.58 8.21
10/29/2022 4:15:00 AM 10.24 50.432 0.451 6.67 85.08 8.2
10/29/2022 4:30:00 AM 10.22 50.396 0.451 6.65 79.75 8.16
10/29/2022 4:45:00 AM 10.13 50.234 0.452 6.67 101.74 8.25
10/29/2022 5:00:00 AM 10.06 50.108 0.452 6.67 103.09 8.3
10/29/2022 5:15:00 AM 10 50 0.453 6.67 104.27 8.32
10/29/2022 5:30:00 AM 9.94 49.892 0.453 6.67 101.43 8.3
10/29/2022 5:45:00 AM 9.9 49.82 0.453 6.67 98.69 8.37
10/29/2022 6:00:00 AM 9.87 49.766 0.454 6.67 85.61 8.36
10/29/2022 6:15:00 AM 9.83 49.694 0.454 6.68 81.88 8.36
10/29/2022 6:30:00 AM 9.84 49.712 0.454 6.68 78.31 8.34
10/29/2022 6:45:00 AM 9.71 49.478 0.455 6.69 75.82 8.43
10/29/2022 7:00:00 AM 9.65 49.37 0.454 6.69 68.89 8.49
10/29/2022 7:15:00 AM 9.63 49.334 0.454 6.68 93.53 8.4
10/29/2022 7:30:00 AM 9.59 49.262 0.454 6.68 88.91 8.38
10/29/2022 7:45:00 AM 9.56 49.208 0.455 6.67 162.09 8.4
10/29/2022 8:00:00 AM 9.48 49.064 0.455 6.68 129.03 8.54
10/29/2022 8:15:00 AM 9.5 49.1 0.455 6.67 110.2 8.45
10/29/2022 8:30:00 AM 9.38 48.884 0.455 6.67 1416.82 8.63
10/29/2022 8:45:00 AM 9.46 49.028 0.455 6.67 100.17 8.59
10/29/2022 9:00:00 AM 9.44 48.992 0.455 6.67 127.03 8.55
10/29/2022 9:15:00 AM 9.43 48.974 0.456 6.67 110.04 8.65
10/29/2022 9:30:00 AM 9.43 48.974 0.457 6.68 109.83 8.63
10/29/2022 9:45:00 AM 9.36 48.848 0.458 6.69 86.57 8.86
10/29/2022 10:00:00 AM 9.36 48.848 0.458 6.69 80.77 8.9
10/29/2022 10:15:00 AM 9.36 48.848 0.458 6.7 93.89 8.91
10/29/2022 10:30:00 AM 9.34 48.812 0.458 6.7 105.22 9.04
10/29/2022 10:45:00 AM 9.41 48.938 0.458 6.7 99.84 8.97
10/29/2022 11:00:00 AM 9.43 48.974 0.459 6.7 97.1 9.02
10/29/2022 11:15:00 AM 9.49 49.082 0.459 6.7 110.37 8.99
10/29/2022 11:30:00 AM 9.57 49.226 0.459 6.7 109.87 8.97
10/29/2022 11:45:00 AM 9.65 49.37 0.46 6.71 103.28 8.93
10/29/2022 12:00:00 PM 9.75 49.55 0.46 6.72 101.62 9.04
10/29/2022 12:15:00 PM 9.86 49.748 0.46 6.73 108.68 9.04
10/29/2022 12:30:00 PM 9.99 49.982 0.46 6.74 64.25 9.26
10/29/2022 12:45:00 PM 10.18 50.324 0.46 6.74 63.94 9.24
10/29/2022 1:00:00 PM 10.33 50.594 0.46 6.75 61.71 9.3
10/29/2022 1:15:00 PM 10.46 50.828 0.46 6.75 53.09 9.38
10/29/2022 1:30:00 PM 10.67 51.206 0.46 6.77 48.68 9.55
10/29/2022 1:45:00 PM 10.81 51.458 0.46 6.77 45.6 9.51
10/29/2022 2:00:00 PM 10.94 51.692 0.461 6.78 58.96 9.39
10/29/2022 2:15:00 PM 11.08 51.944 0.461 6.78 62.75 9.23
10/29/2022 2:30:00 PM 11.26 52.268 0.461 6.78 32.45 9.14
10/29/2022 2:45:00 PM 11.39 52.502 0.461 6.78 58.04 8.99
10/29/2022 3:00:00 PM 11.53 52.754 0.461 6.79 46.06 8.92
10/29/2022 3:15:00 PM 11.62 52.916 0.462 6.79 37.85 8.88
10/29/2022 3:30:00 PM 11.72 53.096 0.462 6.78 45.45 8.96
10/29/2022 3:45:00 PM 11.88 53.384 0.461 6.79 43.89 8.75
10/29/2022 4:00:00 PM 11.92 53.456 0.461 6.79 42.64 8.77
10/29/2022 4:15:00 PM 12.06 53.708 0.461 6.81 71.7 9.05
10/29/2022 4:30:00 PM 12.04 53.672 0.462 6.79 57.62 8.78
10/29/2022 4:45:00 PM 12.07 53.726 0.462 6.79 61.72 8.61
10/29/2022 5:00:00 PM 12.09 53.762 0.462 6.79 69.34 8.58
10/29/2022 5:15:00 PM 12.09 53.762 0.462 6.78 56.32 8.07
10/29/2022 5:30:00 PM 12.1 53.78 0.461 6.77 87.87 7.78
10/29/2022 5:45:00 PM 12.09 53.762 0.461 6.75 64.46 7.56
10/29/2022 6:00:00 PM 12.08 53.744 0.461 6.76 93.64 7.17
10/29/2022 6:15:00 PM 12.09 53.762 0.46 6.73 637.83 6.95
10/29/2022 6:30:00 PM 12.08 53.744 0.459 6.71 216.81 7.11
10/29/2022 6:45:00 PM 12.07 53.726 0.457 6.68 184.72 6.77
10/29/2022 7:00:00 PM 12.05 53.69 0.456 6.65 862.87 6.09
10/29/2022 7:15:00 PM 12.03 53.654 0.455 6.64 278.26 5.79
10/29/2022 7:30:00 PM 12.02 53.636 0.454 6.62 235.9 5.38
10/29/2022 7:45:00 PM 11.98 53.564 0.454 6.61 864.73 5.35
10/29/2022 8:00:00 PM 11.98 53.564 0.453 6.61 275.98 5.65
10/29/2022 8:15:00 PM 11.96 53.528 0.453 6.61 235.02 6.08
10/29/2022 8:30:00 PM 11.82 53.276 0.453 6.6 213.79 6.2
10/29/2022 8:45:00 PM 11.7 53.06 0.452 6.6 210.41 6.54
10/29/2022 9:00:00 PM 11.61 52.898 0.452 6.6 240.67 6.6
10/29/2022 9:15:00 PM 11.52 52.736 0.453 6.6 248.26 6.89
10/29/2022 9:30:00 PM 11.48 52.664 0.453 6.6 206.91 6.79
10/29/2022 9:45:00 PM 11.4 52.52 0.454 6.59 214.65 6.96
10/29/2022 10:00:00 PM 11.31 52.358 0.454 6.59 218.22 7.06
10/29/2022 10:15:00 PM 11.27 52.286 0.454 6.58 207.05 7.02
10/29/2022 10:30:00 PM 11.15 52.07 0.455 6.57 787.86 7.03
10/29/2022 10:45:00 PM 11.09 51.962 0.455 6.59 221.59 7.32
10/29/2022 11:00:00 PM 11.04 51.872 0.456 6.59 215.81 7.27
10/29/2022 11:15:00 PM 10.95 51.71 0.457 6.57 790.44 7.03
10/29/2022 11:30:00 PM 10.86 51.548 0.457 6.59 226.15 7.34
10/29/2022 11:45:00 PM 10.79 51.422 0.457 6.59 224.09 7.54
10/30/2022 12:00:00 AM 10.7 51.26 0.458 6.6 213.53 7.54
10/30/2022 12:15:00 AM 10.63 51.134 0.458 6.59 211.73 7.6
10/30/2022 12:30:00 AM 10.53 50.954 0.459 6.6 195.36 7.78
10/30/2022 12:45:00 AM 10.44 50.792 0.46 6.6 194.24 7.93
10/30/2022 1:00:00 AM 10.4 50.72 0.46 6.61 224.19 7.85
10/30/2022 1:15:00 AM 10.25 50.45 0.455 6.62 366.03 8
10/30/2022 1:30:00 AM 10.27 50.486 0.457 6.61 215.12 7.94
10/30/2022 1:45:00 AM 10.2 50.36 0.457 6.61 195.37 8.04
10/30/2022 2:00:00 AM 10.12 50.216 0.457 6.61 188.84 8.12
10/30/2022 2:15:00 AM 10.04 50.072 0.458 6.62 168.97 8.1
10/30/2022 2:30:00 AM 9.97 49.946 0.46 6.62 181.3 8.1
10/30/2022 2:45:00 AM 9.88 49.784 0.46 6.62 177.48 8.17
10/30/2022 3:00:00 AM 9.81 49.658 0.461 6.62 180.83 8.29
10/30/2022 3:15:00 AM 9.74 49.532 0.465 6.62 155.92 8.28
10/30/2022 3:30:00 AM 9.69 49.442 0.466 6.62 161.49 8.23
10/30/2022 3:45:00 AM 9.65 49.37 0.466 6.63 146.23 8.3
10/30/2022 4:00:00 AM 9.6 49.28 0.467 6.63 140.21 8.25
10/30/2022 4:15:00 AM 9.57 49.226 0.467 6.61 127.35 8.25
10/30/2022 4:30:00 AM 9.53 49.154 0.467 6.63 139.68 8.29
10/30/2022 4:45:00 AM 9.46 49.028 0.467 6.63 147.76 8.3
10/30/2022 5:00:00 AM 9.41 48.938 0.467 6.63 141.61 8.39
10/30/2022 5:15:00 AM 9.39 48.902 0.467 6.63 135.16 8.35
10/30/2022 5:30:00 AM 9.34 48.812 0.468 6.63 119.2 8.27
10/30/2022 5:45:00 AM 9.27 48.686 0.468 6.64 161.5 8.31
10/30/2022 6:00:00 AM 9.23 48.614 0.468 6.64 130.76 8.27
10/30/2022 6:15:00 AM 9.2 48.56 0.468 6.64 110.74 8.33
10/30/2022 6:30:00 AM 9.18 48.524 0.468 6.65 109.69 8.31
10/30/2022 6:45:00 AM 9.14 48.452 0.468 6.65 95.54 8.31
10/30/2022 7:00:00 AM 9.13 48.434 0.465 6.67 106.25 8.51
10/30/2022 7:15:00 AM 9.15 48.47 0.464 6.66 109.7 8.43
10/30/2022 7:30:00 AM 8.83 47.894 0.467 6.65 100.38 8.65
10/30/2022 7:45:00 AM 8.65 47.57 0.468 6.67 136.75 8.87
10/30/2022 8:00:00 AM 8.59 47.462 0.468 6.67 123.64 8.9
10/30/2022 8:15:00 AM 8.61 47.498 0.468 6.67 146.81 8.79
10/30/2022 8:30:00 AM 8.59 47.462 0.468 6.65 202.19 8.83
10/30/2022 8:45:00 AM 8.66 47.588 0.466 6.64 130.96 8.8
10/30/2022 9:00:00 AM 8.7 47.66 0.467 6.64 149.81 8.73
10/30/2022 9:15:00 AM 8.69 47.642 0.467 6.65 133.23 8.78
10/30/2022 9:30:00 AM 8.71 47.678 0.467 6.65 144.76 8.89
10/30/2022 9:45:00 AM 8.69 47.642 0.467 6.65 155.87 9
10/30/2022 10:00:00 AM 8.71 47.678 0.468 6.66 147.95 9.06
10/30/2022 10:15:00 AM 8.72 47.696 0.468 6.66 128.52 9.12
10/30/2022 10:30:00 AM 8.66 47.588 0.468 6.67 135.2 9.36
10/30/2022 10:45:00 AM 8.72 47.696 0.468 6.67 163.69 9.29
10/30/2022 11:00:00 AM 8.78 47.804 0.468 6.66 147.75 9.2
10/30/2022 11:15:00 AM 8.88 47.984 0.467 6.66 135.67 9.22
10/30/2022 11:30:00 AM 8.97 48.146 0.467 6.67 128.61 9.28
10/30/2022 11:45:00 AM 9.07 48.326 0.467 6.68 145.68 9.34
10/30/2022 12:00:00 PM 9.17 48.506 0.467 6.68 137.44 9.19
10/30/2022 12:15:00 PM 9.29 48.722 0.467 6.68 141.76 9.3
10/30/2022 12:30:00 PM 9.43 48.974 0.466 6.66 138.57 9.45
10/30/2022 12:45:00 PM 9.79 49.622 0.462 6.72 143.86 9.87
10/30/2022 1:00:00 PM 10 50 0.457 6.7 120.48 9.85
10/30/2022 1:15:00 PM 10.1 50.18 0.456 6.72 125.65 9.72
10/30/2022 1:30:00 PM 10.2 50.36 0.455 6.72 130.99 9.62
10/30/2022 1:45:00 PM 10.35 50.63 0.455 6.72 124.58 9.67
10/30/2022 2:00:00 PM 10.46 50.828 0.456 6.71 113.34 9.59
10/30/2022 2:15:00 PM 10.59 51.062 0.456 6.72 145.37 9.57
10/30/2022 2:30:00 PM 10.85 51.53 0.456 6.72 198.68 9.59
10/30/2022 2:45:00 PM 11.01 51.818 0.455 6.74 134.93 9.78
10/30/2022 3:00:00 PM 11.24 52.232 0.453 6.74 373.39 9.7
10/30/2022 3:15:00 PM 11.27 52.286 0.454 6.75 160.43 9.61
10/30/2022 3:30:00 PM 11.46 52.628 0.452 6.75 217.51 9.68
10/30/2022 3:45:00 PM 11.46 52.628 0.453 6.75 113.42 9.37
10/30/2022 4:00:00 PM 11.49 52.682 0.454 6.76 115.93 9.34
10/30/2022 4:15:00 PM 11.59 52.862 0.454 6.74 444.07 9.28
10/30/2022 4:30:00 PM 11.58 52.844 0.455 6.73 160.52 9.15
10/30/2022 4:45:00 PM 11.6 52.88 0.456 6.73 147.57 8.87
10/30/2022 5:00:00 PM 11.65 52.97 0.456 6.75 126.07 8.91
10/30/2022 5:15:00 PM 11.67 53.006 0.457 6.75 104.24 8.86
10/30/2022 5:30:00 PM 11.67 53.006 0.458 6.74 107.24 8.66
10/30/2022 5:45:00 PM 11.61 52.898 0.459 6.76 120.43 8.56
10/30/2022 6:00:00 PM 11.58 52.844 0.461 6.74 121.04 8.33
10/30/2022 6:15:00 PM 11.57 52.826 0.462 6.75 105.12 8.22
10/30/2022 6:30:00 PM 11.56 52.808 0.463 6.75 121.6 7.8
10/30/2022 6:45:00 PM 11.55 52.79 0.464 6.74 106.14 7.66
10/30/2022 7:00:00 PM 11.55 52.79 0.464 6.73 128.98 7.51
10/30/2022 7:15:00 PM 11.54 52.772 0.465 6.73 97.33 7.41
10/30/2022 7:30:00 PM 11.5 52.7 0.465 6.73 112.82 7.65
10/30/2022 7:45:00 PM 11.43 52.574 0.466 6.72 116.34 7.66
10/30/2022 8:00:00 PM 11.37 52.466 0.467 6.72 397.6 7.46
10/30/2022 8:15:00 PM 11.33 52.394 0.468 6.72 118.24 7.6
10/30/2022 8:30:00 PM 11.31 52.358 0.468 6.71 134.79 7.51
10/30/2022 8:45:00 PM 11.31 52.358 0.468 6.72 129.27 7.38
10/30/2022 9:00:00 PM 11.14 52.052 0.47 6.72 105.18 7.59
10/30/2022 9:15:00 PM 11.05 51.89 0.47 6.73 126.85 7.66
10/30/2022 9:30:00 PM 11.03 51.854 0.47 6.73 113.33 7.54
10/30/2022 9:45:00 PM 11.01 51.818 0.471 6.73 99.57 7.4
10/30/2022 10:00:00 PM 10.93 51.674 0.471 6.73 114.84 7.37
10/30/2022 10:15:00 PM 10.86 51.548 0.472 6.74 80.23 7.47
10/30/2022 10:30:00 PM 10.65 51.17 0.473 6.74 106.52 7.84
10/30/2022 10:45:00 PM 10.65 51.17 0.472 6.74 90.78 7.73
10/30/2022 11:00:00 PM 10.66 51.188 0.473 6.73 76.95 7.6
10/30/2022 11:15:00 PM 10.66 51.188 0.473 6.73 75.38 7.5
10/30/2022 11:30:00 PM 10.39 50.702 0.475 6.75 63.98 8.01
10/30/2022 11:45:00 PM 10.39 50.702 0.474 6.74 63.27 7.92
10/31/2022 12:00:00 AM 10.41 50.738 0.473 6.73 81.61 7.81
10/31/2022 12:15:00 AM 10.41 50.738 0.473 6.73 104.93 7.66
10/31/2022 12:30:00 AM 10.4 50.72 0.474 6.72 154.05 7.48
10/31/2022 12:45:00 AM 10.4 50.72 0.474 6.72 83.69 7.45
10/31/2022 1:00:00 AM 10.13 50.234 0.475 6.75 43.32 8.13
10/31/2022 1:15:00 AM 10.14 50.252 0.475 6.74 74.02 7.96
10/31/2022 1:30:00 AM 10.11 50.198 0.475 6.74 68.91 7.94
10/31/2022 1:45:00 AM 10.12 50.216 0.474 6.7 150.41 7.8
10/31/2022 2:00:00 AM 10.15 50.27 0.474 6.68 137.71 7.55
10/31/2022 2:15:00 AM 10.16 50.288 0.474 6.67 142.62 7.26
10/31/2022 2:30:00 AM 10.01 50.018 0.475 6.68 131.04 7.74
10/31/2022 2:45:00 AM 9.9 49.82 0.476 6.68 151.24 7.73
10/31/2022 3:00:00 AM 9.88 49.784 0.474 6.67 133.13 7.66
10/31/2022 3:15:00 AM 9.85 49.73 0.475 6.67 128.18 7.69
10/31/2022 3:30:00 AM 9.84 49.712 0.476 6.66 137.41 7.72
10/31/2022 3:45:00 AM 9.84 49.712 0.476 6.66 121.98 7.61
10/31/2022 4:00:00 AM 9.72 49.496 0.476 6.67 172.18 7.88
10/31/2022 4:15:00 AM 9.65 49.37 0.477 6.67 124.18 7.91
10/31/2022 4:30:00 AM 9.63 49.334 0.477 6.67 139 7.86
10/31/2022 4:45:00 AM 9.62 49.316 0.477 6.66 155.89 7.81
10/31/2022 5:00:00 AM 9.59 49.262 0.477 6.65 133.61 7.82
10/31/2022 5:15:00 AM 9.62 49.316 0.476 6.66 139.93 7.65
10/31/2022 5:30:00 AM 9.59 49.262 0.477 6.66 124.15 7.63
10/31/2022 5:45:00 AM 9.38 48.884 0.479 6.67 126.77 8.04
10/31/2022 6:00:00 AM 9.36 48.848 0.478 6.67 113.13 8.02
10/31/2022 6:15:00 AM 9.41 48.938 0.476 6.65 139.32 7.69
10/31/2022 6:30:00 AM 9.49 49.082 0.475 6.62 164.68 7.44
10/31/2022 6:45:00 AM 9.53 49.154 0.476 6.62 153.58 7.32
10/31/2022 7:00:00 AM 9.42 48.956 0.477 6.63 153.83 7.65
10/31/2022 7:15:00 AM 9.32 48.776 0.477 6.64 145.1 7.79
10/31/2022 7:30:00 AM 9.34 48.812 0.477 6.63 161.28 7.7
10/31/2022 7:45:00 AM 9.32 48.776 0.477 6.64 155.83 7.92
10/31/2022 8:00:00 AM 9.23 48.614 0.478 6.63 156.76 8.13
10/31/2022 8:15:00 AM 9.25 48.65 0.478 6.63 147.28 8.12
10/31/2022 8:30:00 AM 9.28 48.704 0.479 6.63 115.61 7.95
10/31/2022 8:45:00 AM 9.32 48.776 0.479 6.63 170.93 7.94
10/31/2022 9:00:00 AM 9.29 48.722 0.481 6.63 135.11 7.99
10/31/2022 9:15:00 AM 9.3 48.74 0.481 6.64 147.98 8.24
10/31/2022 9:30:00 AM 9.3 48.74 0.481 6.64 126.05 8.32
10/31/2022 9:45:00 AM 9.36 48.848 0.482 6.64 150.88 8.27
10/31/2022 10:00:00 AM 9.4 48.92 0.482 6.64 133.12 8.37
10/31/2022 10:15:00 AM 9.37 48.866 0.484 6.65 146.79 8.63
10/31/2022 10:30:00 AM 9.4 48.92 0.484 6.66 129.07 8.89
10/31/2022 10:45:00 AM 9.46 49.028 0.484 6.67 122.59 8.74
10/31/2022 11:00:00 AM 9.52 49.136 0.484 6.67 130.18 8.77
10/31/2022 11:15:00 AM 9.59 49.262 0.484 6.68 122.69 8.9
10/31/2022 11:30:00 AM 9.67 49.406 0.485 6.68 128.54 9
10/31/2022 11:45:00 AM 9.76 49.568 0.485 6.69 126.08 9.13
10/31/2022 12:00:00 PM 9.83 49.694 0.485 6.69 151.14 8.92
10/31/2022 12:15:00 PM 9.97 49.946 0.485 6.7 131.76 9.34
10/31/2022 12:30:00 PM 10.07 50.126 0.485 6.71 118.75 9.45
10/31/2022 12:45:00 PM 10.23 50.414 0.485 6.72 188.31 9.66
10/31/2022 1:00:00 PM 10.43 50.774 0.484 6.74 85.07 10.21
10/31/2022 1:15:00 PM 10.49 50.882 0.484 6.75 107.22 10.36
10/31/2022 1:30:00 PM 10.63 51.134 0.483 6.74 106.86 10.3
10/31/2022 1:45:00 PM 10.73 51.314 0.482 6.75 100.84 10.3
10/31/2022 2:00:00 PM 10.84 51.512 0.482 6.76 117.72 10.12
10/31/2022 2:15:00 PM 10.93 51.674 0.482 6.76 89.64 9.88
10/31/2022 2:30:00 PM 11.06 51.908 0.481 6.77 86.13 9.96
10/31/2022 2:45:00 PM 11.13 52.034 0.481 6.77 69.38 9.84
10/31/2022 3:00:00 PM 11.24 52.232 0.481 6.78 73.92 9.72
10/31/2022 3:15:00 PM 11.29 52.322 0.48 6.78 67.92 9.76
10/31/2022 3:30:00 PM 11.32 52.376 0.481 6.77 90.08 9.31
10/31/2022 3:45:00 PM 11.37 52.466 0.481 6.77 51.04 9.04
10/31/2022 4:00:00 PM 11.44 52.592 0.481 6.78 64.95 8.91
10/31/2022 4:15:00 PM 11.5 52.7 0.481 6.78 49.93 8.72
10/31/2022 4:30:00 PM 11.57 52.826 0.482 6.79 56.06 8.61
10/31/2022 4:45:00 PM 11.6 52.88 0.483 6.77 59.38 8.48
10/31/2022 5:00:00 PM 11.62 52.916 0.483 6.78 75.98 8.32
10/31/2022 5:15:00 PM 11.67 53.006 0.484 6.78 54.77 8.28
10/31/2022 5:30:00 PM 11.71 53.078 0.485 6.78 54.07 8.32
10/31/2022 5:45:00 PM 11.71 53.078 0.485 6.77 74.88 7.97
10/31/2022 6:00:00 PM 11.73 53.114 0.486 6.76 67.93 7.7
10/31/2022 6:15:00 PM 11.75 53.15 0.486 6.77 69.85 7.74
10/31/2022 6:30:00 PM 11.78 53.204 0.487 6.77 44.53 7.52
10/31/2022 6:45:00 PM 11.84 53.312 0.487 6.77 51.77 7.63
10/31/2022 7:00:00 PM 11.89 53.402 0.487 6.76 236.09 7.46
10/31/2022 7:15:00 PM 11.9 53.42 0.488 6.75 141.12 7.23
10/31/2022 7:30:00 PM 11.89 53.402 0.488 6.75 78.64 7
10/31/2022 7:45:00 PM 11.94 53.492 0.488 6.74 129.2 6.85
10/31/2022 8:00:00 PM 11.94 53.492 0.489 6.74 76.14 6.73
10/31/2022 8:15:00 PM 11.94 53.492 0.489 6.73 128.09 6.51
10/31/2022 8:30:00 PM 11.92 53.456 0.49 6.72 62.68 6.16
10/31/2022 8:45:00 PM 11.93 53.474 0.489 6.72 122.57 5.96
10/31/2022 9:00:00 PM 11.95 53.51 0.489 6.72 57.85 6
10/31/2022 9:15:00 PM 11.97 53.546 0.49 6.72 95.59 5.91
10/31/2022 9:30:00 PM 11.98 53.564 0.49 6.72 114.15 5.79
10/31/2022 9:45:00 PM 11.98 53.564 0.49 6.72 46.73 5.64
10/31/2022 10:00:00 PM 11.98 53.564 0.491 6.71 39.43 5.49
10/31/2022 10:15:00 PM 11.97 53.546 0.491 6.7 440.84 5.36
10/31/2022 10:30:00 PM 11.99 53.582 0.491 6.7 88.44 5.39
10/31/2022 10:45:00 PM 12.01 53.618 0.492 6.69 99.26 5.39
10/31/2022 11:00:00 PM 11.99 53.582 0.492 6.68 108.89 5
10/31/2022 11:15:00 PM 12.03 53.654 0.485 6.75 85.17 6.33
10/31/2022 11:30:00 PM 12.09 53.762 0.478 6.72 97.91 6.73
10/31/2022 11:45:00 PM 12.1 53.78 0.478 6.73 98.42 6.91
11/1/2022 12:00:00 AM 12.11 53.798 0.479 6.74 103.2 6.87
11/1/2022 12:15:00 AM 12.12 53.816 0.48 6.73 75.85 6.71
11/1/2022 12:30:00 AM 12.14 53.852 0.482 6.73 109.56 6.56
11/1/2022 12:45:00 AM 12.12 53.816 0.484 6.72 73.96 6.49
11/1/2022 1:00:00 AM 12.13 53.834 0.485 6.72 49.89 6.3
11/1/2022 1:15:00 AM 12.14 53.852 0.487 6.71 97.3 6.15
11/1/2022 1:30:00 AM 12.15 53.87 0.488 6.71 104.4 6.02
11/1/2022 1:45:00 AM 12.14 53.852 0.489 6.7 62.31 5.83
11/1/2022 2:00:00 AM 12.13 53.834 0.49 6.7 68.43 5.65
11/1/2022 2:15:00 AM 12.13 53.834 0.491 6.69 61.68 5.53
11/1/2022 2:30:00 AM 12.13 53.834 0.492 6.68 93.9 5.28
11/1/2022 2:45:00 AM 12.12 53.816 0.492 6.69 92.77 5.39
11/1/2022 3:00:00 AM 12.12 53.816 0.493 6.69 111.61 5.49
11/1/2022 3:15:00 AM 12.11 53.798 0.493 6.69 85.1 5.65
11/1/2022 3:30:00 AM 12.11 53.798 0.493 6.7 136.48 5.64
11/1/2022 3:45:00 AM 12.11 53.798 0.493 6.69 51 5.57
11/1/2022 4:00:00 AM 12.11 53.798 0.493 6.69 44.63 5.32
11/1/2022 4:15:00 AM 12.11 53.798 0.493 6.69 57.61 5.34
11/1/2022 4:30:00 AM 12.1 53.78 0.493 6.67 50.37 4.76
11/1/2022 4:45:00 AM 12.1 53.78 0.492 6.63 45.24 4.22
11/1/2022 5:00:00 AM 12.1 53.78 0.493 6.58 31.89 3.28
11/1/2022 5:15:00 AM 12.1 53.78 0.488 6.58 181.77 2.86
11/1/2022 5:30:00 AM 12.13 53.834 0.483 6.51 54.7 3.06
11/1/2022 5:45:00 AM 12.11 53.798 0.481 6.49 223.85 2.99
11/1/2022 6:00:00 AM 12.11 53.798 0.481 6.48 623.91 3.08
11/1/2022 6:15:00 AM 12.1 53.78 0.479 6.49 227.58 3.02
11/1/2022 6:30:00 AM 12.1 53.78 0.479 6.5 216.71 3.15
11/1/2022 6:45:00 AM 12.1 53.78 0.48 6.51 189.66 3.28
11/1/2022 7:00:00 AM 12.11 53.798 0.48 6.52 202.15 3.67
11/1/2022 7:15:00 AM 12.11 53.798 0.48 6.52 215.12 3.71
11/1/2022 7:30:00 AM 12.12 53.816 0.481 6.52 184.73 3.51
11/1/2022 7:45:00 AM 12.11 53.798 0.48 6.52 185.29 3.62
11/1/2022 8:00:00 AM 12.1 53.78 0.481 6.54 168.51 4.16
11/1/2022 8:15:00 AM 12.13 53.834 0.482 6.53 599.82 4.43
11/1/2022 8:30:00 AM 12.15 53.87 0.482 6.53 514.28 4.57
11/1/2022 8:45:00 AM 12.16 53.888 0.482 6.54 191.94 4.63
11/1/2022 9:00:00 AM 12.17 53.906 0.483 6.54 177.27 4.69
11/1/2022 9:15:00 AM 12.2 53.96 0.483 6.54 446.17 4.42
11/1/2022 9:30:00 AM 12.22 53.996 0.484 6.55 159.19 4.75
11/1/2022 9:45:00 AM 12.28 54.104 0.483 6.56 447.06 5.15
11/1/2022 10:00:00 AM 12.32 54.176 0.484 6.56 75.4 5.23
11/1/2022 10:15:00 AM 12.36 54.248 0.484 6.57 173.31 5.63
11/1/2022 10:30:00 AM 12.39 54.302 0.485 6.56 413.11 5.28
11/1/2022 10:45:00 AM 12.42 54.356 0.486 6.57 96.14 5.31
11/1/2022 11:00:00 AM 12.46 54.428 0.486 6.59 171.77 5.87
11/1/2022 11:15:00 AM 12.54 54.572 0.486 6.59 405.22 6.02
11/1/2022 11:30:00 AM 12.57 54.626 0.486 6.6 49.33 5.99
11/1/2022 11:45:00 AM 12.58 54.644 0.487 6.6 165.47 5.94
11/1/2022 12:00:00 PM 12.62 54.716 0.487 6.6 185.14 6.09
11/1/2022 12:15:00 PM 12.71 54.878 0.486 6.6 111.16 6.11
11/1/2022 12:30:00 PM 12.7 54.86 0.487 6.62 179.08 6.44
11/1/2022 12:45:00 PM 12.7 54.86 0.487 6.62 179.9 6.5
11/1/2022 1:00:00 PM 12.74 54.932 0.486 6.64 161.56 6.5
11/1/2022 1:15:00 PM 12.76 54.968 0.486 6.64 402.74 6.39
11/1/2022 1:30:00 PM 12.75 54.95 0.487 6.64 126.81 6.28
11/1/2022 1:45:00 PM 12.8 55.04 0.486 6.65 137.47 6.26
11/1/2022 2:00:00 PM 12.85 55.13 0.485 6.65 126.11 6.35
11/1/2022 2:15:00 PM 12.9 55.22 0.485 6.65 106.28 6.36
11/1/2022 2:30:00 PM 13.07 55.526 0.484 6.68 140.39 6.71
11/1/2022 2:45:00 PM 13.13 55.634 0.484 6.68 107.42 6.77
11/1/2022 3:00:00 PM 13.16 55.688 0.485 6.68 101.34 6.61
11/1/2022 3:15:00 PM 13.19 55.742 0.485 6.7 120.42 6.96
11/1/2022 3:30:00 PM 13.2 55.76 0.485 6.71 116.54 6.85
11/1/2022 3:45:00 PM 13.32 55.976 0.485 6.7 85.15 6.92
11/1/2022 4:00:00 PM 13.35 56.03 0.485 6.72 117.93 7.17
11/1/2022 4:15:00 PM 13.41 56.138 0.485 6.73 79.82 7.4
11/1/2022 4:30:00 PM 13.49 56.282 0.484 6.73 111.73 7.45
11/1/2022 4:45:00 PM 13.55 56.39 0.483 6.75 211.99 7.75
11/1/2022 5:00:00 PM 13.65 56.57 0.482 6.78 121.53 8.33
11/1/2022 5:15:00 PM 13.72 56.696 0.482 6.8 184.54 8.58
11/1/2022 5:30:00 PM 13.76 56.768 0.486 6.76 118.78 7.57
11/1/2022 5:45:00 PM 13.69 56.642 0.488 6.76 99.2 7
11/1/2022 6:00:00 PM 13.62 56.516 0.49 6.73 108.95 6.35
11/1/2022 6:15:00 PM 13.64 56.552 0.49 6.72 94.92 6.16
11/1/2022 6:30:00 PM 13.59 56.462 0.491 6.71 134.67 5.84
11/1/2022 6:45:00 PM 13.59 56.462 0.492 6.7 135.88 5.67
11/1/2022 7:00:00 PM 13.53 56.354 0.493 6.69 139.11 5.06
11/1/2022 7:15:00 PM 13.53 56.354 0.492 6.7 120.11 5.5
11/1/2022 7:30:00 PM 13.54 56.372 0.492 6.69 172 5.3
11/1/2022 7:45:00 PM 13.52 56.336 0.492 6.67 223.28 5.24
11/1/2022 8:00:00 PM 13.5 56.3 0.487 6.62 316.09 4.94
11/1/2022 8:15:00 PM 13.5 56.3 0.486 6.58 585.24 4.59
11/1/2022 8:30:00 PM 13.47 56.246 0.485 6.57 163.8 4.25
11/1/2022 8:45:00 PM 13.45 56.21 0.485 6.57 142.31 4.06
11/1/2022 9:00:00 PM 13.45 56.21 0.486 6.56 772.02 3.65
11/1/2022 9:15:00 PM 13.45 56.21 0.485 6.56 430.34 3.72
11/1/2022 9:30:00 PM 13.45 56.21 0.485 6.56 449.94 3.72
11/1/2022 9:45:00 PM 13.42 56.156 0.486 6.57 178.16 3.77
11/1/2022 10:00:00 PM 13.42 56.156 0.486 6.57 625.22 3.72
11/1/2022 10:15:00 PM 13.41 56.138 0.486 6.59 165.02 4.07
11/1/2022 10:30:00 PM 13.43 56.174 0.486 6.59 500.14 4.34
11/1/2022 10:45:00 PM 13.41 56.138 0.487 6.6 181.56 4.41
11/1/2022 11:00:00 PM 13.42 56.156 0.486 6.6 282.85 4.49
11/1/2022 11:15:00 PM 13.29 55.922 0.468 6.74 67.74 8.03
11/1/2022 11:30:00 PM 13.29 55.922 0.455 6.7 142.22 7.78
11/1/2022 11:45:00 PM 13.31 55.958 0.454 6.65 396.79 6.9
11/2/2022 12:00:00 AM 13.32 55.976 0.457 6.66 96.31 6.59
11/2/2022 12:15:00 AM 13.31 55.958 0.46 6.67 133.68 6.54
11/2/2022 12:30:00 AM 13.29 55.922 0.463 6.65 384.56 6.43
11/2/2022 12:45:00 AM 13.26 55.868 0.466 6.66 131.06 6.33
11/2/2022 1:00:00 AM 13.2 55.76 0.468 6.66 122.89 6.29
11/2/2022 1:15:00 AM 13.17 55.706 0.47 6.66 74.72 6.2
11/2/2022 1:30:00 AM 13.16 55.688 0.471 6.66 199.82 5.98
11/2/2022 1:45:00 AM 13.15 55.67 0.472 6.66 97.31 5.84
11/2/2022 2:00:00 AM 13.09 55.562 0.473 6.66 108.61 5.87
11/2/2022 2:15:00 AM 13.05 55.49 0.474 6.68 97.5 6.07
11/2/2022 2:30:00 AM 12.97 55.346 0.475 6.69 109.5 6.37
11/2/2022 2:45:00 AM 12.94 55.292 0.475 6.7 61.05 6.48
11/2/2022 3:00:00 AM 12.92 55.256 0.476 6.7 52.37 6.44
11/2/2022 3:15:00 AM 12.86 55.148 0.477 6.72 44.44 6.67
11/2/2022 3:30:00 AM 12.82 55.076 0.477 6.71 64.39 6.63
11/2/2022 3:45:00 AM 12.79 55.022 0.478 6.71 67.2 6.63
11/2/2022 4:00:00 AM 12.78 55.004 0.478 6.71 54.44 6.55
11/2/2022 4:15:00 AM 12.76 54.968 0.478 6.71 40.07 6.46
11/2/2022 4:30:00 AM 12.73 54.914 0.479 6.71 72.69 6.42
11/2/2022 4:45:00 AM 12.69 54.842 0.479 6.7 64.24 6.5
11/2/2022 5:00:00 AM 12.61 54.698 0.48 6.71 93.77 6.7
11/2/2022 5:15:00 AM 12.56 54.608 0.48 6.71 21.39 6.62
11/2/2022 5:30:00 AM 12.52 54.536 0.481 6.71 121.69 6.59
11/2/2022 5:45:00 AM 12.47 54.446 0.481 6.72 67.08 6.74
11/2/2022 6:00:00 AM 12.36 54.248 0.482 6.72 83.65 6.73
11/2/2022 6:15:00 AM 12.38 54.284 0.481 6.71 53.04 6.63
11/2/2022 6:30:00 AM 12.28 54.104 0.482 6.72 101.03 6.75
11/2/2022 6:45:00 AM 12.27 54.086 0.482 6.72 64.16 6.71
11/2/2022 7:00:00 AM 12.23 54.014 0.482 6.72 43.27 6.7
11/2/2022 7:15:00 AM 12.25 54.05 0.483 6.71 84.92 6.44
11/2/2022 7:30:00 AM 12.26 54.068 0.483 6.69 43.31 6.26
11/2/2022 7:45:00 AM 12.29 54.122 0.482 6.68 117.46 5.81
11/2/2022 8:00:00 AM 12.14 53.852 0.48 6.64 1114.71 6
11/2/2022 8:15:00 AM 12.14 53.852 0.478 6.6 535.31 5.68
11/2/2022 8:30:00 AM 12.14 53.852 0.478 6.59 164.66 5.82
11/2/2022 8:45:00 AM 12.14 53.852 0.479 6.59 565.97 5.47
11/2/2022 9:00:00 AM 12.15 53.87 0.48 6.6 175.35 5.6
11/2/2022 9:15:00 AM 12.09 53.762 0.48 6.61 122.53 6.01
11/2/2022 9:30:00 AM 12.12 53.816 0.481 6.61 120.53 6.02
11/2/2022 9:45:00 AM 12.12 53.816 0.482 6.61 610.38 6.15
11/2/2022 10:00:00 AM 12.1 53.78 0.483 6.64 141.68 6.63
11/2/2022 10:15:00 AM 12.11 53.798 0.483 6.64 119.44 6.61
11/2/2022 10:30:00 AM 12.12 53.816 0.484 6.65 139.12 6.78
11/2/2022 10:45:00 AM 12.14 53.852 0.485 6.64 469.98 6.62
11/2/2022 11:00:00 AM 12.17 53.906 0.485 6.65 127.73 6.63
11/2/2022 11:15:00 AM 12.23 54.014 0.485 6.66 258.01 6.69
11/2/2022 11:30:00 AM 12.27 54.086 0.486 6.65 39.87 6.58
11/2/2022 11:45:00 AM 12.35 54.23 0.486 6.66 114.61 6.87
11/2/2022 12:00:00 PM 12.45 54.41 0.485 6.67 102.8 6.85
11/2/2022 12:15:00 PM 12.59 54.662 0.485 6.69 97.54 7.12
11/2/2022 12:30:00 PM 12.75 54.95 0.484 6.7 75.13 7.38
11/2/2022 12:45:00 PM 12.91 55.238 0.484 6.7 90.23 7.4
11/2/2022 1:00:00 PM 13.08 55.544 0.483 6.7 204.57 7.5
11/2/2022 1:15:00 PM 13.15 55.67 0.483 6.71 144.73 7.58
11/2/2022 1:30:00 PM 13.24 55.832 0.483 6.72 78.79 7.82
11/2/2022 1:45:00 PM 13.5 56.3 0.481 6.75 102.14 8.04
11/2/2022 2:00:00 PM 13.52 56.336 0.483 6.75 70.05 8
11/2/2022 2:15:00 PM 13.75 56.75 0.481 6.77 156.43 8.37
11/2/2022 2:30:00 PM 13.98 57.164 0.48 6.8 55.76 8.83
11/2/2022 2:45:00 PM 13.88 56.984 0.482 6.79 46.23 8.87
11/2/2022 3:00:00 PM 14.05 57.29 0.481 6.79 92.48 8.53
11/2/2022 3:15:00 PM 14.16 57.488 0.481 6.8 98.83 8.47
11/2/2022 3:30:00 PM 14.22 57.596 0.483 6.8 118.36 8.3
11/2/2022 3:45:00 PM 14.18 57.524 0.485 6.78 50.62 7.81
11/2/2022 4:00:00 PM 14.23 57.614 0.486 6.79 68.02 7.48
11/2/2022 4:15:00 PM 14.29 57.722 0.487 6.78 62.88 7.23
11/2/2022 4:30:00 PM 14.31 57.758 0.489 6.78 77.44 7.14
11/2/2022 4:45:00 PM 14.3 57.74 0.49 6.78 120.08 6.99
11/2/2022 5:00:00 PM 14.26 57.668 0.491 6.77 53.08 6.9
11/2/2022 5:15:00 PM 14.29 57.722 0.492 6.78 130.76 6.81
11/2/2022 5:30:00 PM 14.25 57.65 0.492 6.77 89.29 6.72
11/2/2022 5:45:00 PM 14.18 57.524 0.493 6.79 52.91 6.76
11/2/2022 6:00:00 PM 14.13 57.434 0.494 6.79 58.46 6.64
11/2/2022 6:15:00 PM 14.08 57.344 0.495 6.77 78.3 6.23
11/2/2022 6:30:00 PM 14.05 57.29 0.495 6.76 139.04 6.25
11/2/2022 6:45:00 PM 13.99 57.182 0.496 6.76 56.16 6.22
11/2/2022 7:00:00 PM 13.95 57.11 0.496 6.75 101.58 6.03
11/2/2022 7:15:00 PM 13.9 57.02 0.496 6.73 326.67 5.93
11/2/2022 7:30:00 PM 13.83 56.894 0.497 6.75 52.49 5.9
11/2/2022 7:45:00 PM 13.74 56.732 0.499 6.73 127.87 5.93
11/2/2022 8:00:00 PM 13.72 56.696 0.499 6.74 147.93 5.81
11/2/2022 8:15:00 PM 13.64 56.552 0.5 6.75 98.85 5.74
11/2/2022 8:30:00 PM 13.61 56.498 0.5 6.73 171.35 5.64
11/2/2022 8:45:00 PM 13.57 56.426 0.501 6.7 516.31 5.33
11/2/2022 9:00:00 PM 13.52 56.336 0.502 6.7 87.95 5.34
11/2/2022 9:15:00 PM 13.52 56.336 0.502 6.7 165.48 5.1
11/2/2022 9:30:00 PM 13.33 55.994 0.504 6.72 158.4 5.65
11/2/2022 9:45:00 PM 13.12 55.616 0.505 6.74 116.45 6.34
11/2/2022 10:00:00 PM 13 55.4 0.505 6.75 69.93 6.43
11/2/2022 10:15:00 PM 12.97 55.346 0.505 6.75 92.02 6.36
11/2/2022 10:30:00 PM 12.91 55.238 0.506 6.76 200.4 6.46
11/2/2022 10:45:00 PM 12.87 55.166 0.506 6.75 153.81 6.39
11/2/2022 11:00:00 PM 12.72 54.896 0.507 6.77 57.25 6.81
11/2/2022 11:15:00 PM 12.86 55.148 0.504 6.77 58.69 6.63
11/2/2022 11:30:00 PM 12.41 54.338 0.504 6.79 69.79 7.14
11/2/2022 11:45:00 PM 12.43 54.374 0.501 6.73 162.62 6.73
11/3/2022 12:00:00 AM 12.36 54.248 0.499 6.67 477.17 6.39
11/3/2022 12:15:00 AM 12.39 54.302 0.5 6.66 217.67 6.15
11/3/2022 12:30:00 AM 12.4 54.32 0.501 6.65 214.49 5.92
11/3/2022 12:45:00 AM 12.39 54.302 0.502 6.65 175.54 5.56
11/3/2022 1:00:00 AM 12.28 54.104 0.503 6.64 577.6 5.8
11/3/2022 1:15:00 AM 12.18 53.924 0.504 6.65 206.72 6.14
11/3/2022 1:30:00 AM 11.99 53.582 0.506 6.66 166.55 6.46
11/3/2022 1:45:00 AM 11.89 53.402 0.506 6.65 176.23 6.35
11/3/2022 2:00:00 AM 11.82 53.276 0.507 6.65 182.82 6.49
11/3/2022 2:15:00 AM 11.7 53.06 0.509 6.64 426.65 6.5
11/3/2022 2:30:00 AM 11.71 53.078 0.51 6.65 192.88 6.57
11/3/2022 2:45:00 AM 11.68 53.024 0.51 6.65 180.65 6.43
11/3/2022 3:00:00 AM 11.65 52.97 0.51 6.64 213.29 6.32
11/3/2022 3:15:00 AM 11.52 52.736 0.512 6.65 160.61 6.64
11/3/2022 3:30:00 AM 11.43 52.574 0.512 6.62 644.67 6.35
11/3/2022 3:45:00 AM 11.48 52.664 0.511 6.62 232.56 6.27
11/3/2022 4:00:00 AM 11.45 52.61 0.511 6.61 266.07 6.16
11/3/2022 4:15:00 AM 11.43 52.574 0.511 6.61 237.94 6.26
11/3/2022 4:30:00 AM 11.43 52.574 0.511 6.6 241.35 5.75
11/3/2022 4:45:00 AM 11.33 52.394 0.513 6.6 478.43 5.89
11/3/2022 5:00:00 AM 11.37 52.466 0.513 6.61 226.29 6
11/3/2022 5:15:00 AM 11.38 52.484 0.513 6.61 220.14 5.86
11/3/2022 5:30:00 AM 11.36 52.448 0.513 6.62 184.45 5.89
11/3/2022 5:45:00 AM 11.33 52.394 0.512 6.6 478.9 5.89
11/3/2022 6:00:00 AM 11.26 52.268 0.512 6.6 238.95 6.28
11/3/2022 6:15:00 AM 11.16 52.088 0.513 6.6 532.46 6.19
11/3/2022 6:30:00 AM 11.19 52.142 0.512 6.6 225.05 6.17
11/3/2022 6:45:00 AM 11.13 52.034 0.513 6.6 236.07 6.59
11/3/2022 7:00:00 AM 11.12 52.016 0.511 6.59 229.82 6.31
11/3/2022 7:15:00 AM 11.06 51.908 0.512 6.58 712.28 6.11
11/3/2022 7:30:00 AM 11.1 51.98 0.512 6.6 247.41 6.29
11/3/2022 7:45:00 AM 11.03 51.854 0.512 6.61 312.55 6.39
11/3/2022 8:00:00 AM 11.05 51.89 0.512 6.6 347.45 6.28
11/3/2022 8:15:00 AM 11.08 51.944 0.512 6.61 216.85 6.32
11/3/2022 8:30:00 AM 11.09 51.962 0.508 6.59 295.31 6.52
11/3/2022 8:45:00 AM 11.07 51.926 0.507 6.6 272.83 6.91
11/3/2022 9:00:00 AM 11.07 51.926 0.506 6.61 273.93 6.84
11/3/2022 9:15:00 AM 11.08 51.944 0.504 6.61 306.22 7.01
11/3/2022 9:30:00 AM 11.09 51.962 0.503 6.6 228.46 7.12
11/3/2022 9:45:00 AM 11.07 51.926 0.503 6.59 615.44 7.16
11/3/2022 10:00:00 AM 11.1 51.98 0.503 6.61 245.89 7.58
11/3/2022 10:15:00 AM 11.12 52.016 0.502 6.62 228.26 7.43
11/3/2022 10:30:00 AM 11.14 52.052 0.503 6.61 666.99 7.24
11/3/2022 10:45:00 AM 11.18 52.124 0.503 6.61 244.83 7.28
11/3/2022 11:00:00 AM 11.21 52.178 0.503 6.6 648.63 6.96
11/3/2022 11:15:00 AM 11.26 52.268 0.503 6.61 230.65 6.99
11/3/2022 11:30:00 AM 11.32 52.376 0.503 6.6 222.77 6.59
11/3/2022 11:45:00 AM 11.38 52.484 0.504 6.6 226.83 6.47
11/3/2022 12:00:00 PM 11.44 52.592 0.504 6.6 219.69 5.98
11/3/2022 12:15:00 PM 11.54 52.772 0.504 6.61 213.2 6.14
11/3/2022 12:30:00 PM 11.63 52.934 0.504 6.6 247.41 6.09
11/3/2022 12:45:00 PM 11.81 53.258 0.504 6.62 195.55 6.47
11/3/2022 1:00:00 PM 12.16 53.888 0.502 6.65 240.78 8.17
11/3/2022 1:15:00 PM 12.31 54.158 0.503 6.65 189.55 8.09
11/3/2022 1:30:00 PM 12.52 54.536 0.501 6.67 235.2 8.23
11/3/2022 1:45:00 PM 12.96 55.328 0.497 6.68 632.35 8.92
11/3/2022 2:00:00 PM 13 55.4 0.497 6.71 229.78 9.03
11/3/2022 2:15:00 PM 13.16 55.688 0.493 6.7 674.55 8.92
11/3/2022 2:30:00 PM 13.26 55.868 0.491 6.7 499.86 8.76
11/3/2022 2:45:00 PM 13.27 55.886 0.49 6.72 213.09 8.65
11/3/2022 3:00:00 PM 13.39 56.102 0.49 6.73 178.33 8.73
11/3/2022 3:15:00 PM 13.56 56.408 0.489 6.72 335.55 8.44
11/3/2022 3:30:00 PM 13.52 56.336 0.491 6.73 185.06 8.34
11/3/2022 3:45:00 PM 13.79 56.822 0.489 6.74 419.79 8.51
11/3/2022 4:00:00 PM 13.7 56.66 0.492 6.74 157.78 8.25
11/3/2022 4:15:00 PM 13.77 56.786 0.493 6.74 202 8.12
11/3/2022 4:30:00 PM 13.79 56.822 0.495 6.75 104.61 8.08
11/3/2022 4:45:00 PM 13.77 56.786 0.497 6.75 81.28 8.01
11/3/2022 5:00:00 PM 13.69 56.642 0.499 6.75 119.92 7.51
11/3/2022 5:15:00 PM 13.69 56.642 0.5 6.73 378.91 7.34
11/3/2022 5:30:00 PM 13.68 56.624 0.501 6.73 44.76 7.03
11/3/2022 5:45:00 PM 13.59 56.462 0.503 6.73 132.9 6.91
11/3/2022 6:00:00 PM 13.51 56.318 0.504 6.73 139.27 6.79
11/3/2022 6:15:00 PM 13.44 56.192 0.506 6.73 100.13 6.74
11/3/2022 6:30:00 PM 13.39 56.102 0.506 6.72 207.96 6.6
11/3/2022 6:45:00 PM 13.32 55.976 0.506 6.72 216.06 6.58
11/3/2022 7:00:00 PM 13.27 55.886 0.507 6.72 156.05 6.56
11/3/2022 7:15:00 PM 13.22 55.796 0.507 6.72 134.89 6.64
11/3/2022 7:30:00 PM 13.21 55.778 0.506 6.7 436.53 6.22
11/3/2022 7:45:00 PM 13.19 55.742 0.506 6.68 167.31 5.9
11/3/2022 8:00:00 PM 13.11 55.598 0.507 6.67 557.85 5.8
11/3/2022 8:15:00 PM 13.06 55.508 0.506 6.67 241.48 5.9
11/3/2022 8:30:00 PM 13.02 55.436 0.507 6.68 183.82 5.91
11/3/2022 8:45:00 PM 12.93 55.274 0.509 6.66 540.07 5.81
11/3/2022 9:00:00 PM 12.87 55.166 0.51 6.69 168.81 5.99
11/3/2022 9:15:00 PM 12.8 55.04 0.511 6.69 184.32 6.07
11/3/2022 9:30:00 PM 12.71 54.878 0.512 6.68 241.54 5.93
11/3/2022 9:45:00 PM 12.68 54.824 0.513 6.69 58.68 5.97
11/3/2022 10:00:00 PM 12.66 54.788 0.514 6.69 116.5 5.86
11/3/2022 10:15:00 PM 12.57 54.626 0.515 6.71 110.2 6.04
11/3/2022 10:30:00 PM 12.48 54.464 0.516 6.72 115.99 6.3
11/3/2022 10:45:00 PM 12.42 54.356 0.516 6.72 126.47 6.2
11/3/2022 11:00:00 PM 12.32 54.176 0.517 6.73 136.9 6.36
11/3/2022 11:15:00 PM 12.46 54.428 0.51 6.74 212.91 6.86
11/3/2022 11:30:00 PM 12.13 53.834 0.507 6.75 120.78 7.3
11/3/2022 11:45:00 PM 11.89 53.402 0.51 6.74 299.5 7.23
11/4/2022 12:00:00 AM 12.02 53.636 0.51 6.72 55.1 6.91
11/4/2022 12:15:00 AM 11.95 53.51 0.511 6.69 8.64 6.7
11/4/2022 12:30:00 AM 11.88 53.384 0.512 6.67 7.14 7.39
11/4/2022 12:45:00 AM 11.81 53.258 0.513 6.68 7.83 7.19
11/4/2022 1:00:00 AM 11.79 53.222 0.513 6.65 10.37 5.9
11/4/2022 1:15:00 AM 11.73 53.114 0.514 6.65 9.4 5.91
11/4/2022 1:30:00 AM 11.68 53.024 0.514 6.62 9.19 6.83
11/4/2022 1:45:00 AM 11.65 52.97 0.514 6.62 7.19 7.04
11/4/2022 2:00:00 AM 11.52 52.736 0.515 6.6 6.42 6.71
11/4/2022 2:15:00 AM 11.26 52.268 0.516 6.59 6.07 7.92
11/4/2022 2:30:00 AM 11.27 52.286 0.515 6.58 9.58 7.3
11/4/2022 2:45:00 AM 11.35 52.43 0.514 6.56 8.24 7.1
11/4/2022 3:00:00 AM 11.32 52.376 0.515 6.57 25.21 6.68
11/4/2022 3:15:00 AM 11.34 52.412 0.514 6.55 29.85 6.29
11/4/2022 3:30:00 AM 11.03 51.854 0.497 6.58 313.77 6.44
11/4/2022 3:45:00 AM 11.13 52.034 0.488 6.58 298.64 5.95
11/4/2022 4:00:00 AM 11.08 51.944 0.491 6.58 295.26 5.76
11/4/2022 4:15:00 AM 10.91 51.638 0.489 6.58 265.05 5.57
11/4/2022 4:30:00 AM 10.86 51.548 0.49 6.6 274.12 5.59
11/4/2022 4:45:00 AM 10.86 51.548 0.489 6.6 273.82 5.71
11/4/2022 5:00:00 AM 10.88 51.584 0.489 6.59 320.41 5.41
11/4/2022 5:15:00 AM 10.8 51.44 0.489 6.6 335.93 5.8
11/4/2022 5:30:00 AM 10.74 51.332 0.49 6.61 260.28 5.96
11/4/2022 5:45:00 AM 10.61 51.098 0.49 6.62 247.77 6.51
11/4/2022 6:00:00 AM 10.58 51.044 0.49 6.62 250.14 6.47
11/4/2022 6:15:00 AM 10.55 50.99 0.49 6.62 248.2 6.47
11/4/2022 6:30:00 AM 10.55 50.99 0.49 6.64 223.75 6.23
11/4/2022 6:45:00 AM 10.56 51.008 0.489 6.63 242.99 6.22
11/4/2022 7:00:00 AM 10.54 50.972 0.49 6.63 236.34 6.41
11/4/2022 7:15:00 AM 10.47 50.846 0.491 6.65 255.97 6.61
11/4/2022 7:30:00 AM 10.2 50.36 0.492 6.65 219.29 7.11
11/4/2022 7:45:00 AM 10.1 50.18 0.491 6.65 234.17 6.95
11/4/2022 8:00:00 AM 10.15 50.27 0.49 6.64 237.59 6.63
11/4/2022 8:15:00 AM 10.22 50.396 0.489 6.64 222.18 6.41
11/4/2022 8:30:00 AM 10.34 50.612 0.489 6.64 195.67 6.23
11/4/2022 8:45:00 AM 10.42 50.756 0.489 6.63 211.97 5.84
11/4/2022 9:00:00 AM 10.55 50.99 0.489 6.64 183.83 6.04
11/4/2022 9:15:00 AM 10.63 51.134 0.49 6.64 197.2 5.78
11/4/2022 9:30:00 AM 10.48 50.864 0.491 6.65 217.41 6.54
11/4/2022 9:45:00 AM 10.43 50.774 0.492 6.65 208.22 6.85
11/4/2022 10:00:00 AM 10.4 50.72 0.491 6.66 237.14 7.28
11/4/2022 10:15:00 AM 10.4 50.72 0.492 6.67 207.13 7.08
11/4/2022 10:30:00 AM 10.38 50.684 0.493 6.66 816.2 6.91
11/4/2022 10:45:00 AM 10.4 50.72 0.492 6.68 344.29 6.98
11/4/2022 11:00:00 AM 10.44 50.792 0.492 6.68 457.94 6.88
11/4/2022 11:15:00 AM 10.51 50.918 0.492 6.67 228.7 6.42
11/4/2022 11:30:00 AM 10.61 51.098 0.491 6.67 568.07 6.81
11/4/2022 11:45:00 AM 10.74 51.332 0.491 6.68 519.46 7.06
11/4/2022 12:00:00 PM 10.92 51.656 0.491 6.68 417.83 7.29
11/4/2022 12:15:00 PM 11.05 51.89 0.491 6.69 221.51 7.14
11/4/2022 12:30:00 PM 11.19 52.142 0.491 6.69 206.81 7.03
11/4/2022 12:45:00 PM 11.62 52.916 0.489 6.72 549.81 7.8
11/4/2022 1:00:00 PM 11.91 53.438 0.488 6.71 218.66 8.43
11/4/2022 1:15:00 PM 12.06 53.708 0.488 6.73 499.22 8.31
11/4/2022 1:30:00 PM 12.15 53.87 0.488 6.74 272.77 8.2
11/4/2022 1:45:00 PM 12.31 54.158 0.488 6.74 210.55 8.33
11/4/2022 2:00:00 PM 12.49 54.482 0.487 6.76 280.93 8.39
11/4/2022 2:15:00 PM 12.65 54.77 0.486 6.77 269.14 8.49
11/4/2022 2:30:00 PM 12.79 55.022 0.484 6.79 233.2 8.63
11/4/2022 2:45:00 PM 13.1 55.58 0.481 6.78 762.33 8.55
11/4/2022 3:00:00 PM 13.12 55.616 0.481 6.8 224.69 8.58
11/4/2022 3:15:00 PM 13.36 56.048 0.479 6.79 517.72 8.65
11/4/2022 3:30:00 PM 13.48 56.264 0.479 6.8 118.45 8.61
11/4/2022 3:45:00 PM 13.55 56.39 0.478 6.84 216.64 8.86
11/4/2022 4:00:00 PM 13.72 56.696 0.478 6.81 536.31 8.79
11/4/2022 4:15:00 PM 13.73 56.714 0.478 6.81 284.8 8.64
11/4/2022 4:30:00 PM 13.84 56.912 0.479 6.87 272.15 9.14
11/4/2022 4:45:00 PM 13.76 56.768 0.481 6.85 225.03 8.91
11/4/2022 5:00:00 PM 13.71 56.678 0.484 6.82 606.96 8.34
11/4/2022 5:15:00 PM 13.62 56.516 0.487 6.82 136.42 7.83
11/4/2022 5:30:00 PM 13.59 56.462 0.489 6.81 109.92 7.6
11/4/2022 5:45:00 PM 13.57 56.426 0.491 6.81 334.47 7.35
11/4/2022 6:00:00 PM 13.52 56.336 0.492 6.82 166.65 7.07
11/4/2022 6:15:00 PM 13.48 56.264 0.495 6.8 183.05 6.68
11/4/2022 6:30:00 PM 13.45 56.21 0.495 6.8 151.88 6.05
11/4/2022 6:45:00 PM 13.41 56.138 0.495 6.78 232.07 6.11
11/4/2022 7:00:00 PM 13.38 56.084 0.496 6.8 112.17 6.27
11/4/2022 7:15:00 PM 13.34 56.012 0.496 6.8 163.01 6.03
11/4/2022 7:30:00 PM 13.33 55.994 0.496 6.79 71.09 5.68
11/4/2022 7:45:00 PM 13.3 55.94 0.497 6.8 162.99 5.72
11/4/2022 8:00:00 PM 13.27 55.886 0.497 6.79 215.38 5.69
11/4/2022 8:15:00 PM 13.28 55.904 0.498 6.8 172.93 5.91
11/4/2022 8:30:00 PM 13.28 55.904 0.498 6.78 202.05 5.56
11/4/2022 8:45:00 PM 13.28 55.904 0.498 6.79 146.24 5.69
11/4/2022 9:00:00 PM 13.24 55.832 0.498 6.78 147.24 5.8
11/4/2022 9:15:00 PM 13.16 55.688 0.5 6.76 403.93 5.62
11/4/2022 9:30:00 PM 13.13 55.634 0.499 6.78 185.92 5.79
11/4/2022 9:45:00 PM 13.11 55.598 0.499 6.77 183.69 5.59
11/4/2022 10:00:00 PM 13.1 55.58 0.499 6.76 165.92 5.36
11/4/2022 10:15:00 PM 13.09 55.562 0.499 6.73 486.79 4.94
11/4/2022 10:30:00 PM 13.09 55.562 0.499 6.73 277.51 4.71
11/4/2022 10:45:00 PM 13.06 55.508 0.499 6.73 188.97 4.87
11/4/2022 11:00:00 PM 13.03 55.454 0.5 6.73 180.14 4.59
11/4/2022 11:15:00 PM 13.14 55.652 0.492 6.78 431.46 6.01
11/4/2022 11:30:00 PM 13.07 55.526 0.484 6.82 106.9 7.53
11/4/2022 11:45:00 PM 12.95 55.31 0.484 6.78 140.37 6.98
11/5/2022 12:00:00 AM 12.96 55.328 0.485 6.75 492.24 6.34
11/5/2022 12:15:00 AM 12.97 55.346 0.484 6.75 178.25 6.03
11/5/2022 12:30:00 AM 12.96 55.328 0.485 6.74 188.63 5.81
11/5/2022 12:45:00 AM 12.89 55.202 0.486 6.75 142.26 5.96
11/5/2022 1:00:00 AM 12.87 55.166 0.486 6.74 163.83 5.81
11/5/2022 1:15:00 AM 12.87 55.166 0.487 6.72 483.3 5.7
11/5/2022 1:30:00 AM 12.86 55.148 0.486 6.73 143.07 5.64
11/5/2022 1:45:00 AM 12.87 55.166 0.485 6.73 208.64 5.73
11/5/2022 2:00:00 AM 12.86 55.148 0.486 6.7 452.29 5.29
11/5/2022 2:15:00 AM 12.81 55.058 0.486 6.72 174.36 5.57
11/5/2022 2:30:00 AM 12.77 54.986 0.486 6.7 672.98 5.42
11/5/2022 2:45:00 AM 12.75 54.95 0.485 6.72 187.74 5.66
11/5/2022 3:00:00 AM 12.74 54.932 0.486 6.71 173.2 5.31
11/5/2022 3:15:00 AM 12.71 54.878 0.485 6.71 162.82 5.45
11/5/2022 3:30:00 AM 12.66 54.788 0.486 6.7 747.57 5.24
11/5/2022 3:45:00 AM 12.67 54.806 0.485 6.7 220.29 5.16
11/5/2022 4:00:00 AM 12.67 54.806 0.486 6.69 597.33 4.95
11/5/2022 4:15:00 AM 12.65 54.77 0.486 6.69 392.12 5.1
11/5/2022 4:30:00 AM 12.61 54.698 0.487 6.7 983.51 5.29
11/5/2022 4:45:00 AM 12.62 54.716 0.487 6.7 196.63 5.24
11/5/2022 5:00:00 AM 12.61 54.698 0.488 6.69 601.17 5.04
11/5/2022 5:15:00 AM 12.61 54.698 0.489 6.71 184.94 5.3
11/5/2022 5:30:00 AM 12.61 54.698 0.49 6.69 611.83 4.96
11/5/2022 5:45:00 AM 12.62 54.716 0.491 6.7 184.61 4.92
11/5/2022 6:00:00 AM 12.61 54.698 0.492 6.7 169.8 4.71
11/5/2022 6:15:00 AM 12.61 54.698 0.492 6.69 169.38 4.62
11/5/2022 6:30:00 AM 12.61 54.698 0.493 6.71 165.93 4.99
11/5/2022 6:45:00 AM 12.61 54.698 0.492 6.7 192.16 4.57
11/5/2022 7:00:00 AM 12.61 54.698 0.493 6.68 440.61 4.32
11/5/2022 7:15:00 AM 12.61 54.698 0.493 6.68 76.64 4.55
11/5/2022 7:30:00 AM 12.62 54.716 0.49 6.67 251.7 4.41
11/5/2022 7:45:00 AM 12.61 54.698 0.489 6.67 716.29 4.69
11/5/2022 8:00:00 AM 12.63 54.734 0.486 6.66 540.9 4.28
11/5/2022 8:15:00 AM 12.64 54.752 0.484 6.67 243.01 4
11/5/2022 8:30:00 AM 12.66 54.788 0.482 6.67 635.68 4.35
11/5/2022 8:45:00 AM 12.69 54.842 0.482 6.65 1076.33 4.66
11/5/2022 9:00:00 AM 12.71 54.878 0.482 6.65 267.26 3.9
11/5/2022 9:15:00 AM 12.72 54.896 0.481 6.66 239.59 3.84
11/5/2022 9:30:00 AM 12.76 54.968 0.482 6.65 885.95 4.02
11/5/2022 9:45:00 AM 12.78 55.004 0.479 6.65 263.99 3.74
11/5/2022 10:00:00 AM 12.82 55.076 0.48 6.66 235.08 3.85
11/5/2022 10:15:00 AM 12.93 55.274 0.482 6.67 459.47 4.75
11/5/2022 10:30:00 AM 12.98 55.364 0.483 6.67 756.03 4.52
11/5/2022 10:45:00 AM 13.05 55.49 0.483 6.66 1048.2 5.02
11/5/2022 11:00:00 AM 13.07 55.526 0.483 6.68 290.99 4.86
11/5/2022 11:15:00 AM 13.17 55.706 0.483 6.66 485.16 4.9
11/5/2022 11:30:00 AM 13.2 55.76 0.483 6.67 277.42 4.82
11/5/2022 11:45:00 AM 13.34 56.012 0.483 6.69 221.03 5.61
11/5/2022 12:00:00 PM 13.49 56.282 0.483 6.7 627.13 6.08
11/5/2022 12:15:00 PM 13.61 56.498 0.482 6.7 718.18 6.39
11/5/2022 12:30:00 PM 13.67 56.606 0.483 6.73 200.53 7.02
11/5/2022 12:45:00 PM 13.79 56.822 0.482 6.73 694.93 7.05
11/5/2022 1:00:00 PM 13.84 56.912 0.482 6.73 449.53 7.25
11/5/2022 1:15:00 PM 13.91 57.038 0.483 6.76 198.15 7.68
11/5/2022 1:30:00 PM 14.05 57.29 0.482 6.76 552.75 7.65
11/5/2022 1:45:00 PM 14.11 57.398 0.482 6.8 180.84 8.26
11/5/2022 2:00:00 PM 14.18 57.524 0.482 6.82 143.71 8.53
11/5/2022 2:15:00 PM 14.39 57.902 0.481 6.83 543 9.39
11/5/2022 2:30:00 PM 14.37 57.866 0.482 6.84 432.63 9.09
11/5/2022 2:45:00 PM 14.3 57.74 0.483 6.84 168.66 8.58
11/5/2022 3:00:00 PM 14.32 57.776 0.483 6.84 174.23 8.29
11/5/2022 3:15:00 PM 14.32 57.776 0.484 6.82 148.48 7.97
11/5/2022 3:30:00 PM 14.41 57.938 0.484 6.82 288.82 7.79
11/5/2022 3:45:00 PM 14.46 58.028 0.484 6.84 132.73 7.54
11/5/2022 4:00:00 PM 14.44 57.992 0.485 6.84 191.86 7.37
11/5/2022 4:15:00 PM 14.49 58.082 0.486 6.81 219.65 7.17
11/5/2022 4:30:00 PM 14.53 58.154 0.486 6.81 476.35 6.88
11/5/2022 4:45:00 PM 14.55 58.19 0.486 6.81 614.56 6.68
11/5/2022 5:00:00 PM 14.57 58.226 0.486 6.81 535.44 6.93
11/5/2022 5:15:00 PM 14.52 58.136 0.486 6.82 202 6.78
11/5/2022 5:30:00 PM 14.53 58.154 0.486 6.82 135.89 6.82
11/5/2022 5:45:00 PM 14.55 58.19 0.486 6.83 188.27 6.75
11/5/2022 6:00:00 PM 14.65 58.37 0.485 6.82 661.63 6.56
11/5/2022 6:15:00 PM 14.6 58.28 0.486 6.82 171.49 6.5
11/5/2022 6:30:00 PM 14.62 58.316 0.486 6.81 464.29 6.21
11/5/2022 6:45:00 PM 14.59 58.262 0.486 6.82 249.17 6.04
11/5/2022 7:00:00 PM 14.57 58.226 0.486 6.81 152.71 5.77
11/5/2022 7:15:00 PM 14.58 58.244 0.484 6.82 155.18 6.03
11/5/2022 7:30:00 PM 14.53 58.154 0.483 6.82 147.43 6.19
11/5/2022 7:45:00 PM 14.58 58.244 0.477 6.85 303.66 6.63
11/5/2022 8:00:00 PM 14.61 58.298 0.468 6.92 99.18 8.08
11/5/2022 8:15:00 PM 14.75 58.55 0.451 6.89 337.72 8.25
11/5/2022 8:30:00 PM 14.71 58.478 0.44 6.91 124.65 8.44
11/5/2022 8:45:00 PM 14.7 58.46 0.43 6.91 141.52 8.46
11/5/2022 9:00:00 PM 14.67 58.406 0.423 6.88 127.52 8.11
11/5/2022 9:15:00 PM 14.76 58.568 0.42 6.82 505.59 7.38
11/5/2022 9:30:00 PM 14.76 58.568 0.42 6.79 151.97 6.53
11/5/2022 9:45:00 PM 14.77 58.586 0.421 6.76 188.58 5.75
11/5/2022 10:00:00 PM 14.78 58.604 0.421 6.75 191.38 5.42
11/5/2022 10:15:00 PM 14.8 58.64 0.421 6.74 214.53 5.14
11/5/2022 10:30:00 PM 14.84 58.712 0.423 6.72 578.77 5.06
11/5/2022 10:45:00 PM 14.81 58.658 0.425 6.72 206.6 4.74
11/5/2022 11:00:00 PM 14.81 58.658 0.427 6.71 210.51 4.61
11/5/2022 11:15:00 PM 14.81 58.658 0.428 6.72 213.5 4.61
11/5/2022 11:30:00 PM 14.76 58.568 0.424 6.75 693.38 5.72
11/5/2022 11:45:00 PM 14.72 58.496 0.418 6.76 238.9 5.91
11/6/2022 12:00:00 AM 14.72 58.496 0.414 6.76 181.3 5.76
11/6/2022 12:15:00 AM 14.73 58.514 0.408 6.75 593.52 5.94
11/6/2022 12:30:00 AM 14.72 58.496 0.404 6.74 447.88 5.86
11/6/2022 12:45:00 AM 14.72 58.496 0.4 6.73 245.46 5.4
11/6/2022 1:00:00 AM 14.74 58.532 0.399 6.72 222.16 5.52
11/6/2022 1:15:00 AM 14.74 58.532 0.399 6.71 529.63 5.25
11/6/2022 1:30:00 AM 14.71 58.478 0.397 6.71 324.18 4.15
11/6/2022 1:45:00 AM 14.7 58.46 0.396 6.7 385.72 3.7
11/6/2022 2:00:00 AM 14.68 58.424 0.394 6.7 431.39 3.33
11/6/2022 2:15:00 AM 14.67 58.406 0.392 6.69 527.42 3.74
11/6/2022 2:30:00 AM 14.71 58.478 0.389 6.68 1039.66 3.73
11/6/2022 2:45:00 AM 14.73 58.514 0.388 6.67 347.31 3.06
11/6/2022 3:00:00 AM 14.74 58.532 0.389 6.67 319.7 2.94
11/6/2022 3:15:00 AM 14.73 58.514 0.395 6.65 918.2 2.34
11/6/2022 3:30:00 AM 14.72 58.496 0.397 6.66 1106.99 2.53
11/6/2022 3:45:00 AM 14.72 58.496 0.397 6.66 1018.2 3.21
11/6/2022 4:00:00 AM 14.71 58.478 0.398 6.66 376.68 2.63
11/6/2022 4:15:00 AM 14.72 58.496 0.398 6.66 357.1 2.61
11/6/2022 4:30:00 AM 14.71 58.478 0.399 6.65 987.01 2.68
11/6/2022 4:45:00 AM 14.7 58.46 0.4 6.65 405.06 2.11
11/6/2022 5:00:00 AM 14.71 58.478 0.401 6.65 814.89 2.6
11/6/2022 5:15:00 AM 14.7 58.46 0.402 6.66 322.88 2.01
11/6/2022 5:30:00 AM 14.71 58.478 0.404 6.64 546.77 2.37
11/6/2022 5:45:00 AM 14.68 58.424 0.405 6.65 363.75 1.8
11/6/2022 6:00:00 AM 14.71 58.478 0.407 6.64 621.66 2.51
11/6/2022 6:15:00 AM 14.69 58.442 0.409 6.65 389.19 1.95
11/6/2022 6:30:00 AM 14.72 58.496 0.409 6.67 376.52 3.1
11/6/2022 6:45:00 AM 14.77 58.586 0.409 6.68 918.53 3.92
11/6/2022 7:00:00 AM 14.79 58.622 0.407 6.68 707.45 3.3
11/6/2022 7:15:00 AM 14.82 58.676 0.403 6.66 287.35 3.18
11/6/2022 7:30:00 AM 14.83 58.694 0.401 6.65 770.04 3.46
11/6/2022 7:45:00 AM 14.82 58.676 0.4 6.65 340.7 2.47
11/6/2022 8:00:00 AM 14.86 58.748 0.398 6.64 767.48 3.19
11/6/2022 8:15:00 AM 14.88 58.784 0.398 6.63 864.97 3
11/6/2022 8:30:00 AM 14.9 58.82 0.398 6.62 755.6 2.78
11/6/2022 8:45:00 AM 14.91 58.838 0.399 6.62 914.34 2.7
11/6/2022 9:00:00 AM 14.94 58.892 0.4 6.61 816.62 2.8
11/6/2022 9:15:00 AM 14.99 58.982 0.402 6.61 780.04 2.83
11/6/2022 9:30:00 AM 15.04 59.072 0.403 6.63 837.61 4.02
11/6/2022 9:45:00 AM 15.06 59.108 0.402 6.63 1006.26 3.95
11/6/2022 10:00:00 AM 15.08 59.144 0.399 6.63 410.82 3.31
11/6/2022 10:15:00 AM 15.11 59.198 0.398 6.63 710.88 3.75
11/6/2022 10:30:00 AM 15.16 59.288 0.395 6.62 940.73 4.26
11/6/2022 10:45:00 AM 15.24 59.432 0.393 6.61 864.38 4.41
11/6/2022 11:00:00 AM 15.32 59.576 0.391 6.61 1003.15 4.43
11/6/2022 11:15:00 AM 15.38 59.684 0.392 6.6 999.97 4.43
11/6/2022 11:30:00 AM 15.51 59.918 0.391 6.61 707.38 5.03
11/6/2022 11:45:00 AM 15.61 60.098 0.391 6.6 448.96 4.56
11/6/2022 12:00:00 PM 15.66 60.188 0.391 6.59 332.63 4.21
11/6/2022 12:15:00 PM 15.76 60.368 0.39 6.57 348.58 3.97
11/6/2022 12:30:00 PM 15.82 60.476 0.391 6.58 280.33 3.84
11/6/2022 12:45:00 PM 15.86 60.548 0.391 6.58 266.24 3.57
11/6/2022 1:00:00 PM 15.93 60.674 0.392 6.57 331.28 3.51
11/6/2022 1:15:00 PM 16 60.8 0.393 6.57 324.93 3.43
11/6/2022 1:30:00 PM 16.08 60.944 0.393 6.58 272.28 3.41
11/6/2022 1:45:00 PM 16.19 61.142 0.394 6.58 351.2 3.79
11/6/2022 2:00:00 PM 16.25 61.25 0.394 6.58 359.06 3.74
11/6/2022 2:15:00 PM 16.32 61.376 0.395 6.59 388.28 3.64
11/6/2022 2:30:00 PM 16.39 61.502 0.396 6.6 308.3 3.54
11/6/2022 2:45:00 PM 16.44 61.592 0.396 6.6 328.26 3.59
11/6/2022 3:00:00 PM 16.54 61.772 0.396 6.6 348.94 3.85
11/6/2022 3:15:00 PM 16.61 61.898 0.396 6.61 316.39 3.85
11/6/2022 3:30:00 PM 16.71 62.078 0.397 6.62 283.63 4.16
11/6/2022 3:45:00 PM 16.73 62.114 0.397 6.61 323.48 3.93
11/6/2022 4:00:00 PM 16.74 62.132 0.398 6.61 296.6 3.72
11/6/2022 4:15:00 PM 16.81 62.258 0.397 6.61 377.67 3.49
11/6/2022 4:30:00 PM 16.78 62.204 0.398 6.61 291.89 3.13
11/6/2022 4:45:00 PM 16.76 62.168 0.398 6.61 304.73 2.94
11/6/2022 5:00:00 PM 16.74 62.132 0.398 6.61 328.97 2.7
11/6/2022 5:15:00 PM 16.71 62.078 0.398 6.61 340.72 2.6
11/6/2022 5:30:00 PM 16.67 62.006 0.398 6.61 316.34 2.43
11/6/2022 5:45:00 PM 16.65 61.97 0.398 6.6 346.26 2.12
11/6/2022 6:00:00 PM 16.62 61.916 0.398 6.61 359.97 1.96
11/6/2022 6:15:00 PM 16.58 61.844 0.398 6.61 352.18 2.05
11/6/2022 6:30:00 PM 16.55 61.79 0.399 6.61 339.42 2.35
11/6/2022 6:45:00 PM 16.53 61.754 0.399 6.62 391.45 2.52
11/6/2022 7:00:00 PM 16.49 61.682 0.399 6.61 244.38 2.56
11/6/2022 7:15:00 PM 16.46 61.628 0.399 6.61 293.99 2.53
11/6/2022 7:30:00 PM 16.43 61.574 0.4 6.61 322.34 2.27
11/6/2022 7:45:00 PM 16.4 61.52 0.4 6.61 247.87 2.28
11/6/2022 8:00:00 PM 16.41 61.538 0.401 6.61 569.1 3.19
11/6/2022 8:15:00 PM 16.37 61.466 0.401 6.62 238.85 2.65
11/6/2022 8:30:00 PM 16.34 61.412 0.402 6.61 360.35 2.51
11/6/2022 8:45:00 PM 16.33 61.394 0.402 6.61 684.2 2.71
11/6/2022 9:00:00 PM 16.31 61.358 0.402 6.63 836.66 2.66
11/6/2022 9:15:00 PM 16.27 61.286 0.402 6.63 345.7 2.14
11/6/2022 9:30:00 PM 16.24 61.232 0.402 6.63 269.18 2.06
11/6/2022 9:45:00 PM 16.21 61.178 0.402 6.64 346.41 2.28
11/6/2022 10:00:00 PM 16.19 61.142 0.402 6.63 276.03 2.23
11/6/2022 10:15:00 PM 16.19 61.142 0.402 6.65 269.61 2.99
11/6/2022 10:30:00 PM 16.18 61.124 0.402 6.66 333.05 2.79
11/6/2022 10:45:00 PM 16.18 61.124 0.401 6.65 236.8 2.67
11/6/2022 11:00:00 PM 16.17 61.106 0.401 6.64 339.11 2.42
11/6/2022 11:15:00 PM 16.16 61.088 0.4 6.63 264.36 2.24
11/6/2022 11:30:00 PM 16.15 61.07 0.4 6.64 331.7 2.55
11/6/2022 11:45:00 PM 16.14 61.052 0.399 6.63 762.42 3.18
11/7/2022 12:00:00 AM 16.13 61.034 0.399 6.63 401.73 2.59
11/7/2022 12:15:00 AM 16.14 61.052 0.398 6.62 776.32 3.26
11/7/2022 12:30:00 AM 16.12 61.016 0.398 6.62 408.09 2.58
11/7/2022 12:45:00 AM 16.11 60.998 0.398 6.62 421.79 2.26
11/7/2022 1:00:00 AM 16.1 60.98 0.397 6.61 403.7 2.27
11/7/2022 1:15:00 AM 16.08 60.944 0.398 6.61 352.53 2.15
11/7/2022 1:30:00 AM 16.06 60.908 0.398 6.61 344.41 1.9
11/7/2022 1:45:00 AM 16.04 60.872 0.398 6.61 355.46 1.78
11/7/2022 2:00:00 AM 16.02 60.836 0.398 6.61 358.79 1.7
11/7/2022 2:15:00 AM 16.01 60.818 0.398 6.61 371.15 2
11/7/2022 2:30:00 AM 16 60.8 0.398 6.61 404.86 1.98
11/7/2022 2:45:00 AM 15.98 60.764 0.398 6.61 408.52 1.78
11/7/2022 3:00:00 AM 15.98 60.764 0.398 6.61 389.24 1.79
11/7/2022 3:15:00 AM 15.97 60.746 0.398 6.62 403.49 2
11/7/2022 3:30:00 AM 15.96 60.728 0.397 6.62 338.87 2.06
11/7/2022 3:45:00 AM 15.95 60.71 0.397 6.62 390.17 1.97
11/7/2022 4:00:00 AM 15.94 60.692 0.396 6.62 400.77 1.7
11/7/2022 4:15:00 AM 15.93 60.674 0.396 6.62 430.66 1.6
11/7/2022 4:30:00 AM 15.91 60.638 0.395 6.62 368.35 1.74
11/7/2022 4:45:00 AM 15.88 60.584 0.394 6.62 416.62 1.8
11/7/2022 5:00:00 AM 15.85 60.53 0.393 6.62 413.79 1.68
11/7/2022 5:15:00 AM 15.81 60.458 0.392 6.63 401.14 1.92
11/7/2022 5:30:00 AM 15.77 60.386 0.392 6.62 385.5 2.19
11/7/2022 5:45:00 AM 15.71 60.278 0.39 6.64 361.52 3.16
11/7/2022 6:00:00 AM 15.67 60.206 0.388 6.63 389.94 2.84
11/7/2022 6:15:00 AM 15.61 60.098 0.386 6.63 667.41 4.05
11/7/2022 6:30:00 AM 15.56 60.008 0.382 6.63 932.58 4.22
11/7/2022 6:45:00 AM 15.53 59.954 0.379 6.62 703.77 4.14
11/7/2022 7:00:00 AM 15.45 59.81 0.376 6.61 848.53 4.83
11/7/2022 7:15:00 AM 15.45 59.81 0.374 6.59 390.12 3.78
11/7/2022 7:30:00 AM 15.36 59.648 0.369 6.59 335.15 4.69
11/7/2022 7:45:00 AM 15.32 59.576 0.369 6.59 231.87 4.54
11/7/2022 8:00:00 AM 15.27 59.486 0.369 6.59 842.04 5.18
11/7/2022 8:15:00 AM 15.26 59.468 0.357 6.57 413.93 4.47
11/7/2022 8:30:00 AM 15.23 59.414 0.35 6.56 393.16 4.23
11/7/2022 8:45:00 AM 15.2 59.36 0.345 6.57 506.66 4.93
11/7/2022 9:00:00 AM 15.2 59.36 0.338 6.56 393.32 4.28
11/7/2022 9:15:00 AM 15.17 59.306 0.332 6.56 366.39 4.5
11/7/2022 9:30:00 AM 15.14 59.252 0.326 6.57 668.32 5.35
11/7/2022 9:45:00 AM 15.13 59.234 0.319 6.56 801.82 5.18
11/7/2022 10:00:00 AM 15.14 59.252 0.313 6.56 1093.94 5.07
11/7/2022 10:15:00 AM 15.16 59.288 0.307 6.56 478.83 5.36
11/7/2022 10:30:00 AM 15.2 59.36 0.301 6.56 644.25 5.6
11/7/2022 10:45:00 AM 15.25 59.45 0.296 6.55 343.86 4.98
11/7/2022 11:00:00 AM 15.3 59.54 0.293 6.55 288.06 4.79
11/7/2022 11:15:00 AM 15.35 59.63 0.29 6.55 351.71 4.56
11/7/2022 11:30:00 AM 15.45 59.81 0.287 6.56 479.41 5.29
11/7/2022 11:45:00 AM 15.55 59.99 0.284 6.55 348.33 4.72
11/7/2022 12:00:00 PM 15.66 60.188 0.282 6.55 270.03 5.23
11/7/2022 12:15:00 PM 15.77 60.386 0.28 6.56 283.96 5.77
11/7/2022 12:30:00 PM 15.85 60.53 0.278 6.57 191.24 5.8
11/7/2022 12:45:00 PM 15.91 60.638 0.277 6.57 228.97 5.95
11/7/2022 1:00:00 PM 15.95 60.71 0.276 6.57 327.34 5.77
11/7/2022 1:15:00 PM 16 60.8 0.276 6.57 185.04 5.61
11/7/2022 1:30:00 PM 16.06 60.908 0.277 6.57 280.64 5.58
11/7/2022 1:45:00 PM 16.11 60.998 0.278 6.56 341.89 5.72
11/7/2022 2:00:00 PM 16.16 61.088 0.279 6.57 195.36 5.92
11/7/2022 2:15:00 PM 16.15 61.07 0.28 6.57 207.08 5.95
11/7/2022 2:30:00 PM 16.16 61.088 0.281 6.58 336.08 5.98
11/7/2022 2:45:00 PM 16.15 61.07 0.282 6.57 222.4 5.84
11/7/2022 3:00:00 PM 16.13 61.034 0.283 6.58 188.14 6.18
11/7/2022 3:15:00 PM 16.12 61.016 0.284 6.59 162.11 6.22
11/7/2022 3:30:00 PM 16.15 61.07 0.285 6.59 489.96 6.64
11/7/2022 3:45:00 PM 16.15 61.07 0.286 6.59 325.96 6.02
11/7/2022 4:00:00 PM 16.03 60.854 0.287 6.59 253.04 6.19
11/7/2022 4:15:00 PM 15.99 60.782 0.287 6.59 272.46 6.11
11/7/2022 4:30:00 PM 15.9 60.62 0.288 6.6 306.47 6.51
11/7/2022 4:45:00 PM 15.89 60.602 0.288 6.6 261.28 6.44
11/7/2022 5:00:00 PM 15.8 60.44 0.288 6.62 206.71 6.77
11/7/2022 5:15:00 PM 15.74 60.332 0.286 6.63 182.37 6.65
11/7/2022 5:30:00 PM 15.64 60.152 0.284 6.67 278.79 7.43
11/7/2022 5:45:00 PM 15.51 59.918 0.279 6.7 158.04 7.7
11/7/2022 6:00:00 PM 15.43 59.774 0.272 6.71 315.62 7.61
11/7/2022 6:15:00 PM 15.31 59.558 0.264 6.72 252.89 7.66
11/7/2022 6:30:00 PM 15.24 59.432 0.257 6.71 152.21 7.59
11/7/2022 6:45:00 PM 15.16 59.288 0.251 6.71 264.47 7.35
11/7/2022 7:00:00 PM 15.08 59.144 0.247 6.71 309.25 7.07
11/7/2022 7:15:00 PM 14.93 58.874 0.243 6.67 253.93 6.84
11/7/2022 7:30:00 PM 14.87 58.766 0.244 6.65 190.94 6.31
11/7/2022 7:45:00 PM 14.82 58.676 0.247 6.65 600.34 6.65
11/7/2022 8:00:00 PM 14.78 58.604 0.249 6.66 738.69 6.62
11/7/2022 8:15:00 PM 14.77 58.586 0.249 6.66 274.96 5.98
11/7/2022 8:30:00 PM 14.67 58.406 0.249 6.66 250.6 6.28
11/7/2022 8:45:00 PM 14.41 57.938 0.249 6.64 205.89 6.51
11/7/2022 9:00:00 PM 14.26 57.668 0.251 6.63 425.89 6.93
11/7/2022 9:15:00 PM 14.17 57.506 0.254 6.64 569.04 6.9
11/7/2022 9:30:00 PM 14.01 57.218 0.258 6.62 902.45 7.1
11/7/2022 9:45:00 PM 14.07 57.326 0.26 6.62 241.06 6.58
11/7/2022 10:00:00 PM 14.02 57.236 0.263 6.63 768.09 6.99
11/7/2022 10:15:00 PM 14.18 57.524 0.261 6.65 797.12 7.13
11/7/2022 10:30:00 PM 13.8 56.84 0.26 6.62 625.86 7.3
11/7/2022 10:45:00 PM 13.7 56.66 0.262 6.6 1035.2 7.28
11/7/2022 11:00:00 PM 13.7 56.66 0.265 6.59 685.1 6.96
11/7/2022 11:15:00 PM 13.65 56.57 0.268 6.6 212.92 6.87
11/7/2022 11:30:00 PM 13.42 56.156 0.272 6.58 734 6.97
11/7/2022 11:45:00 PM 13.39 56.102 0.277 6.58 211.11 6.84
11/8/2022 12:00:00 AM 13.32 55.976 0.281 6.57 218.7 6.83
11/8/2022 12:15:00 AM 13.2 55.76 0.287 6.57 948.01 6.69
11/8/2022 12:30:00 AM 13.16 55.688 0.291 6.55 235.51 6.48
11/8/2022 12:45:00 AM 13.13 55.634 0.295 6.55 249.98 6.58
11/8/2022 1:00:00 AM 13.07 55.526 0.299 6.55 634.85 6.5
11/8/2022 1:15:00 AM 12.92 55.256 0.303 6.56 228.65 6.76
11/8/2022 1:30:00 AM 12.84 55.112 0.307 6.56 261.23 6.68
11/8/2022 1:45:00 AM 12.7 54.86 0.311 6.57 895.53 6.75
11/8/2022 2:00:00 AM 12.65 54.77 0.314 6.57 143.27 6.82
11/8/2022 2:15:00 AM 12.55 54.59 0.316 6.58 230.96 7.12
11/8/2022 2:30:00 AM 12.45 54.41 0.319 6.58 615.52 7.12
11/8/2022 2:45:00 AM 12.48 54.464 0.32 6.58 211.78 6.99
11/8/2022 3:00:00 AM 12.36 54.248 0.323 6.59 182.21 7.19
11/8/2022 3:15:00 AM 12.3 54.14 0.324 6.6 211.81 7.17
11/8/2022 3:30:00 AM 12.29 54.122 0.326 6.59 219.54 7.05
11/8/2022 3:45:00 AM 12.13 53.834 0.328 6.59 452.11 7.23
11/8/2022 4:00:00 AM 12.16 53.888 0.328 6.59 246.46 7.23
11/8/2022 4:15:00 AM 12.04 53.672 0.33 6.6 197.34 7.43
11/8/2022 4:30:00 AM 11.9 53.42 0.331 6.61 170.68 7.8
11/8/2022 4:45:00 AM 11.82 53.276 0.333 6.61 203.25 7.71
11/8/2022 5:00:00 AM 11.79 53.222 0.333 6.61 198.47 7.59
11/8/2022 5:15:00 AM 11.77 53.186 0.335 6.61 190.99 7.49
11/8/2022 5:30:00 AM 11.72 53.096 0.336 6.61 192.65 7.39
11/8/2022 5:45:00 AM 11.66 52.988 0.337 6.62 202.39 7.47
11/8/2022 6:00:00 AM 11.59 52.862 0.339 6.61 793.52 7.46
11/8/2022 6:15:00 AM 11.59 52.862 0.339 6.62 232.36 7.55
11/8/2022 6:30:00 AM 11.59 52.862 0.339 6.62 201.81 7.43
11/8/2022 6:45:00 AM 11.52 52.736 0.339 6.62 191.4 7.49
11/8/2022 7:00:00 AM 11.29 52.322 0.342 6.62 494.49 7.63
11/8/2022 7:15:00 AM 11.34 52.412 0.341 6.63 218.41 7.69
11/8/2022 7:30:00 AM 11.16 52.088 0.342 6.63 227.16 8.05
11/8/2022 7:45:00 AM 11.11 51.998 0.342 6.61 890.11 7.78
11/8/2022 8:00:00 AM 11.17 52.106 0.342 6.62 219.07 7.71
11/8/2022 8:15:00 AM 11.12 52.016 0.342 6.62 190.5 7.87
11/8/2022 8:30:00 AM 11.06 51.908 0.344 6.62 947.37 7.91
11/8/2022 8:45:00 AM 11.21 52.178 0.345 6.62 230.79 7.58
11/8/2022 9:00:00 AM 11.33 52.394 0.345 6.63 198.37 7.49
11/8/2022 9:15:00 AM 11.47 52.646 0.346 6.63 191.08 7.17
11/8/2022 9:30:00 AM 11.6 52.88 0.345 6.64 246.82 6.6
11/8/2022 9:45:00 AM 11.7 53.06 0.343 6.65 236.71 6.52
11/8/2022 10:00:00 AM 11.81 53.258 0.34 6.66 245.19 6.43
11/8/2022 10:15:00 AM 11.92 53.456 0.334 6.71 239.5 7.48
11/8/2022 10:30:00 AM 12.02 53.636 0.325 6.73 250.43 7.69
11/8/2022 10:45:00 AM 12.22 53.996 0.314 6.74 883.93 8.07
11/8/2022 11:00:00 AM 12.38 54.284 0.302 6.78 804.15 8.41
11/8/2022 11:15:00 AM 12.46 54.428 0.292 6.79 287.93 8.28
11/8/2022 11:30:00 AM 12.66 54.788 0.282 6.8 652.48 8.46
11/8/2022 11:45:00 AM 12.8 55.04 0.272 6.85 249.35 9.08
11/8/2022 12:00:00 PM 12.96 55.328 0.264 6.85 673.23 9.23
11/8/2022 12:15:00 PM 13.06 55.508 0.258 6.87 564.13 9.43
11/8/2022 12:30:00 PM 13.14 55.652 0.252 6.91 198.48 9.66
11/8/2022 12:45:00 PM 13.24 55.832 0.246 6.9 182.27 9.34
11/8/2022 1:00:00 PM 13.38 56.084 0.24 6.92 605.15 9.53
11/8/2022 1:15:00 PM 13.38 56.084 0.236 6.92 167.48 9.57
11/8/2022 1:30:00 PM 13.46 56.228 0.234 6.88 574.63 8.98
11/8/2022 1:45:00 PM 13.58 56.444 0.231 6.89 459.85 8.94
11/8/2022 2:00:00 PM 13.59 56.462 0.23 6.9 172.07 9.55
11/8/2022 2:15:00 PM 13.68 56.624 0.231 6.88 649.21 8.98
11/8/2022 2:30:00 PM 13.75 56.75 0.233 6.88 602.28 8.58
11/8/2022 2:45:00 PM 13.88 56.984 0.233 6.91 519.42 9.21
11/8/2022 3:00:00 PM 13.87 56.966 0.231 6.91 172.54 8.83
11/8/2022 3:15:00 PM 13.94 57.092 0.229 6.91 579.77 8.65
11/8/2022 3:30:00 PM 13.95 57.11 0.227 6.95 396.84 9.06
11/8/2022 3:45:00 PM 13.91 57.038 0.225 6.93 180.76 8.79
11/8/2022 4:00:00 PM 13.89 57.002 0.223 6.98 176.21 9.29
11/8/2022 4:15:00 PM 13.13 55.634 0.229 6.85 687.25 9.25
11/8/2022 4:30:00 PM 12.88 55.184 0.242 6.82 262.86 8.88
11/8/2022 4:45:00 PM 12.81 55.058 0.254 6.82 181.62 8.76
11/8/2022 5:00:00 PM 12.7 54.86 0.266 6.8 341.93 8.51
11/8/2022 5:15:00 PM 12.66 54.788 0.277 6.81 158.3 8.39
11/8/2022 5:30:00 PM 12.56 54.608 0.287 6.79 427.71 8.12
11/8/2022 5:45:00 PM 12.44 54.392 0.297 6.79 522.43 8.12
11/8/2022 6:00:00 PM 12.41 54.338 0.304 6.79 186.79 8.09
11/8/2022 6:15:00 PM 12.37 54.266 0.31 6.78 150.51 7.95
11/8/2022 6:30:00 PM 12.36 54.248 0.316 6.76 156.66 7.65
11/8/2022 6:45:00 PM 12.3 54.14 0.321 6.76 168.4 7.67
11/8/2022 7:00:00 PM 12.04 53.672 0.327 6.76 157.97 7.94
11/8/2022 7:15:00 PM 11.91 53.438 0.332 6.76 154.77 7.96
11/8/2022 7:30:00 PM 11.8 53.24 0.336 6.75 168.08 7.84
11/8/2022 7:45:00 PM 11.63 52.934 0.341 6.74 437.48 7.83
11/8/2022 8:00:00 PM 11.67 53.006 0.344 6.73 188 7.86
11/8/2022 8:15:00 PM 11.6 52.88 0.348 6.71 601.71 7.62
11/8/2022 8:30:00 PM 11.66 52.988 0.351 6.7 266.28 7.44
11/8/2022 8:45:00 PM 11.65 52.97 0.354 6.69 257.87 7.33
11/8/2022 9:00:00 PM 11.65 52.97 0.357 6.69 236.36 7.23
11/8/2022 9:15:00 PM 11.5 52.7 0.36 6.68 213.73 7.39
11/8/2022 9:30:00 PM 11.48 52.664 0.362 6.68 246.17 7.16
11/8/2022 9:45:00 PM 11.27 52.286 0.365 6.68 242.41 7.66
11/8/2022 10:00:00 PM 11.02 51.836 0.367 6.68 236.84 7.81
11/8/2022 10:15:00 PM 11.13 52.034 0.366 6.69 266.26 7.92
11/8/2022 10:30:00 PM 11.07 51.926 0.366 6.69 270.64 8.01
11/8/2022 10:45:00 PM 10.87 51.566 0.368 6.67 242.8 8.12
11/8/2022 11:00:00 PM 10.84 51.512 0.368 6.67 226.39 8.04
11/8/2022 11:15:00 PM 10.77 51.386 0.369 6.67 235.95 8.03
11/8/2022 11:30:00 PM 10.65 51.17 0.371 6.67 229.9 8.16
11/8/2022 11:45:00 PM 10.45 50.81 0.373 6.67 220.28 8.33
11/9/2022 12:00:00 AM 10.29 50.522 0.375 6.67 201.26 8.41
11/9/2022 12:15:00 AM 10.36 50.648 0.375 6.66 228.22 8.23
11/9/2022 12:30:00 AM 10.43 50.774 0.375 6.65 169.4 7.99
11/9/2022 12:45:00 AM 10.19 50.342 0.378 6.68 212.79 8.45
11/9/2022 1:00:00 AM 9.99 49.982 0.379 6.68 211.18 8.66
11/9/2022 1:15:00 AM 9.99 49.982 0.38 6.67 234.54 8.54
11/9/2022 1:30:00 AM 9.85 49.73 0.381 6.67 202.13 8.51
11/9/2022 1:45:00 AM 9.77 49.586 0.383 6.66 214.19 8.53
11/9/2022 2:00:00 AM 9.74 49.532 0.383 6.67 230.66 8.59
11/9/2022 2:15:00 AM 9.76 49.568 0.384 6.66 226.36 8.45
11/9/2022 2:30:00 AM 9.7 49.46 0.385 6.67 199.43 8.48
11/9/2022 2:45:00 AM 9.59 49.262 0.386 6.67 214.22 8.69
11/9/2022 3:00:00 AM 9.58 49.244 0.386 6.68 234.9 8.67
11/9/2022 3:15:00 AM 9.6 49.28 0.386 6.68 199.03 8.56
11/9/2022 3:30:00 AM 9.49 49.082 0.387 6.68 202.58 8.68
11/9/2022 3:45:00 AM 9.4 48.92 0.386 6.65 323.4 8.54
11/9/2022 4:00:00 AM 9.38 48.884 0.386 6.62 771.79 7.93
11/9/2022 4:15:00 AM 9.35 48.83 0.386 6.61 272.9 7.93
11/9/2022 4:30:00 AM 9.31 48.758 0.387 6.59 289.56 7.87
11/9/2022 4:45:00 AM 9.34 48.812 0.387 6.6 231.54 7.86
11/9/2022 5:00:00 AM 9.29 48.722 0.388 6.6 226.07 7.89
11/9/2022 5:15:00 AM 9.3 48.74 0.388 6.61 216.05 7.91
11/9/2022 5:30:00 AM 9.2 48.56 0.388 6.62 596.09 7.7
11/9/2022 5:45:00 AM 9.17 48.506 0.389 6.6 285.99 7.58
11/9/2022 6:00:00 AM 9.15 48.47 0.39 6.59 254.8 7.45
11/9/2022 6:15:00 AM 9.14 48.452 0.39 6.6 235.5 7.3
11/9/2022 6:30:00 AM 9.1 48.38 0.391 6.58 306.05 7.27
11/9/2022 6:45:00 AM 9.09 48.362 0.393 6.6 312.04 7.42
11/9/2022 7:00:00 AM 9.08 48.344 0.394 6.6 337.96 7.44
11/9/2022 7:15:00 AM 9.05 48.29 0.395 6.61 300.31 7.37
11/9/2022 7:30:00 AM 8.99 48.182 0.395 6.6 297.29 7.56
11/9/2022 7:45:00 AM 8.95 48.11 0.397 6.61 841.95 7.68
11/9/2022 8:00:00 AM 8.96 48.128 0.397 6.6 260.31 7.52
11/9/2022 8:15:00 AM 8.96 48.128 0.398 6.59 286.27 7.47
11/9/2022 8:30:00 AM 8.98 48.164 0.398 6.6 280.6 7.36
11/9/2022 8:45:00 AM 9.03 48.254 0.398 6.6 281.31 7.2
11/9/2022 9:00:00 AM 9.03 48.254 0.4 6.6 263.78 7.32
11/9/2022 9:15:00 AM 8.97 48.146 0.401 6.6 266.01 7.36
11/9/2022 9:30:00 AM 9 48.2 0.401 6.61 286.37 7.41
11/9/2022 9:45:00 AM 8.98 48.164 0.401 6.61 252.37 7.59
11/9/2022 10:00:00 AM 8.95 48.11 0.402 6.62 261.62 7.66
11/9/2022 10:15:00 AM 8.95 48.11 0.402 6.62 254.3 7.93
11/9/2022 10:30:00 AM 9.02 48.236 0.402 6.63 327.54 8.04
11/9/2022 10:45:00 AM 9.12 48.416 0.402 6.63 274.28 8.1
11/9/2022 11:00:00 AM 9.23 48.614 0.402 6.64 405.98 7.84
11/9/2022 11:15:00 AM 9.36 48.848 0.402 6.64 300.73 7.69
11/9/2022 11:30:00 AM 9.52 49.136 0.403 6.65 256.15 8.06
11/9/2022 11:45:00 AM 9.67 49.406 0.403 6.65 265.71 8.07
11/9/2022 12:00:00 PM 9.78 49.604 0.404 6.66 263.84 7.92
11/9/2022 12:15:00 PM 9.89 49.802 0.405 6.66 338.16 7.75
11/9/2022 12:30:00 PM 10 50 0.405 6.67 316.93 7.65
11/9/2022 12:45:00 PM 10.11 50.198 0.405 6.67 304.18 7.5
11/9/2022 1:00:00 PM 10.19 50.342 0.405 6.67 314.17 7.46
11/9/2022 1:15:00 PM 10.29 50.522 0.406 6.68 297.9 7.17
11/9/2022 1:30:00 PM 10.39 50.702 0.406 6.67 283.38 7
11/9/2022 1:45:00 PM 10.52 50.936 0.406 6.67 304.4 6.87
11/9/2022 2:00:00 PM 10.63 51.134 0.406 6.67 323.23 6.81
11/9/2022 2:15:00 PM 10.73 51.314 0.406 6.68 284.04 6.78
11/9/2022 2:30:00 PM 10.87 51.566 0.406 6.67 396.25 7.09
11/9/2022 2:45:00 PM 10.92 51.656 0.407 6.67 336.35 6.63
11/9/2022 3:00:00 PM 10.98 51.764 0.407 6.68 293.33 7.09
11/9/2022 3:15:00 PM 11.07 51.926 0.407 6.7 375.31 8.15
11/9/2022 3:30:00 PM 11.12 52.016 0.406 6.71 1008.09 8.38
11/9/2022 3:45:00 PM 11.12 52.016 0.406 6.71 335.18 7.77
11/9/2022 4:00:00 PM 11.13 52.034 0.406 6.71 283.82 7.63
11/9/2022 4:15:00 PM 11.11 51.998 0.406 6.71 281.39 7.54
11/9/2022 4:30:00 PM 11.1 51.98 0.405 6.71 294.95 7.38
11/9/2022 4:45:00 PM 11.08 51.944 0.405 6.71 233.41 7.28
11/9/2022 5:00:00 PM 11.05 51.89 0.405 6.71 259.25 7.49
11/9/2022 5:15:00 PM 11.04 51.872 0.406 6.71 242.13 7.34
11/9/2022 5:30:00 PM 11.04 51.872 0.406 6.71 236.52 7.19
11/9/2022 5:45:00 PM 11.03 51.854 0.407 6.71 259.65 7.13
11/9/2022 6:00:00 PM 11.03 51.854 0.407 6.71 228.24 6.94
11/9/2022 6:15:00 PM 11 51.8 0.408 6.71 246.28 6.97
11/9/2022 6:30:00 PM 10.98 51.764 0.409 6.71 262.35 6.73
11/9/2022 6:45:00 PM 10.95 51.71 0.409 6.7 233.96 6.75
11/9/2022 7:00:00 PM 10.91 51.638 0.41 6.7 247.15 6.8
11/9/2022 7:15:00 PM 10.84 51.512 0.411 6.7 365.71 7.15
11/9/2022 7:30:00 PM 10.81 51.458 0.412 6.71 335.43 6.99
11/9/2022 7:45:00 PM 10.76 51.368 0.412 6.71 258.12 6.99
11/9/2022 8:00:00 PM 10.7 51.26 0.413 6.7 656.43 7.16
11/9/2022 8:15:00 PM 10.66 51.188 0.413 6.71 292.81 7.09
11/9/2022 8:30:00 PM 10.6 51.08 0.413 6.72 252.07 7.2
11/9/2022 8:45:00 PM 10.53 50.954 0.413 6.71 268.21 7.17
11/9/2022 9:00:00 PM 10.52 50.936 0.413 6.71 254.29 7.01
11/9/2022 9:15:00 PM 10.48 50.864 0.413 6.71 245.04 7.11
11/9/2022 9:30:00 PM 10.36 50.648 0.414 6.71 273.79 7.21
11/9/2022 9:45:00 PM 10.28 50.504 0.414 6.71 273.56 7.38
11/9/2022 10:00:00 PM 10.25 50.45 0.414 6.7 244.8 7.27
11/9/2022 10:15:00 PM 10.31 50.558 0.413 6.7 281.79 7.07
11/9/2022 10:30:00 PM 10.13 50.234 0.415 6.71 255.74 7.38
11/9/2022 10:45:00 PM 10.02 50.036 0.415 6.71 214.33 7.46
11/9/2022 11:00:00 PM 9.97 49.946 0.414 6.71 212.55 7.66
11/9/2022 11:15:00 PM 9.89 49.802 0.415 6.71 226.11 7.6
11/9/2022 11:30:00 PM 9.84 49.712 0.415 6.7 231.42 7.61
11/9/2022 11:45:00 PM 9.79 49.622 0.415 6.7 239.7 7.55
11/10/2022 12:00:00 AM 9.77 49.586 0.416 6.7 240.04 7.6
11/10/2022 12:15:00 AM 9.73 49.514 0.417 6.7 247.86 7.64
11/10/2022 12:30:00 AM 9.71 49.478 0.417 6.7 239.63 7.6
11/10/2022 12:45:00 AM 9.7 49.46 0.418 6.7 253.12 7.55
11/10/2022 1:00:00 AM 9.67 49.406 0.419 6.7 239.18 7.57
11/10/2022 1:15:00 AM 9.66 49.388 0.419 6.69 252.4 7.58
11/10/2022 1:30:00 AM 9.64 49.352 0.42 6.7 253.19 7.53
11/10/2022 1:45:00 AM 9.57 49.226 0.42 6.7 275.9 7.55
11/10/2022 2:00:00 AM 9.57 49.226 0.42 6.7 246.38 7.55
11/10/2022 2:15:00 AM 9.37 48.866 0.421 6.7 230.37 7.94
11/10/2022 2:30:00 AM 9.32 48.776 0.421 6.7 235.89 7.99
11/10/2022 2:45:00 AM 9.3 48.74 0.42 6.7 270.84 8.04
11/10/2022 3:00:00 AM 9.28 48.704 0.42 6.69 232.97 7.9
11/10/2022 3:15:00 AM 9.23 48.614 0.421 6.69 242.16 7.94
11/10/2022 3:30:00 AM 9.2 48.56 0.421 6.69 241.19 8
11/10/2022 3:45:00 AM 9.2 48.56 0.421 6.69 264.08 7.91
11/10/2022 4:00:00 AM 9.17 48.506 0.421 6.69 233.25 8.03
11/10/2022 4:15:00 AM 9.11 48.398 0.423 6.7 279.4 8.06
11/10/2022 4:30:00 AM 9.09 48.362 0.423 6.7 273.86 8.16
11/10/2022 4:45:00 AM 9.03 48.254 0.424 6.69 243.01 8.23
11/10/2022 5:00:00 AM 8.99 48.182 0.424 6.69 242.96 8.21
11/10/2022 5:15:00 AM 8.98 48.164 0.425 6.69 220.08 8.17
11/10/2022 5:30:00 AM 8.96 48.128 0.425 6.7 288.61 8.22
11/10/2022 5:45:00 AM 8.92 48.056 0.425 6.68 239.62 8.19
11/10/2022 6:00:00 AM 8.88 47.984 0.427 6.7 246.22 8.28
11/10/2022 6:15:00 AM 8.86 47.948 0.425 6.69 245.28 8.32
11/10/2022 6:30:00 AM 8.82 47.876 0.425 6.7 256.4 8.37
11/10/2022 6:45:00 AM 8.77 47.786 0.424 6.69 208.6 8.45
11/10/2022 7:00:00 AM 8.78 47.804 0.423 6.69 179.32 8.31
11/10/2022 7:15:00 AM 8.79 47.822